Darstellungsparameter: Aktuell verwendete Einstellungen:
Skalierung der Graphiken ... ?
xyx+y,   Skalierungsfaktor:      Skalierung: Modus: x, Faktor: 1
Darstellungszeitraum ... ?
Vom - - bis: - -   Zeitraum: 10.01.2009 - 09.04.2009
Min/Max/Avg-Anzeige ... ?
Zeige MMA aktuell
Zeige MMA Monat
Zeige MMA alles
Zeige --A aktuell
Zeige --A Monat
Zeige --A alles
Keine MMA-Anzeige
MMA:
Keine MMA-Graphiken
MMA-Basis: 10.01.2009 - 09.04.2009
Quicknavigation für Darstellung... ?
Tage:      1T, 2T, 3T, 5T -1T -2T -3T -5T +1T +2T +3T +5T
Wochen: 1W, 2W, 3W -1W -2W -3W +1W +2W +3W
Monate: 1M, 3M, 6M -1M -3M -6M +1M +3M +6M
Jahre:    1J, 3J, 5J, 10J -1J -3J -5J -10J +1J +3J +5J +10J
Nutze für die Darstellung ... ?
Originaldaten oder Mittelwerte auf ...
Stundenbasis Tagesbasis Wochenbasis
Monatsbasis Jahresbasis      Datenbasis: Original-Daten
Darstellen als:
Statistik (Auto) Statistik J:M      Darstellung:
Zur Graphik,    zurück zur Übersicht aller Sensoren.
 
Tabellarische Datenbersicht: ?
 
Sensor: Nr:Datum:Temp:Abs-Feuchte:Windchill:Wind:
Aussen-T/F 1 10-01-2009 00:03:56 -12.2 C 1.45 g/m*3 -12.2 C 0 km/h
2 10-01-2009 00:15:56 -12.4 C 1.41 g/m*3 -12.4 C 0 km/h
3 10-01-2009 00:27:56 -12.5 C 1.4 g/m*3 -12.5 C 0 km/h
4 10-01-2009 00:39:56 -12.5 C 1.38 g/m*3 -12.5 C 0 km/h
5 10-01-2009 00:51:56 -12.6 C 1.37 g/m*3 -12.6 C 0 km/h
6 10-01-2009 01:03:56 -12.7 C 1.36 g/m*3 -12.7 C 0 km/h
7 10-01-2009 01:15:56 -12.6 C 1.37 g/m*3 -12.6 C 0 km/h
8 10-01-2009 01:27:56 -12.6 C 1.37 g/m*3 -12.6 C 0 km/h
9 10-01-2009 01:39:55 -12.8 C 1.35 g/m*3 -12.8 C 0 km/h
10 10-01-2009 01:51:56 -12.8 C 1.35 g/m*3 -12.8 C 0 km/h
11 10-01-2009 02:03:55 -13 C 1.33 g/m*3 -13 C 0 km/h
12 10-01-2009 02:15:55 -13 C 1.33 g/m*3 -13 C 0 km/h
13 10-01-2009 02:27:55 -13 C 1.31 g/m*3 -13 C 0 km/h
14 10-01-2009 02:39:55 -13 C 1.31 g/m*3 -13 C 0 km/h
15 10-01-2009 02:52:02 -13.1 C 1.3 g/m*3 -13.1 C 0 km/h
16 10-01-2009 03:04:02 -13.2 C 1.29 g/m*3 -13.2 C 0 km/h
17 10-01-2009 03:16:01 -13.4 C 1.27 g/m*3 -13.4 C 0 km/h
18 10-01-2009 03:28:01 -13.3 C 1.28 g/m*3 -13.3 C 0 km/h
19 10-01-2009 03:40:02 -13.4 C 1.27 g/m*3 -13.4 C 0 km/h
20 10-01-2009 03:52:02 -13.5 C 1.26 g/m*3 -13.5 C 0 km/h
21 10-01-2009 04:04:01 -13.5 C 1.26 g/m*3 -13.5 C 0 km/h
22 10-01-2009 04:16:01 -13.6 C 1.23 g/m*3 -13.6 C 0 km/h
23 10-01-2009 04:28:02 -13.8 C 1.21 g/m*3 -13.8 C 0 km/h
24 10-01-2009 04:40:01 -13.7 C 1.22 g/m*3 -13.7 C 0 km/h
25 10-01-2009 04:52:01 -13.8 C 1.21 g/m*3 -13.8 C 0 km/h
Sensor: Nr:Datum:Temp:Abs-Feuchte:Windchill:Wind:
Aussen-T/F 26 10-01-2009 05:04:01 -13.9 C 1.19 g/m*3 -13.9 C 0 km/h
27 10-01-2009 05:16:02 -14 C 1.18 g/m*3 -14 C 0 km/h
28 10-01-2009 05:28:02 -14 C 1.18 g/m*3 -14 C 0 km/h
29 10-01-2009 05:40:01 -14 C 1.18 g/m*3 -14 C 0 km/h
30 10-01-2009 05:52:01 -14 C 1.18 g/m*3 -14 C 0 km/h
31 10-01-2009 06:04:02 -14.1 C 1.17 g/m*3 -14.1 C 0 km/h
32 10-01-2009 06:16:01 -14.3 C 1.13 g/m*3 -14.3 C 0 km/h
33 10-01-2009 06:28:01 -14.3 C 1.13 g/m*3 -14.3 C 0 km/h
34 10-01-2009 06:40:01 -14.1 C 1.17 g/m*3 -14.1 C 0 km/h
35 10-01-2009 06:52:01 -14.2 C 1.16 g/m*3 -14.2 C 0 km/h
36 10-01-2009 07:04:01 -14.4 C 1.13 g/m*3 -14.4 C 0 km/h
37 10-01-2009 07:16:01 -14.4 C 1.13 g/m*3 -14.4 C 0 km/h
38 10-01-2009 07:28:01 -14.4 C 1.13 g/m*3 -14.4 C 0 km/h
39 10-01-2009 07:40:02 -14.5 C 1.12 g/m*3 -14.5 C 0 km/h
40 10-01-2009 07:52:01 -14.5 C 1.12 g/m*3 -14.5 C 0 km/h
41 10-01-2009 08:04:02 -14.3 C 1.13 g/m*3 -14.3 C 0 km/h
42 10-01-2009 08:16:01 -14.3 C 1.13 g/m*3 -14.3 C 0 km/h
43 10-01-2009 08:28:01 -14.4 C 1.11 g/m*3 -14.4 C 0 km/h
44 10-01-2009 08:40:01 -14.5 C 1.1 g/m*3 -14.5 C 0 km/h
45 10-01-2009 08:52:01 -14.5 C 1.1 g/m*3 -14.5 C 0 km/h
46 10-01-2009 09:04:02 -14.3 C 1.12 g/m*3 -14.3 C 0 km/h
47 10-01-2009 09:16:01 -14.3 C 1.12 g/m*3 -14.3 C 0 km/h
48 10-01-2009 09:28:01 -14.4 C 1.11 g/m*3 -14.4 C 0 km/h
49 10-01-2009 09:40:01 -14.1 C 1.13 g/m*3 -14.1 C 0 km/h
50 10-01-2009 09:52:01 -13.8 C 1.18 g/m*3 -13.8 C 0 km/h
Sensor: Nr:Datum:Temp:Abs-Feuchte:Windchill:Wind:
Aussen-T/F 51 10-01-2009 10:04:01 -13.8 C 1.18 g/m*3 -13.8 C 0 km/h
52 10-01-2009 10:16:01 -13.7 C 1.19 g/m*3 -13.7 C 0 km/h
53 10-01-2009 10:28:01 -13.4 C 1.22 g/m*3 -13.4 C 0 km/h
54 10-01-2009 10:40:02 -13.4 C 1.22 g/m*3 -13.4 C 0 km/h
55 10-01-2009 10:52:01 -13.2 C 1.24 g/m*3 -13.2 C 0 km/h
56 10-01-2009 11:04:02 -12.9 C 1.28 g/m*3 -12.9 C 0 km/h
57 10-01-2009 11:16:01 -12.6 C 1.31 g/m*3 -12.6 C 0 km/h
58 10-01-2009 11:28:01 -12.4 C 1.35 g/m*3 -12.4 C 0 km/h
59 10-01-2009 11:40:01 -12.1 C 1.39 g/m*3 -12.1 C 0 km/h
60 10-01-2009 11:52:01 -11.8 C 1.44 g/m*3 -11.8 C 0 km/h
61 10-01-2009 12:04:01 -11.5 C 1.47 g/m*3 -11.5 C 0 km/h
62 10-01-2009 12:16:02 -11.2 C 1.53 g/m*3 -11.2 C 0 km/h
63 10-01-2009 12:28:02 -10.9 C 1.56 g/m*3 -10.9 C 0 km/h
64 10-01-2009 12:40:01 -10.3 C 1.66 g/m*3 -10.3 C 0 km/h
65 10-01-2009 12:52:02 -9.6 C 1.77 g/m*3 -9.6 C 0 km/h
66 10-01-2009 13:04:01 -9 C 1.85 g/m*3 -9 C 0 km/h
67 10-01-2009 13:16:02 -8.2 C 1.99 g/m*3 -8.2 C 0 km/h
68 10-01-2009 13:28:02 -7.6 C 2.08 g/m*3 -7.6 C 0 km/h
69 10-01-2009 13:40:01 -7 C 2.18 g/m*3 -7 C 0 km/h
70 10-01-2009 13:52:01 -6.4 C 2.28 g/m*3 -6.4 C 0 km/h
71 10-01-2009 14:04:01 -6.6 C 2.21 g/m*3 -6.6 C 0 km/h
72 10-01-2009 14:16:01 -7.1 C 2.1 g/m*3 -7.1 C 0 km/h
73 10-01-2009 14:28:01 -7.4 C 2.06 g/m*3 -7.4 C 0 km/h
74 10-01-2009 14:40:02 -7.5 C 2.04 g/m*3 -7.5 C 0 km/h
75 10-01-2009 14:52:01 -7.5 C 2.07 g/m*3 -7.5 C 0 km/h
Sensor: Nr:Datum:Temp:Abs-Feuchte:Windchill:Wind:
Aussen-T/F 76 10-01-2009 15:04:02 -7.5 C 2.1 g/m*3 -7.5 C 0 km/h
77 10-01-2009 15:16:01 -7.5 C 2.1 g/m*3 -7.5 C 0 km/h
78 10-01-2009 15:28:01 -7.4 C 2.14 g/m*3 -7.4 C 0 km/h
79 10-01-2009 15:40:02 -7.4 C 2.14 g/m*3 -7.4 C 0 km/h
80 10-01-2009 15:52:01 -7.4 C 2.14 g/m*3 -7.4 C 0 km/h
81 10-01-2009 16:04:01 -7.3 C 2.19 g/m*3 -7.3 C 0 km/h
82 10-01-2009 16:16:01 -7.3 C 2.19 g/m*3 -7.3 C 0 km/h
83 10-01-2009 16:28:01 -7.4 C 2.17 g/m*3 -7.4 C 0 km/h
84 10-01-2009 16:40:01 -7.7 C 2.1 g/m*3 -7.7 C 0 km/h
85 10-01-2009 16:52:02 -7.8 C 2.08 g/m*3 -7.8 C 0 km/h
86 10-01-2009 17:04:01 -8 C 2.08 g/m*3 -8 C 0 km/h
87 10-01-2009 17:16:01 -8.3 C 2.01 g/m*3 -8.3 C 0 km/h
88 10-01-2009 17:28:01 -8.5 C 2 g/m*3 -8.5 C 0 km/h
89 10-01-2009 17:40:01 -8.6 C 1.99 g/m*3 -8.6 C 0 km/h
90 10-01-2009 17:52:01 -8.8 C 1.96 g/m*3 -8.8 C 0 km/h
91 10-01-2009 18:04:01 -8.8 C 1.96 g/m*3 -8.8 C 0 km/h
92 10-01-2009 18:16:01 -9 C 1.93 g/m*3 -9 C 0 km/h
93 10-01-2009 18:28:01 -9.2 C 1.9 g/m*3 -9.2 C 0 km/h
94 10-01-2009 18:40:02 -9.4 C 1.87 g/m*3 -9.4 C 0 km/h
95 10-01-2009 18:52:01 -9.7 C 1.81 g/m*3 -9.7 C 0 km/h
96 10-01-2009 19:04:02 -9.6 C 1.84 g/m*3 -9.6 C 0 km/h
97 10-01-2009 19:16:01 -9.5 C 1.88 g/m*3 -9.5 C 0 km/h
98 10-01-2009 19:28:01 -9.8 C 1.82 g/m*3 -9.8 C 0 km/h
99 10-01-2009 19:40:02 -9.9 C 1.8 g/m*3 -9.9 C 0 km/h
100 10-01-2009 19:52:01 -9.9 C 1.8 g/m*3 -9.9 C 0 km/h
Sensor: Nr:Datum:Temp:Abs-Feuchte:Windchill:Wind:
Aussen-T/F 101 10-01-2009 20:04:02 -10.2 C 1.76 g/m*3 -10.2 C 0 km/h
102 10-01-2009 20:16:01 -10 C 1.79 g/m*3 -10 C 0 km/h
103 10-01-2009 20:28:01 -10.2 C 1.76 g/m*3 -10.2 C 0 km/h
104 10-01-2009 20:40:01 -10.3 C 1.73 g/m*3 -10.3 C 0 km/h
105 10-01-2009 20:52:01 -10.2 C 1.76 g/m*3 -10.2 C 0 km/h
106 10-01-2009 21:04:01 -10.1 C 1.78 g/m*3 -10.1 C 0 km/h
107 10-01-2009 21:16:02 -10 C 1.81 g/m*3 -10 C 0 km/h
108 10-01-2009 21:28:02 -10.2 C 1.76 g/m*3 -10.2 C 0 km/h
109 10-01-2009 21:40:01 -9.9 C 1.83 g/m*3 -9.9 C 0 km/h
110 10-01-2009 21:52:01 -10 C 1.81 g/m*3 -10 C 0 km/h
111 10-01-2009 22:04:01 -10.4 C 1.74 g/m*3 -10.4 C 0 km/h
112 10-01-2009 22:16:02 -10.6 C 1.71 g/m*3 -10.6 C 0 km/h
113 10-01-2009 22:28:02 -10.4 C 1.74 g/m*3 -10.4 C 0 km/h
114 10-01-2009 22:40:01 -10.7 C 1.7 g/m*3 -10.7 C 0 km/h
115 10-01-2009 22:52:02 -10.6 C 1.71 g/m*3 -10.6 C 0 km/h
116 10-01-2009 23:04:47 -10.6 C 1.71 g/m*3 -10.6 C 0 km/h
117 10-01-2009 23:16:48 -10.6 C 1.71 g/m*3 -10.6 C 0 km/h
118 10-01-2009 23:28:48 -10.6 C 1.71 g/m*3 -10.6 C 0 km/h
119 10-01-2009 23:40:48 -10.9 C 1.65 g/m*3 -10.9 C 0 km/h
120 10-01-2009 23:52:48 -10.8 C 1.69 g/m*3 -10.8 C 0 km/h
121 11-01-2009 00:04:48 -10.7 C 1.7 g/m*3 -10.7 C 0 km/h
122 11-01-2009 00:16:48 -10.6 C 1.73 g/m*3 -10.6 C 0 km/h
123 11-01-2009 00:28:48 -10.7 C 1.7 g/m*3 -10.7 C 0 km/h
124 11-01-2009 00:40:48 -11 C 1.66 g/m*3 -11 C 0 km/h
125 11-01-2009 00:52:48 -11 C 1.64 g/m*3 -11 C 0 km/h
Sensor: Nr:Datum:Temp:Abs-Feuchte:Windchill:Wind:
Aussen-T/F 126 11-01-2009 01:04:48 -11 C 1.64 g/m*3 -11 C 0 km/h
127 11-01-2009 01:16:48 -11.1 C 1.63 g/m*3 -11.1 C 0 km/h
128 11-01-2009 01:28:48 -11 C 1.64 g/m*3 -11 C 0 km/h
129 11-01-2009 01:40:48 -11.1 C 1.63 g/m*3 -11.1 C 0 km/h
130 11-01-2009 01:52:48 -11.5 C 1.56 g/m*3 -11.5 C 0 km/h
131 11-01-2009 02:04:48 -11.5 C 1.56 g/m*3 -11.5 C 0 km/h
132 11-01-2009 02:16:48 -11.5 C 1.56 g/m*3 -11.5 C 0 km/h
133 11-01-2009 02:28:48 -11.6 C 1.54 g/m*3 -11.6 C 0 km/h
134 11-01-2009 02:40:48 -11.3 C 1.6 g/m*3 -11.3 C 0 km/h
135 11-01-2009 02:52:48 -11.3 C 1.6 g/m*3 -11.3 C 0 km/h
136 11-01-2009 03:04:49 -11.2 C 1.61 g/m*3 -11.2 C 0 km/h
137 11-01-2009 03:16:49 -11.5 C 1.58 g/m*3 -11.5 C 0 km/h
138 11-01-2009 03:28:49 -11.5 C 1.58 g/m*3 -11.5 C 0 km/h
139 11-01-2009 03:40:49 -11.4 C 1.59 g/m*3 -11.4 C 0 km/h
140 11-01-2009 03:52:49 -11.5 C 1.58 g/m*3 -11.5 C 0 km/h
141 11-01-2009 04:04:49 -11.7 C 1.55 g/m*3 -11.7 C 0 km/h
142 11-01-2009 04:16:49 -11.7 C 1.53 g/m*3 -11.7 C 0 km/h
143 11-01-2009 04:28:49 -11.7 C 1.53 g/m*3 -11.7 C 0 km/h
144 11-01-2009 04:40:49 -11.7 C 1.53 g/m*3 -11.7 C 0 km/h
145 11-01-2009 04:52:49 -11.9 C 1.51 g/m*3 -11.9 C 0 km/h
146 11-01-2009 05:04:49 -12 C 1.5 g/m*3 -12 C 0 km/h
147 11-01-2009 05:16:49 -11.9 C 1.49 g/m*3 -11.9 C 0 km/h
148 11-01-2009 05:28:49 -12 C 1.48 g/m*3 -12 C 0 km/h
149 11-01-2009 05:40:49 -12.2 C 1.45 g/m*3 -12.2 C 0 km/h
150 11-01-2009 05:52:49 -12.1 C 1.47 g/m*3 -12.1 C 0 km/h
Sensor: Nr:Datum:Temp:Abs-Feuchte:Windchill:Wind:
Aussen-T/F 151 11-01-2009 06:04:49 -12.1 C 1.47 g/m*3 -12.1 C 0 km/h
152 11-01-2009 06:16:49 -12.2 C 1.45 g/m*3 -12.2 C 0 km/h
153 11-01-2009 06:28:49 -12.3 C 1.44 g/m*3 -12.3 C 0 km/h
154 11-01-2009 06:40:49 -12.3 C 1.44 g/m*3 -12.3 C 0 km/h
155 11-01-2009 06:52:50 -12.1 C 1.49 g/m*3 -12.1 C 0 km/h
156 11-01-2009 07:04:50 -12.1 C 1.49 g/m*3 -12.1 C 0 km/h
157 11-01-2009 07:16:50 -12.2 C 1.47 g/m*3 -12.2 C 0 km/h
158 11-01-2009 07:28:50 -12.3 C 1.44 g/m*3 -12.3 C 0 km/h
159 11-01-2009 07:40:50 -12.3 C 1.44 g/m*3 -12.3 C 0 km/h
160 11-01-2009 07:52:50 -12.1 C 1.49 g/m*3 -12.1 C 0 km/h
161 11-01-2009 08:04:50 -12.3 C 1.46 g/m*3 -12.3 C 0 km/h
162 11-01-2009 08:16:50 -12.3 C 1.44 g/m*3 -12.3 C 0 km/h
163 11-01-2009 08:28:50 -12.4 C 1.43 g/m*3 -12.4 C 0 km/h
164 11-01-2009 08:40:50 -12.5 C 1.42 g/m*3 -12.5 C 0 km/h
165 11-01-2009 08:52:46 -12.3 C 1.44 g/m*3 -12.3 C 0 km/h
166 11-01-2009 09:04:46 -12.2 C 1.45 g/m*3 -12.2 C 0 km/h
167 11-01-2009 09:16:47 -12.1 C 1.47 g/m*3 -12.1 C 0 km/h
168 11-01-2009 09:28:47 -11.7 C 1.53 g/m*3 -11.7 C 0 km/h
169 11-01-2009 09:40:46 -11.3 C 1.58 g/m*3 -11.3 C 0 km/h
170 11-01-2009 09:52:46 -11.2 C 1.59 g/m*3 -11.2 C 0 km/h
171 11-01-2009 10:04:45 -10.9 C 1.63 g/m*3 -10.9 C 0 km/h
172 11-01-2009 10:16:45 -10.9 C 1.63 g/m*3 -10.9 C 0 km/h
173 11-01-2009 10:28:45 -10.6 C 1.67 g/m*3 -10.6 C 0 km/h
174 11-01-2009 10:40:46 -10.2 C 1.72 g/m*3 -10.2 C 0 km/h
175 11-01-2009 10:52:45 -10.1 C 1.73 g/m*3 -10.1 C 0 km/h
Sensor: Nr:Datum:Temp:Abs-Feuchte:Windchill:Wind:
Aussen-T/F 176 11-01-2009 11:04:45 -10.1 C 1.73 g/m*3 -10.1 C 0 km/h
177 11-01-2009 11:16:45 -10 C 1.77 g/m*3 -10 C 0 km/h
178 11-01-2009 11:28:45 -9.8 C 1.79 g/m*3 -9.8 C 0 km/h
179 11-01-2009 11:40:45 -9.4 C 1.87 g/m*3 -9.4 C 0 km/h
180 11-01-2009 11:52:45 -9.1 C 1.92 g/m*3 -9.1 C 0 km/h
181 11-01-2009 12:04:44 -8.6 C 2.01 g/m*3 -8.6 C 0 km/h
182 11-01-2009 12:16:45 -8.2 C 2.1 g/m*3 -8.2 C 0 km/h
183 11-01-2009 12:28:45 -7.8 C 2.19 g/m*3 -7.8 C 0 km/h
184 11-01-2009 12:40:44 -7 C 2.36 g/m*3 -7 C 0 km/h
185 11-01-2009 12:52:44 -6.4 C 2.49 g/m*3 -6.4 C 0 km/h
186 11-01-2009 13:04:44 -5.8 C 2.57 g/m*3 -5.8 C 0 km/h
187 11-01-2009 13:16:44 -5.1 C 2.7 g/m*3 -5.1 C 0 km/h
188 11-01-2009 13:28:44 -4.7 C 2.75 g/m*3 -4.7 C 0 km/h
189 11-01-2009 13:40:44 -4.1 C 2.8 g/m*3 -4.1 C 0 km/h
190 11-01-2009 13:52:44 -3.4 C 2.9 g/m*3 -3.4 C 0 km/h
191 11-01-2009 14:04:44 -3.4 C 2.79 g/m*3 -3.4 C 0 km/h
192 11-01-2009 14:16:43 -4 C 2.63 g/m*3 -4 C 0 km/h
193 11-01-2009 14:28:43 -4.2 C 2.63 g/m*3 -4.2 C 0 km/h
194 11-01-2009 14:40:43 -4.3 C 2.65 g/m*3 -4.3 C 0 km/h
195 11-01-2009 14:52:43 -4.4 C 2.67 g/m*3 -4.4 C 0 km/h
196 11-01-2009 15:04:43 -4.4 C 2.67 g/m*3 -4.4 C 0 km/h
197 11-01-2009 15:16:42 -4.4 C 2.67 g/m*3 -4.4 C 0 km/h
198 11-01-2009 15:28:42 -4.4 C 2.7 g/m*3 -4.4 C 0 km/h
199 11-01-2009 15:40:42 -4.4 C 2.67 g/m*3 -4.4 C 0 km/h
200 11-01-2009 15:52:43 -4.2 C 2.7 g/m*3 -4.2 C 0 km/h
Sensor: Nr:Datum:Temp:Abs-Feuchte:Windchill:Wind:
Aussen-T/F 201 11-01-2009 16:04:42 -4.1 C 2.72 g/m*3 -4.1 C 0 km/h
202 11-01-2009 16:16:42 -4.2 C 2.74 g/m*3 -4.2 C 0 km/h
203 11-01-2009 16:28:42 -4.5 C 2.68 g/m*3 -4.5 C 0 km/h
204 11-01-2009 16:40:42 -4.6 C 2.66 g/m*3 -4.6 C 0 km/h
205 11-01-2009 16:52:42 -4.6 C 2.66 g/m*3 -4.6 C 0 km/h
206 11-01-2009 17:04:02 -4.7 C 2.64 g/m*3 -4.7 C 0 km/h
207 11-01-2009 17:16:02 -4.8 C 2.63 g/m*3 -4.8 C 0 km/h
208 11-01-2009 17:28:02 -5.2 C 2.58 g/m*3 -5.2 C 0 km/h
209 11-01-2009 17:40:01 -5.2 C 2.58 g/m*3 -5.2 C 0 km/h
210 11-01-2009 17:52:02 -5.3 C 2.57 g/m*3 -5.3 C 0 km/h
211 11-01-2009 18:04:01 -5.8 C 2.47 g/m*3 -5.8 C 0 km/h
212 11-01-2009 18:16:01 -6.2 C 2.4 g/m*3 -6.2 C 0 km/h
213 11-01-2009 18:28:01 -6.2 C 2.4 g/m*3 -6.2 C 0 km/h
214 11-01-2009 18:40:01 -6.4 C 2.37 g/m*3 -6.4 C 0 km/h
215 11-01-2009 18:52:01 -6.5 C 2.38 g/m*3 -6.5 C 0 km/h
216 11-01-2009 19:04:01 -6.5 C 2.38 g/m*3 -6.5 C 0 km/h
217 11-01-2009 19:16:01 -6.9 C 2.31 g/m*3 -6.9 C 0 km/h
218 11-01-2009 19:28:01 -7.2 C 2.23 g/m*3 -7.2 C 0 km/h
219 11-01-2009 19:40:01 -7.4 C 2.23 g/m*3 -7.4 C 0 km/h
220 11-01-2009 19:52:00 -7.6 C 2.2 g/m*3 -7.6 C 0 km/h
221 11-01-2009 20:04:01 -7.8 C 2.16 g/m*3 -7.8 C 0 km/h
222 11-01-2009 20:16:00 -7.9 C 2.15 g/m*3 -7.9 C 0 km/h
223 11-01-2009 20:28:00 -7.9 C 2.15 g/m*3 -7.9 C 0 km/h
224 11-01-2009 20:40:00 -8 C 2.13 g/m*3 -8 C 0 km/h
225 11-01-2009 20:52:00 -8.1 C 2.12 g/m*3 -8.1 C 0 km/h
Sensor: Nr:Datum:Temp:Abs-Feuchte:Windchill:Wind:
Aussen-T/F 226 11-01-2009 21:04:00 -8.2 C 2.1 g/m*3 -8.2 C 0 km/h
227 11-01-2009 21:16:59 -8.3 C 2.09 g/m*3 -8.3 C 0 km/h
228 11-01-2009 21:27:59 -8.3 C 2.09 g/m*3 -8.3 C 0 km/h
229 11-01-2009 21:40:00 -8.6 C 2.04 g/m*3 -8.6 C 0 km/h
230 11-01-2009 21:52:00 -8.7 C 2.03 g/m*3 -8.7 C 0 km/h
231 11-01-2009 22:04:59 -9 C 1.98 g/m*3 -9 C 0 km/h
232 11-01-2009 22:16:59 -9.2 C 1.93 g/m*3 -9.2 C 0 km/h
233 11-01-2009 22:29:00 -9.2 C 1.95 g/m*3 -9.2 C 0 km/h
234 11-01-2009 22:40:58 -9.3 C 1.91 g/m*3 -9.3 C 0 km/h
235 11-01-2009 22:52:59 -9.5 C 1.88 g/m*3 -9.5 C 0 km/h
236 11-01-2009 23:04:59 -9.5 C 1.91 g/m*3 -9.5 C 0 km/h
237 11-01-2009 23:16:58 -9.5 C 1.91 g/m*3 -9.5 C 0 km/h
238 11-01-2009 23:28:58 -9.7 C 1.88 g/m*3 -9.7 C 0 km/h
239 11-01-2009 23:40:59 -9.7 C 1.88 g/m*3 -9.7 C 0 km/h
240 11-01-2009 23:53:00 -9.9 C 1.83 g/m*3 -9.9 C 0 km/h
241 12-01-2009 00:05:00 -9.7 C 1.88 g/m*3 -9.7 C 0 km/h
242 12-01-2009 00:17:00 -10 C 1.84 g/m*3 -10 C 0 km/h
243 12-01-2009 00:29:00 -10.2 C 1.79 g/m*3 -10.2 C 0 km/h
244 12-01-2009 00:41:00 -10.3 C 1.77 g/m*3 -10.3 C 0 km/h
245 12-01-2009 00:53:00 -10.5 C 1.75 g/m*3 -10.5 C 0 km/h
246 12-01-2009 01:05:01 -10.6 C 1.73 g/m*3 -10.6 C 0 km/h
247 12-01-2009 01:17:01 -10.7 C 1.7 g/m*3 -10.7 C 0 km/h
248 12-01-2009 01:29:01 -10.7 C 1.7 g/m*3 -10.7 C 0 km/h
249 12-01-2009 01:41:01 -10.6 C 1.73 g/m*3 -10.6 C 0 km/h
250 12-01-2009 01:53:01 -10.6 C 1.71 g/m*3 -10.6 C 0 km/h
Sensor: Nr:Datum:Temp:Abs-Feuchte:Windchill:Wind:
Aussen-T/F 251 12-01-2009 02:05:01 -10.8 C 1.69 g/m*3 -10.8 C 0 km/h
252 12-01-2009 02:17:01 -10.8 C 1.69 g/m*3 -10.8 C 0 km/h
253 12-01-2009 02:29:01 -11 C 1.66 g/m*3 -11 C 0 km/h
254 12-01-2009 02:41:01 -11 C 1.66 g/m*3 -11 C 0 km/h
255 12-01-2009 02:53:01 -11.1 C 1.65 g/m*3 -11.1 C 0 km/h
256 12-01-2009 03:05:01 -11.2 C 1.61 g/m*3 -11.2 C 0 km/h
257 12-01-2009 03:17:01 -11.1 C 1.63 g/m*3 -11.1 C 0 km/h
258 12-01-2009 03:29:01 -11.1 C 1.63 g/m*3 -11.1 C 0 km/h
259 12-01-2009 03:41:01 -11.1 C 1.63 g/m*3 -11.1 C 0 km/h
260 12-01-2009 03:53:01 -11.2 C 1.61 g/m*3 -11.2 C 0 km/h
261 12-01-2009 04:05:01 -11.3 C 1.6 g/m*3 -11.3 C 0 km/h
262 12-01-2009 04:17:01 -11.3 C 1.6 g/m*3 -11.3 C 0 km/h
263 12-01-2009 04:29:01 -11.2 C 1.61 g/m*3 -11.2 C 0 km/h
264 12-01-2009 04:41:01 -11.2 C 1.61 g/m*3 -11.2 C 0 km/h
265 12-01-2009 04:53:01 -11.4 C 1.57 g/m*3 -11.4 C 0 km/h
266 12-01-2009 05:05:02 -11.4 C 1.57 g/m*3 -11.4 C 0 km/h
267 12-01-2009 05:17:02 -11.5 C 1.56 g/m*3 -11.5 C 0 km/h
268 12-01-2009 05:29:02 -11.5 C 1.56 g/m*3 -11.5 C 0 km/h
269 12-01-2009 05:41:02 -11.5 C 1.56 g/m*3 -11.5 C 0 km/h
270 12-01-2009 05:53:02 -11.4 C 1.57 g/m*3 -11.4 C 0 km/h
271 12-01-2009 06:05:02 -11.3 C 1.58 g/m*3 -11.3 C 0 km/h
272 12-01-2009 06:17:02 -11.2 C 1.61 g/m*3 -11.2 C 0 km/h
273 12-01-2009 06:29:02 -11.4 C 1.59 g/m*3 -11.4 C 0 km/h
274 12-01-2009 06:41:02 -11.5 C 1.56 g/m*3 -11.5 C 0 km/h
275 12-01-2009 06:53:02 -11.5 C 1.58 g/m*3 -11.5 C 0 km/h
Sensor: Nr:Datum:Temp:Abs-Feuchte:Windchill:Wind:
Aussen-T/F 276 12-01-2009 07:05:00 -11.6 C 1.54 g/m*3 -11.6 C 0 km/h
277 12-01-2009 07:17:00 -11.7 C 1.53 g/m*3 -11.7 C 0 km/h
278 12-01-2009 07:29:00 -11.8 C 1.52 g/m*3 -11.8 C 0 km/h
279 12-01-2009 07:41:59 -11.8 C 1.5 g/m*3 -11.8 C 0 km/h
280 12-01-2009 07:53:00 -11.9 C 1.49 g/m*3 -11.9 C 0 km/h
281 12-01-2009 08:05:59 -11.7 C 1.51 g/m*3 -11.7 C 0 km/h
282 12-01-2009 08:17:59 -11.7 C 1.53 g/m*3 -11.7 C 0 km/h
283 12-01-2009 08:29:59 -11.7 C 1.53 g/m*3 -11.7 C 0 km/h
284 12-01-2009 08:41:58 -11.7 C 1.53 g/m*3 -11.7 C 0 km/h
285 12-01-2009 08:53:59 -11.7 C 1.53 g/m*3 -11.7 C 0 km/h
286 12-01-2009 09:05:58 -11.7 C 1.53 g/m*3 -11.7 C 0 km/h
287 12-01-2009 09:17:58 -11.5 C 1.56 g/m*3 -11.5 C 0 km/h
288 12-01-2009 09:29:59 -11.3 C 1.58 g/m*3 -11.3 C 0 km/h
289 12-01-2009 09:41:58 -11.3 C 1.56 g/m*3 -11.3 C 0 km/h
290 12-01-2009 09:53:58 -11.1 C 1.58 g/m*3 -11.1 C 0 km/h
291 12-01-2009 10:05:57 -10.9 C 1.63 g/m*3 -10.9 C 0 km/h
292 12-01-2009 10:17:58 -10.6 C 1.67 g/m*3 -10.6 C 0 km/h
293 12-01-2009 10:29:58 -10.4 C 1.69 g/m*3 -10.4 C 0 km/h
294 12-01-2009 10:41:58 -10.2 C 1.72 g/m*3 -10.2 C 0 km/h
295 12-01-2009 10:53:57 -9.8 C 1.79 g/m*3 -9.8 C 0 km/h
296 12-01-2009 11:05:58 -9.7 C 1.81 g/m*3 -9.7 C 0 km/h
297 12-01-2009 11:17:57 -9.4 C 1.85 g/m*3 -9.4 C 0 km/h
298 12-01-2009 11:29:57 -8.9 C 1.97 g/m*3 -8.9 C 0 km/h
299 12-01-2009 11:41:57 -8.6 C 2.01 g/m*3 -8.6 C 0 km/h
300 12-01-2009 11:53:56 -8.1 C 2.12 g/m*3 -8.1 C 0 km/h
Sensor: Nr:Datum:Temp:Abs-Feuchte:Windchill:Wind:
Aussen-T/F 301 12-01-2009 12:05:57 -7.7 C 2.21 g/m*3 -7.7 C 0 km/h
302 12-01-2009 12:17:57 -7.3 C 2.3 g/m*3 -7.3 C 0 km/h
303 12-01-2009 12:29:57 -7.2 C 2.32 g/m*3 -7.2 C 0 km/h
304 12-01-2009 12:41:56 -6.6 C 2.46 g/m*3 -6.6 C 0 km/h
305 12-01-2009 12:53:57 -5.9 C 2.58 g/m*3 -5.9 C 0 km/h
306 12-01-2009 13:05:56 -4.9 C 2.78 g/m*3 -4.9 C 0 km/h
307 12-01-2009 13:17:56 -4.1 C 2.87 g/m*3 -4.1 C 0 km/h
308 12-01-2009 13:29:56 -3.3 C 3 g/m*3 -3.3 C 0 km/h
309 12-01-2009 13:41:55 -3.2 C 2.9 g/m*3 -3.2 C 0 km/h
310 12-01-2009 13:53:56 -2.8 C 2.91 g/m*3 -2.8 C 0 km/h
311 12-01-2009 14:05:55 -2.6 C 2.87 g/m*3 -2.6 C 0 km/h
312 12-01-2009 14:17:55 -3 C 2.75 g/m*3 -3 C 0 km/h
313 12-01-2009 14:29:55 -3.1 C 2.77 g/m*3 -3.1 C 0 km/h
314 12-01-2009 14:41:56 -3 C 2.83 g/m*3 -3 C 0 km/h
315 12-01-2009 14:53:55 -2.9 C 2.85 g/m*3 -2.9 C 0 km/h
316 12-01-2009 15:05:55 -2.8 C 2.91 g/m*3 -2.8 C 0 km/h
317 12-01-2009 15:17:55 -2.7 C 2.93 g/m*3 -2.7 C 0 km/h
318 12-01-2009 15:29:55 -2.6 C 2.87 g/m*3 -2.6 C 0 km/h
319 12-01-2009 15:41:55 -2.7 C 2.89 g/m*3 -2.7 C 0 km/h
320 12-01-2009 15:53:54 -2.7 C 2.89 g/m*3 -2.7 C 0 km/h
321 12-01-2009 16:05:55 -2.8 C 2.87 g/m*3 -2.8 C 0 km/h
322 12-01-2009 16:17:54 -2.8 C 2.87 g/m*3 -2.8 C 0 km/h
323 12-01-2009 16:29:54 -2.9 C 2.89 g/m*3 -2.9 C 0 km/h
324 12-01-2009 16:41:54 -2.9 C 2.89 g/m*3 -2.9 C 0 km/h
325 12-01-2009 16:53:53 -2.8 C 2.91 g/m*3 -2.8 C 0 km/h
Sensor: Nr:Datum:Temp:Abs-Feuchte:Windchill:Wind:
Aussen-T/F 326 12-01-2009 17:05:54 -2.8 C 2.95 g/m*3 -2.8 C 0 km/h
327 12-01-2009 17:17:54 -2.8 C 2.99 g/m*3 -2.8 C 0 km/h
328 12-01-2009 17:29:54 -3 C 2.95 g/m*3 -3 C 0 km/h
329 12-01-2009 17:41:53 -3 C 2.99 g/m*3 -3 C 0 km/h
330 12-01-2009 17:53:54 -3 C 2.95 g/m*3 -3 C 0 km/h
331 12-01-2009 18:05:53 -3 C 2.91 g/m*3 -3 C 0 km/h
332 12-01-2009 18:17:53 -3.1 C 2.81 g/m*3 -3.1 C 0 km/h
333 12-01-2009 18:29:54 -3.3 C 2.81 g/m*3 -3.3 C 0 km/h
334 12-01-2009 18:41:52 -3.4 C 2.79 g/m*3 -3.4 C 0 km/h
335 12-01-2009 18:53:53 -3.3 C 2.81 g/m*3 -3.3 C 0 km/h
336 12-01-2009 19:05:52 -3.5 C 2.77 g/m*3 -3.5 C 0 km/h
337 12-01-2009 19:17:52 -3.6 C 2.75 g/m*3 -3.6 C 0 km/h
338 12-01-2009 19:29:52 -3.7 C 2.77 g/m*3 -3.7 C 0 km/h
339 12-01-2009 19:41:53 -3.6 C 2.82 g/m*3 -3.6 C 0 km/h
340 12-01-2009 19:53:52 -3.5 C 2.77 g/m*3 -3.5 C 0 km/h
341 12-01-2009 20:05:52 -3.6 C 2.75 g/m*3 -3.6 C 0 km/h
342 12-01-2009 20:17:52 -3.6 C 2.71 g/m*3 -3.6 C 0 km/h
343 12-01-2009 20:29:52 -3.7 C 2.65 g/m*3 -3.7 C 0 km/h
344 12-01-2009 20:41:52 -3.8 C 2.71 g/m*3 -3.8 C 0 km/h
345 12-01-2009 20:53:51 -3.8 C 2.75 g/m*3 -3.8 C 0 km/h
346 12-01-2009 21:05:52 -3.7 C 2.77 g/m*3 -3.7 C 0 km/h
347 12-01-2009 21:17:51 -3.6 C 2.82 g/m*3 -3.6 C 0 km/h
348 12-01-2009 21:29:51 -3.5 C 2.84 g/m*3 -3.5 C 0 km/h
349 12-01-2009 21:41:51 -3.6 C 2.79 g/m*3 -3.6 C 0 km/h
350 12-01-2009 21:53:51 -3.8 C 2.75 g/m*3 -3.8 C 0 km/h
Sensor: Nr:Datum:Temp:Abs-Feuchte:Windchill:Wind:
Aussen-T/F 351 12-01-2009 22:06:06 -3.8 C 2.75 g/m*3 -3.8 C 0 km/h
352 12-01-2009 22:18:06 -4 C 2.67 g/m*3 -4 C 0 km/h
353 12-01-2009 22:30:06 -4 C 2.67 g/m*3 -4 C 0 km/h
354 12-01-2009 22:42:06 -4.1 C 2.65 g/m*3 -4.1 C 0 km/h
355 12-01-2009 22:54:06 -4.2 C 2.63 g/m*3 -4.2 C 0 km/h
356 12-01-2009 23:06:06 -4.3 C 2.61 g/m*3 -4.3 C 0 km/h
357 12-01-2009 23:18:06 -4.2 C 2.63 g/m*3 -4.2 C 0 km/h
358 12-01-2009 23:30:06 -4 C 2.74 g/m*3 -4 C 0 km/h
359 12-01-2009 23:42:06 -3.9 C 2.8 g/m*3 -3.9 C 0 km/h
360 12-01-2009 23:54:06 -3.7 C 2.84 g/m*3 -3.7 C 0 km/h
361 13-01-2009 00:06:06 -3.6 C 2.86 g/m*3 -3.6 C 0 km/h
362 13-01-2009 00:18:06 -3.5 C 2.88 g/m*3 -3.5 C 0 km/h
363 13-01-2009 00:30:06 -3.4 C 2.9 g/m*3 -3.4 C 0 km/h
364 13-01-2009 00:42:06 -3.4 C 2.9 g/m*3 -3.4 C 0 km/h
365 13-01-2009 00:54:06 -3.3 C 2.92 g/m*3 -3.3 C 0 km/h
366 13-01-2009 01:06:06 -3.1 C 2.96 g/m*3 -3.1 C 0 km/h
367 13-01-2009 01:18:07 -3 C 2.95 g/m*3 -3 C 0 km/h
368 13-01-2009 01:30:07 -2.9 C 3.01 g/m*3 -2.9 C 0 km/h
369 13-01-2009 01:42:07 -2.9 C 2.97 g/m*3 -2.9 C 0 km/h
370 13-01-2009 01:54:07 -2.8 C 2.99 g/m*3 -2.8 C 0 km/h
371 13-01-2009 02:06:07 -2.8 C 2.99 g/m*3 -2.8 C 0 km/h
372 13-01-2009 02:18:07 -2.8 C 3.03 g/m*3 -2.8 C 0 km/h
373 13-01-2009 02:30:07 -2.6 C 3.07 g/m*3 -2.6 C 0 km/h
374 13-01-2009 02:42:07 -2.4 C 3.11 g/m*3 -2.4 C 0 km/h
375 13-01-2009 02:54:07 -2.2 C 3.16 g/m*3 -2.2 C 0 km/h
Sensor: Nr:Datum:Temp:Abs-Feuchte:Windchill:Wind:
Aussen-T/F 376 13-01-2009 03:06:07 -2.1 C 3.18 g/m*3 -2.1 C 0 km/h
377 13-01-2009 03:18:07 -2 C 3.16 g/m*3 -2 C 0 km/h
378 13-01-2009 03:30:07 -1.8 C 3.16 g/m*3 -1.8 C 0 km/h
379 13-01-2009 03:42:07 -1.5 C 3.19 g/m*3 -1.5 C 0 km/h
380 13-01-2009 03:54:07 -1.3 C 3.14 g/m*3 -1.3 C 0 km/h
381 13-01-2009 04:06:07 -1.4 C 3.12 g/m*3 -1.4 C 0 km/h
382 13-01-2009 04:18:07 -1.6 C 3.12 g/m*3 -1.6 C 0 km/h
383 13-01-2009 04:30:07 -1.6 C 3.12 g/m*3 -1.6 C 0 km/h
384 13-01-2009 04:42:07 -1.4 C 3.21 g/m*3 -1.4 C 0 km/h
385 13-01-2009 04:54:07 -1.2 C 3.21 g/m*3 -1.2 C 0 km/h
386 13-01-2009 05:06:07 -1.4 C 3.17 g/m*3 -1.4 C 0 km/h
387 13-01-2009 05:18:08 -1.3 C 3.23 g/m*3 -1.3 C 0 km/h
388 13-01-2009 05:30:08 -1.2 C 3.3 g/m*3 -1.2 C 0 km/h
389 13-01-2009 05:42:08 -1.2 C 3.34 g/m*3 -1.2 C 0 km/h
390 13-01-2009 05:54:08 -1.3 C 3.32 g/m*3 -1.3 C 0 km/h
391 13-01-2009 06:06:08 -1.2 C 3.34 g/m*3 -1.2 C 0 km/h
392 13-01-2009 06:18:08 -1.2 C 3.34 g/m*3 -1.2 C 0 km/h
393 13-01-2009 06:30:08 -0.9 C 3.28 g/m*3 -0.9 C 0 km/h
394 13-01-2009 06:42:08 -0.9 C 3.23 g/m*3 -0.9 C 0 km/h
395 13-01-2009 06:54:08 -0.9 C 3.28 g/m*3 -0.9 C 0 km/h
396 13-01-2009 07:06:08 -0.9 C 3.28 g/m*3 -0.9 C 0 km/h
397 13-01-2009 07:18:52 -0.9 C 3.28 g/m*3 -0.9 C 0 km/h
398 13-01-2009 07:30:52 -0.9 C 3.28 g/m*3 -0.9 C 0 km/h
399 13-01-2009 07:42:52 -0.6 C 3.39 g/m*3 -0.6 C 0 km/h
400 13-01-2009 07:54:51 -0.6 C 3.39 g/m*3 -0.6 C 0 km/h
Sensor: Nr:Datum:Temp:Abs-Feuchte:Windchill:Wind:
Aussen-T/F 401 13-01-2009 08:06:51 -0.5 C 3.42 g/m*3 -0.5 C 0 km/h
402 13-01-2009 08:18:51 -0.4 C 3.49 g/m*3 -0.4 C 0 km/h
403 13-01-2009 08:30:51 -0.3 C 3.51 g/m*3 -0.3 C 0 km/h
404 13-01-2009 08:42:51 -0.3 C 3.46 g/m*3 -0.3 C 0 km/h
405 13-01-2009 08:54:51 -0.1 C 3.42 g/m*3 -0.1 C 0 km/h
406 13-01-2009 09:06:50 0.2 C 3.44 g/m*3 0.2 C 0 km/h
407 13-01-2009 09:18:50 0.4 C 3.44 g/m*3 0.4 C 0 km/h
408 13-01-2009 09:30:51 0.6 C 3.43 g/m*3 0.6 C 0 km/h
409 13-01-2009 09:42:51 0.7 C 3.41 g/m*3 0.7 C 0 km/h
410 13-01-2009 09:54:50 0.8 C 3.43 g/m*3 0.8 C 0 km/h
411 13-01-2009 10:06:50 1 C 3.43 g/m*3 1 C 0 km/h
412 13-01-2009 10:18:50 1.2 C 3.42 g/m*3 1.2 C 0 km/h
413 13-01-2009 10:30:50 1.4 C 3.41 g/m*3 1.4 C 0 km/h
414 13-01-2009 10:42:50 1.5 C 3.38 g/m*3 1.5 C 0 km/h
415 13-01-2009 10:54:49 2.1 C 3.36 g/m*3 2.1 C 0 km/h
416 13-01-2009 11:06:50 2.4 C 3.43 g/m*3 2.4 C 0 km/h
417 13-01-2009 11:18:49 2.7 C 3.32 g/m*3 2.7 C 0 km/h
418 13-01-2009 11:30:49 3.1 C 3.29 g/m*3 3.1 C 0 km/h
419 13-01-2009 11:42:49 3.3 C 3.15 g/m*3 3.3 C 0 km/h
420 13-01-2009 11:54:49 3.3 C 3.09 g/m*3 3.3 C 0 km/h
421 13-01-2009 12:06:49 3.6 C 3.16 g/m*3 3.6 C 0 km/h
422 13-01-2009 12:18:49 3.7 C 3.3 g/m*3 3.7 C 0 km/h
423 13-01-2009 12:30:48 3.8 C 3.39 g/m*3 3.8 C 0 km/h
424 13-01-2009 12:42:48 3.7 C 3.37 g/m*3 3.7 C 0 km/h
425 13-01-2009 12:54:48 3.7 C 3.3 g/m*3 3.7 C 0 km/h
Sensor: Nr:Datum:Temp:Abs-Feuchte:Windchill:Wind:
Aussen-T/F 426 13-01-2009 13:06:48 3.8 C 3.45 g/m*3 3.8 C 0 km/h
427 13-01-2009 13:18:49 3.8 C 3.45 g/m*3 3.8 C 0 km/h
428 13-01-2009 13:30:48 3.9 C 3.47 g/m*3 3.9 C 0 km/h
429 13-01-2009 13:42:48 3.9 C 3.47 g/m*3 3.9 C 0 km/h
430 13-01-2009 13:54:48 3.9 C 3.47 g/m*3 3.9 C 0 km/h
431 13-01-2009 14:06:47 3.8 C 3.45 g/m*3 3.8 C 0 km/h
432 13-01-2009 14:18:48 3.7 C 3.43 g/m*3 3.7 C 0 km/h
433 13-01-2009 14:30:47 3.7 C 3.43 g/m*3 3.7 C 0 km/h
434 13-01-2009 14:42:47 3.5 C 3.44 g/m*3 3.5 C 0 km/h
435 13-01-2009 14:54:47 3.4 C 3.48 g/m*3 3.4 C 0 km/h
436 13-01-2009 15:06:47 3.4 C 3.42 g/m*3 3.4 C 0 km/h
437 13-01-2009 15:18:47 3.3 C 3.46 g/m*3 3.3 C 0 km/h
438 13-01-2009 15:30:47 3.2 C 3.43 g/m*3 3.2 C 0 km/h
439 13-01-2009 15:42:47 3 C 3.45 g/m*3 3 C 0 km/h
440 13-01-2009 15:54:47 2.8 C 3.52 g/m*3 2.8 C 0 km/h
441 13-01-2009 16:06:47 2.7 C 3.55 g/m*3 2.7 C 0 km/h
442 13-01-2009 16:18:46 2.4 C 3.48 g/m*3 2.4 C 0 km/h
443 13-01-2009 16:30:46 2.2 C 3.49 g/m*3 2.2 C 0 km/h
444 13-01-2009 16:42:47 1.9 C 3.48 g/m*3 1.9 C 0 km/h
445 13-01-2009 16:54:46 1.5 C 3.44 g/m*3 1.5 C 0 km/h
446 13-01-2009 17:06:46 1.3 C 3.44 g/m*3 1.3 C 0 km/h
447 13-01-2009 17:18:46 1.1 C 3.4 g/m*3 1.1 C 0 km/h
448 13-01-2009 17:30:46 0.8 C 3.43 g/m*3 0.8 C 0 km/h
449 13-01-2009 17:42:46 0.7 C 3.46 g/m*3 0.7 C 0 km/h
450 13-01-2009 17:54:45 0.4 C 3.49 g/m*3 0.4 C 0 km/h
Sensor: Nr:Datum:Temp:Abs-Feuchte:Windchill:Wind:
Aussen-T/F 451 13-01-2009 18:06:45 0.1 C 3.37 g/m*3 0.1 C 0 km/h
452 13-01-2009 18:18:46 0 C 3.39 g/m*3 0 C 0 km/h
453 13-01-2009 18:30:45 -0.2 C 3.35 g/m*3 -0.2 C 0 km/h
454 13-01-2009 18:42:45 -0.4 C 3.3 g/m*3 -0.4 C 0 km/h
455 13-01-2009 18:54:45 -0.6 C 3.3 g/m*3 -0.6 C 0 km/h
456 13-01-2009 19:06:44 -0.9 C 3.28 g/m*3 -0.9 C 0 km/h
457 13-01-2009 19:18:45 -1.1 C 3.23 g/m*3 -1.1 C 0 km/h
458 13-01-2009 19:30:45 -1.2 C 3.25 g/m*3 -1.2 C 0 km/h
459 13-01-2009 19:42:45 -1.5 C 3.19 g/m*3 -1.5 C 0 km/h
460 13-01-2009 19:54:44 -1.7 C 3.14 g/m*3 -1.7 C 0 km/h
461 13-01-2009 20:06:45 -1.9 C 3.06 g/m*3 -1.9 C 0 km/h
462 13-01-2009 20:18:44 -1.9 C 3.1 g/m*3 -1.9 C 0 km/h
463 13-01-2009 20:30:44 -1.9 C 3.14 g/m*3 -1.9 C 0 km/h
464 13-01-2009 20:42:44 -1.9 C 3.1 g/m*3 -1.9 C 0 km/h
465 13-01-2009 20:54:44 -1.9 C 3.14 g/m*3 -1.9 C 0 km/h
466 13-01-2009 21:06:44 -2 C 3.12 g/m*3 -2 C 0 km/h
467 13-01-2009 21:18:44 -2.2 C 3.08 g/m*3 -2.2 C 0 km/h
468 13-01-2009 21:30:43 -2.2 C 3.12 g/m*3 -2.2 C 0 km/h
469 13-01-2009 21:42:43 -2.3 C 3.1 g/m*3 -2.3 C 0 km/h
470 13-01-2009 21:54:44 -2.2 C 3.16 g/m*3 -2.2 C 0 km/h
471 13-01-2009 22:06:43 -2.1 C 3.18 g/m*3 -2.1 C 0 km/h
472 13-01-2009 22:18:43 -2.2 C 3.16 g/m*3 -2.2 C 0 km/h
473 13-01-2009 22:30:43 -2.3 C 3.14 g/m*3 -2.3 C 0 km/h
474 13-01-2009 22:42:43 -2.5 C 3.09 g/m*3 -2.5 C 0 km/h
475 13-01-2009 22:54:43 -2.8 C 3.07 g/m*3 -2.8 C 0 km/h
Sensor: Nr:Datum:Temp:Abs-Feuchte:Windchill:Wind:
Aussen-T/F 476 13-01-2009 23:06:43 -2.9 C 3.05 g/m*3 -2.9 C 0 km/h
477 13-01-2009 23:18:42 -3 C 3.06 g/m*3 -3 C 0 km/h
478 13-01-2009 23:30:42 -3 C 3.1 g/m*3 -3 C 0 km/h
479 13-01-2009 23:42:42 -3.1 C 3.08 g/m*3 -3.1 C 0 km/h
480 13-01-2009 23:54:42 -3.3 C 3.08 g/m*3 -3.3 C 0 km/h
481 14-01-2009 00:06:42 -3.4 C 3.05 g/m*3 -3.4 C 0 km/h
482 14-01-2009 00:18:42 -3.4 C 3.05 g/m*3 -3.4 C 0 km/h
483 14-01-2009 00:30:41 -3.6 C 3.01 g/m*3 -3.6 C 0 km/h
484 14-01-2009 00:42:41 -3.7 C 2.99 g/m*3 -3.7 C 0 km/h
485 14-01-2009 00:54:42 -3.5 C 3.07 g/m*3 -3.5 C 0 km/h
486 14-01-2009 01:06:41 -3.4 C 3.13 g/m*3 -3.4 C 0 km/h
487 14-01-2009 01:18:41 -3.1 C 3.2 g/m*3 -3.1 C 0 km/h
488 14-01-2009 01:30:41 -3 C 3.22 g/m*3 -3 C 0 km/h
489 14-01-2009 01:42:41 -3 C 3.18 g/m*3 -3 C 0 km/h
490 14-01-2009 01:54:41 -3.2 C 3.14 g/m*3 -3.2 C 0 km/h
491 14-01-2009 02:06:41 -3.4 C 3.05 g/m*3 -3.4 C 0 km/h
492 14-01-2009 02:18:40 -3.5 C 3.03 g/m*3 -3.5 C 0 km/h
493 14-01-2009 02:30:41 -3.1 C 3.16 g/m*3 -3.1 C 0 km/h
494 14-01-2009 02:42:42 -3.1 C 3.16 g/m*3 -3.1 C 0 km/h
495 14-01-2009 02:55:41 -3 C 3.18 g/m*3 -3 C 0 km/h
496 14-01-2009 03:07:41 -3 C 3.18 g/m*3 -3 C 0 km/h
497 14-01-2009 03:19:42 -2.8 C 3.23 g/m*3 -2.8 C 0 km/h
498 14-01-2009 03:31:41 -2.7 C 3.25 g/m*3 -2.7 C 0 km/h
499 14-01-2009 03:43:41 -2.6 C 3.23 g/m*3 -2.6 C 0 km/h
500 14-01-2009 03:55:41 -2.6 C 3.23 g/m*3 -2.6 C 0 km/h
Sensor: Nr:Datum:Temp:Abs-Feuchte:Windchill:Wind:
Aussen-T/F 501 14-01-2009 04:07:41 -2.9 C 3.16 g/m*3 -2.9 C 0 km/h
502 14-01-2009 04:19:41 -3 C 3.14 g/m*3 -3 C 0 km/h
503 14-01-2009 04:31:41 -3 C 3.14 g/m*3 -3 C 0 km/h
504 14-01-2009 04:43:42 -2.6 C 3.27 g/m*3 -2.6 C 0 km/h
505 14-01-2009 04:55:41 -2.5 C 3.3 g/m*3 -2.5 C 0 km/h
506 14-01-2009 05:07:40 -2.3 C 3.34 g/m*3 -2.3 C 0 km/h
507 14-01-2009 05:19:41 -2.1 C 3.35 g/m*3 -2.1 C 0 km/h
508 14-01-2009 05:31:40 -1.9 C 3.4 g/m*3 -1.9 C 0 km/h
509 14-01-2009 05:43:40 -1.8 C 3.38 g/m*3 -1.8 C 0 km/h
510 14-01-2009 05:55:40 -1.7 C 3.4 g/m*3 -1.7 C 0 km/h
511 14-01-2009 06:07:40 -1.6 C 3.38 g/m*3 -1.6 C 0 km/h
512 14-01-2009 06:19:40 -1.6 C 3.38 g/m*3 -1.6 C 0 km/h
513 14-01-2009 06:31:39 -1.4 C 3.43 g/m*3 -1.4 C 0 km/h
514 14-01-2009 06:43:39 -1.4 C 3.39 g/m*3 -1.4 C 0 km/h
515 14-01-2009 06:55:40 -1.4 C 3.43 g/m*3 -1.4 C 0 km/h
516 14-01-2009 07:07:39 -1.1 C 3.5 g/m*3 -1.1 C 0 km/h
517 14-01-2009 07:19:39 -0.9 C 3.6 g/m*3 -0.9 C 0 km/h
518 14-01-2009 07:31:39 -0.7 C 3.69 g/m*3 -0.7 C 0 km/h
519 14-01-2009 07:43:39 -0.7 C 3.69 g/m*3 -0.7 C 0 km/h
520 14-01-2009 07:55:39 -0.7 C 3.69 g/m*3 -0.7 C 0 km/h
521 14-01-2009 08:07:38 -0.8 C 3.67 g/m*3 -0.8 C 0 km/h
522 14-01-2009 08:19:39 -1.1 C 3.59 g/m*3 -1.1 C 0 km/h
523 14-01-2009 08:31:39 -1.1 C 3.64 g/m*3 -1.1 C 0 km/h
524 14-01-2009 08:43:39 -1 C 3.71 g/m*3 -1 C 0 km/h
525 14-01-2009 08:55:38 -1 C 3.71 g/m*3 -1 C 0 km/h
Sensor: Nr:Datum:Temp:Abs-Feuchte:Windchill:Wind:
Aussen-T/F 526 14-01-2009 09:07:38 -0.9 C 3.78 g/m*3 -0.9 C 0 km/h
527 14-01-2009 09:19:38 -0.8 C 3.85 g/m*3 -0.8 C 0 km/h
528 14-01-2009 09:31:38 -0.5 C 3.98 g/m*3 -0.5 C 0 km/h
529 14-01-2009 09:43:38 -0.2 C 4.06 g/m*3 -0.2 C 0 km/h
530 14-01-2009 09:55:37 -0.3 C 4.03 g/m*3 -0.3 C 0 km/h
531 14-01-2009 10:07:38 -0.2 C 4.11 g/m*3 -0.2 C 0 km/h
532 14-01-2009 10:19:37 -0.1 C 4.14 g/m*3 -0.1 C 0 km/h
533 14-01-2009 10:31:37 -0.1 C 4.14 g/m*3 -0.1 C 0 km/h
534 14-01-2009 10:43:37 -0.1 C 4.14 g/m*3 -0.1 C 0 km/h
535 14-01-2009 10:55:37 0 C 4.17 g/m*3 0 C 0 km/h
536 14-01-2009 11:07:37 0 C 4.17 g/m*3 0 C 0 km/h
537 14-01-2009 11:19:37 0 C 4.22 g/m*3 0 C 0 km/h
538 14-01-2009 11:31:37 0.1 C 4.24 g/m*3 0.1 C 0 km/h
539 14-01-2009 11:43:37 0.2 C 4.27 g/m*3 0.2 C 0 km/h
540 14-01-2009 11:55:37 0.3 C 4.3 g/m*3 0.3 C 0 km/h
541 14-01-2009 12:07:36 0.4 C 4.33 g/m*3 0.4 C 0 km/h
542 14-01-2009 12:19:37 0.5 C 4.36 g/m*3 0.5 C 0 km/h
543 14-01-2009 12:31:36 0.7 C 4.47 g/m*3 0.7 C 0 km/h
544 14-01-2009 12:43:36 1 C 4.52 g/m*3 1 C 0 km/h
545 14-01-2009 12:55:36 1.2 C 4.58 g/m*3 1.2 C 0 km/h
546 14-01-2009 13:07:36 1.6 C 4.7 g/m*3 1.6 C 0 km/h
547 14-01-2009 13:19:36 1.7 C 4.74 g/m*3 1.7 C 0 km/h
548 14-01-2009 13:31:36 1.7 C 4.74 g/m*3 1.7 C 0 km/h
549 14-01-2009 13:43:36 2 C 4.78 g/m*3 2 C 0 km/h
550 14-01-2009 13:55:35 2.2 C 4.84 g/m*3 2.2 C 0 km/h
Sensor: Nr:Datum:Temp:Abs-Feuchte:Windchill:Wind:
Aussen-T/F 551 14-01-2009 14:07:36 2.3 C 4.82 g/m*3 2.3 C 0 km/h
552 14-01-2009 14:19:35 2.3 C 4.76 g/m*3 2.3 C 0 km/h
553 14-01-2009 14:31:35 2.2 C 4.73 g/m*3 2.2 C 0 km/h
554 14-01-2009 14:43:35 2.3 C 4.76 g/m*3 2.3 C 0 km/h
555 14-01-2009 14:55:35 2.2 C 4.73 g/m*3 2.2 C 0 km/h
556 14-01-2009 15:07:35 2.1 C 4.7 g/m*3 2.1 C 0 km/h
557 14-01-2009 15:19:34 2.1 C 4.7 g/m*3 2.1 C 0 km/h
558 14-01-2009 15:31:34 2.1 C 4.7 g/m*3 2.1 C 0 km/h
559 14-01-2009 15:43:34 2 C 4.67 g/m*3 2 C 0 km/h
560 14-01-2009 15:55:34 1.8 C 4.66 g/m*3 1.8 C 0 km/h
561 14-01-2009 16:07:34 1.8 C 4.66 g/m*3 1.8 C 0 km/h
562 14-01-2009 16:19:34 1.7 C 4.63 g/m*3 1.7 C 0 km/h
563 14-01-2009 16:31:34 1.6 C 4.6 g/m*3 1.6 C 0 km/h
564 14-01-2009 16:43:34 1.5 C 4.62 g/m*3 1.5 C 0 km/h
565 14-01-2009 16:55:34 1.6 C 4.7 g/m*3 1.6 C 0 km/h
566 14-01-2009 17:07:33 1.5 C 4.67 g/m*3 1.5 C 0 km/h
567 14-01-2009 17:19:34 1.5 C 4.67 g/m*3 1.5 C 0 km/h
568 14-01-2009 17:31:33 1.4 C 4.64 g/m*3 1.4 C 0 km/h
569 14-01-2009 17:43:33 1.4 C 4.64 g/m*3 1.4 C 0 km/h
570 14-01-2009 17:55:33 1.5 C 4.67 g/m*3 1.5 C 0 km/h
571 14-01-2009 18:07:33 1.5 C 4.73 g/m*3 1.5 C 0 km/h
572 14-01-2009 18:19:33 1.5 C 4.73 g/m*3 1.5 C 0 km/h
573 14-01-2009 18:31:33 1.5 C 4.73 g/m*3 1.5 C 0 km/h
574 14-01-2009 18:43:33 1.4 C 4.69 g/m*3 1.4 C 0 km/h
575 14-01-2009 18:55:32 1.4 C 4.69 g/m*3 1.4 C 0 km/h
Sensor: Nr:Datum:Temp:Abs-Feuchte:Windchill:Wind:
Aussen-T/F 576 14-01-2009 19:07:33 1.4 C 4.69 g/m*3 1.4 C 0 km/h
577 14-01-2009 19:19:32 1.4 C 4.69 g/m*3 1.4 C 0 km/h
578 14-01-2009 19:31:32 1.3 C 4.72 g/m*3 1.3 C 0 km/h
579 14-01-2009 19:43:32 1.3 C 4.72 g/m*3 1.3 C 0 km/h
580 14-01-2009 19:55:32 1.3 C 4.72 g/m*3 1.3 C 0 km/h
581 14-01-2009 20:07:32 1.3 C 4.72 g/m*3 1.3 C 0 km/h
582 14-01-2009 20:19:31 1.2 C 4.68 g/m*3 1.2 C 0 km/h
583 14-01-2009 20:31:32 1.2 C 4.68 g/m*3 1.2 C 0 km/h
584 14-01-2009 20:43:33 1.2 C 4.68 g/m*3 1.2 C 0 km/h
585 14-01-2009 20:55:31 1.3 C 4.72 g/m*3 1.3 C 0 km/h
586 14-01-2009 21:07:31 1.2 C 4.68 g/m*3 1.2 C 0 km/h
587 14-01-2009 21:19:31 1.2 C 4.68 g/m*3 1.2 C 0 km/h
588 14-01-2009 21:31:31 1.2 C 4.68 g/m*3 1.2 C 0 km/h
589 14-01-2009 21:43:31 1.1 C 4.65 g/m*3 1.1 C 0 km/h
590 14-01-2009 21:55:31 1.2 C 4.74 g/m*3 1.2 C 0 km/h
591 14-01-2009 22:07:31 1.1 C 4.7 g/m*3 1.1 C 0 km/h
592 14-01-2009 22:19:30 1.1 C 4.7 g/m*3 1.1 C 0 km/h
593 14-01-2009 22:31:31 1.1 C 4.7 g/m*3 1.1 C 0 km/h
594 14-01-2009 22:43:31 1.1 C 4.7 g/m*3 1.1 C 0 km/h
595 14-01-2009 22:56:31 1.1 C 4.7 g/m*3 1.1 C 0 km/h
596 14-01-2009 23:08:31 1.1 C 4.7 g/m*3 1.1 C 0 km/h
597 14-01-2009 23:20:31 1.1 C 4.76 g/m*3 1.1 C 0 km/h
598 14-01-2009 23:32:31 1.1 C 4.76 g/m*3 1.1 C 0 km/h
599 14-01-2009 23:44:31 1.1 C 4.76 g/m*3 1.1 C 0 km/h
600 14-01-2009 23:56:31 1 C 4.72 g/m*3 1 C 0 km/h
Sensor: Nr:Datum:Temp:Abs-Feuchte:Windchill:Wind:
Aussen-T/F 601 15-01-2009 00:08:31 1 C 4.72 g/m*3 1 C 0 km/h
602 15-01-2009 00:20:31 1 C 4.72 g/m*3 1 C 0 km/h
603 15-01-2009 00:32:31 1 C 4.72 g/m*3 1 C 0 km/h
604 15-01-2009 00:44:31 1 C 4.72 g/m*3 1 C 0 km/h
605 15-01-2009 00:56:32 1 C 4.72 g/m*3 1 C 0 km/h
606 15-01-2009 01:08:32 1 C 4.72 g/m*3 1 C 0 km/h
607 15-01-2009 01:20:32 1 C 4.72 g/m*3 1 C 0 km/h
608 15-01-2009 01:32:32 0.9 C 4.69 g/m*3 0.9 C 0 km/h
609 15-01-2009 01:44:32 0.9 C 4.69 g/m*3 0.9 C 0 km/h
610 15-01-2009 01:56:32 1 C 4.72 g/m*3 1 C 0 km/h
611 15-01-2009 02:08:32 0.9 C 4.74 g/m*3 0.9 C 0 km/h
612 15-01-2009 02:20:32 0.9 C 4.74 g/m*3 0.9 C 0 km/h
613 15-01-2009 02:32:32 0.9 C 4.74 g/m*3 0.9 C 0 km/h
614 15-01-2009 02:44:32 0.9 C 4.74 g/m*3 0.9 C 0 km/h
615 15-01-2009 02:56:32 0.9 C 4.74 g/m*3 0.9 C 0 km/h
616 15-01-2009 03:08:32 0.8 C 4.71 g/m*3 0.8 C 0 km/h
617 15-01-2009 03:20:32 0.8 C 4.71 g/m*3 0.8 C 0 km/h
618 15-01-2009 03:32:32 0.8 C 4.71 g/m*3 0.8 C 0 km/h
619 15-01-2009 03:44:32 0.8 C 4.71 g/m*3 0.8 C 0 km/h
620 15-01-2009 03:56:32 0.8 C 4.71 g/m*3 0.8 C 0 km/h
621 15-01-2009 04:08:32 0.8 C 4.71 g/m*3 0.8 C 0 km/h
622 15-01-2009 04:20:32 0.7 C 4.68 g/m*3 0.7 C 0 km/h
623 15-01-2009 04:32:32 0.7 C 4.63 g/m*3 0.7 C 0 km/h
624 15-01-2009 04:44:32 0.7 C 4.63 g/m*3 0.7 C 0 km/h
625 15-01-2009 04:56:33 0.6 C 4.65 g/m*3 0.6 C 0 km/h
Sensor: Nr:Datum:Temp:Abs-Feuchte:Windchill:Wind:
Aussen-T/F 626 15-01-2009 05:08:33 0.6 C 4.65 g/m*3 0.6 C 0 km/h
627 15-01-2009 05:20:33 0.6 C 4.65 g/m*3 0.6 C 0 km/h
628 15-01-2009 05:32:33 0.6 C 4.65 g/m*3 0.6 C 0 km/h
629 15-01-2009 05:44:31 0.6 C 4.65 g/m*3 0.6 C 0 km/h
630 15-01-2009 05:56:31 0.5 C 4.61 g/m*3 0.5 C 0 km/h
631 15-01-2009 06:08:32 0.6 C 4.65 g/m*3 0.6 C 0 km/h
632 15-01-2009 06:20:31 0.6 C 4.65 g/m*3 0.6 C 0 km/h
633 15-01-2009 06:32:31 0.6 C 4.65 g/m*3 0.6 C 0 km/h
634 15-01-2009 06:44:30 0.6 C 4.65 g/m*3 0.6 C 0 km/h
635 15-01-2009 06:56:30 0.6 C 4.65 g/m*3 0.6 C 0 km/h
636 15-01-2009 07:08:31 0.6 C 4.65 g/m*3 0.6 C 0 km/h
637 15-01-2009 07:20:30 0.6 C 4.65 g/m*3 0.6 C 0 km/h
638 15-01-2009 07:32:30 0.6 C 4.65 g/m*3 0.6 C 0 km/h
639 15-01-2009 07:44:30 0.7 C 4.68 g/m*3 0.7 C 0 km/h
640 15-01-2009 07:56:30 0.7 C 4.68 g/m*3 0.7 C 0 km/h
641 15-01-2009 08:08:30 0.6 C 4.65 g/m*3 0.6 C 0 km/h
642 15-01-2009 08:20:30 0.6 C 4.65 g/m*3 0.6 C 0 km/h
643 15-01-2009 08:32:30 0.6 C 4.65 g/m*3 0.6 C 0 km/h
644 15-01-2009 08:44:30 0.7 C 4.68 g/m*3 0.7 C 0 km/h
645 15-01-2009 08:56:30 0.7 C 4.68 g/m*3 0.7 C 0 km/h
646 15-01-2009 09:08:29 0.8 C 4.71 g/m*3 0.8 C 0 km/h
647 15-01-2009 09:20:30 0.9 C 4.74 g/m*3 0.9 C 0 km/h
648 15-01-2009 09:32:29 1 C 4.78 g/m*3 1 C 0 km/h
649 15-01-2009 09:44:29 1.1 C 4.81 g/m*3 1.1 C 0 km/h
650 15-01-2009 09:56:29 1.3 C 4.87 g/m*3 1.3 C 0 km/h
Sensor: Nr:Datum:Temp:Abs-Feuchte:Windchill:Wind:
Aussen-T/F 651 15-01-2009 10:08:29 1.3 C 4.87 g/m*3 1.3 C 0 km/h
652 15-01-2009 10:20:29 1.4 C 4.85 g/m*3 1.4 C 0 km/h
653 15-01-2009 10:32:28 1.6 C 4.92 g/m*3 1.6 C 0 km/h
654 15-01-2009 10:44:29 1.7 C 4.95 g/m*3 1.7 C 0 km/h
655 15-01-2009 10:56:29 1.8 C 4.93 g/m*3 1.8 C 0 km/h
656 15-01-2009 11:08:28 1.6 C 4.87 g/m*3 1.6 C 0 km/h
657 15-01-2009 11:20:28 1.3 C 4.72 g/m*3 1.3 C 0 km/h
658 15-01-2009 11:32:28 1.2 C 4.68 g/m*3 1.2 C 0 km/h
659 15-01-2009 11:44:28 1.3 C 4.77 g/m*3 1.3 C 0 km/h
660 15-01-2009 11:56:28 1.2 C 4.74 g/m*3 1.2 C 0 km/h
661 15-01-2009 12:08:28 1.2 C 4.74 g/m*3 1.2 C 0 km/h
662 15-01-2009 12:20:27 1.4 C 4.8 g/m*3 1.4 C 0 km/h
663 15-01-2009 12:32:28 1.7 C 4.9 g/m*3 1.7 C 0 km/h
664 15-01-2009 12:44:27 2.1 C 4.98 g/m*3 2.1 C 0 km/h
665 15-01-2009 12:56:27 2.6 C 5.03 g/m*3 2.6 C 0 km/h
666 15-01-2009 13:08:27 3.1 C 5.03 g/m*3 3.1 C 0 km/h
667 15-01-2009 13:20:27 3.7 C 4.99 g/m*3 3.7 C 0 km/h
668 15-01-2009 13:32:27 4 C 4.64 g/m*3 4 C 0 km/h
669 15-01-2009 13:44:26 4.5 C 4.54 g/m*3 4.5 C 0 km/h
670 15-01-2009 13:56:26 4.8 C 4.43 g/m*3 4.8 C 0 km/h
671 15-01-2009 14:08:27 5 C 4.08 g/m*3 5 C 0 km/h
672 15-01-2009 14:20:27 5 C 3.87 g/m*3 5 C 0 km/h
673 15-01-2009 14:32:26 4.3 C 3.76 g/m*3 4.3 C 0 km/h
674 15-01-2009 14:44:26 3.5 C 3.69 g/m*3 3.5 C 0 km/h
675 15-01-2009 14:56:26 3.2 C 3.62 g/m*3 3.2 C 0 km/h
Sensor: Nr:Datum:Temp:Abs-Feuchte:Windchill:Wind:
Aussen-T/F 676 15-01-2009 15:08:26 2.8 C 3.7 g/m*3 2.8 C 0 km/h
677 15-01-2009 15:20:26 2.6 C 3.7 g/m*3 2.6 C 0 km/h
678 15-01-2009 15:32:25 2.5 C 3.74 g/m*3 2.5 C 0 km/h
679 15-01-2009 15:44:26 2.6 C 3.7 g/m*3 2.6 C 0 km/h
680 15-01-2009 15:56:26 2.6 C 3.65 g/m*3 2.6 C 0 km/h
681 15-01-2009 16:08:25 2.6 C 3.59 g/m*3 2.6 C 0 km/h
682 15-01-2009 16:20:25 2.3 C 3.63 g/m*3 2.3 C 0 km/h
683 15-01-2009 16:32:25 2.1 C 3.64 g/m*3 2.1 C 0 km/h
684 15-01-2009 16:44:25 2.1 C 3.64 g/m*3 2.1 C 0 km/h
685 15-01-2009 16:56:25 2 C 3.56 g/m*3 2 C 0 km/h
686 15-01-2009 17:08:25 1.7 C 3.54 g/m*3 1.7 C 0 km/h
687 15-01-2009 17:20:24 1.3 C 3.55 g/m*3 1.3 C 0 km/h
688 15-01-2009 17:32:25 0.9 C 3.66 g/m*3 0.9 C 0 km/h
689 15-01-2009 17:44:24 0.7 C 3.71 g/m*3 0.7 C 0 km/h
690 15-01-2009 17:56:24 0.5 C 3.76 g/m*3 0.5 C 0 km/h
691 15-01-2009 18:08:24 0.2 C 3.68 g/m*3 0.2 C 0 km/h
692 15-01-2009 18:20:24 0.1 C 3.76 g/m*3 0.1 C 0 km/h
693 15-01-2009 18:32:24 -0.2 C 3.68 g/m*3 -0.2 C 0 km/h
694 15-01-2009 18:44:23 -0.4 C 3.68 g/m*3 -0.4 C 0 km/h
695 15-01-2009 18:56:23 -0.5 C 3.7 g/m*3 -0.5 C 0 km/h
696 15-01-2009 19:08:24 -0.7 C 3.69 g/m*3 -0.7 C 0 km/h
697 15-01-2009 19:20:24 -0.8 C 3.67 g/m*3 -0.8 C 0 km/h
698 15-01-2009 19:32:23 -1 C 3.66 g/m*3 -1 C 0 km/h
699 15-01-2009 19:44:23 -0.9 C 3.69 g/m*3 -0.9 C 0 km/h
700 15-01-2009 19:56:23 -0.6 C 3.81 g/m*3 -0.6 C 0 km/h
Sensor: Nr:Datum:Temp:Abs-Feuchte:Windchill:Wind:
Aussen-T/F 701 15-01-2009 20:08:23 -0.5 C 3.84 g/m*3 -0.5 C 0 km/h
702 15-01-2009 20:20:23 -0.5 C 3.74 g/m*3 -0.5 C 0 km/h
703 15-01-2009 20:32:23 -0.7 C 3.69 g/m*3 -0.7 C 0 km/h
704 15-01-2009 20:44:23 -0.9 C 3.64 g/m*3 -0.9 C 0 km/h
705 15-01-2009 20:56:23 -1.2 C 3.61 g/m*3 -1.2 C 0 km/h
706 15-01-2009 21:08:23 -1.3 C 3.59 g/m*3 -1.3 C 0 km/h
707 15-01-2009 21:20:22 -1.5 C 3.58 g/m*3 -1.5 C 0 km/h
708 15-01-2009 21:32:22 -1.7 C 3.53 g/m*3 -1.7 C 0 km/h
709 15-01-2009 21:44:22 -2 C 3.46 g/m*3 -2 C 0 km/h
710 15-01-2009 21:56:22 -2.1 C 3.47 g/m*3 -2.1 C 0 km/h
711 15-01-2009 22:08:22 -2.1 C 3.47 g/m*3 -2.1 C 0 km/h
712 15-01-2009 22:20:22 -2.1 C 3.52 g/m*3 -2.1 C 0 km/h
713 15-01-2009 22:32:22 -2.3 C 3.47 g/m*3 -2.3 C 0 km/h
714 15-01-2009 22:44:22 -2.4 C 3.44 g/m*3 -2.4 C 0 km/h
715 15-01-2009 22:56:22 -2.4 C 3.44 g/m*3 -2.4 C 0 km/h
716 15-01-2009 23:08:21 -2.4 C 3.48 g/m*3 -2.4 C 0 km/h
717 15-01-2009 23:20:21 -2.6 C 3.43 g/m*3 -2.6 C 0 km/h
718 15-01-2009 23:33:02 -2.7 C 3.45 g/m*3 -2.7 C 0 km/h
719 15-01-2009 23:45:02 -2.3 C 3.59 g/m*3 -2.3 C 0 km/h
720 15-01-2009 23:57:02 -1.6 C 3.81 g/m*3 -1.6 C 0 km/h
721 16-01-2009 00:09:02 -1.3 C 3.94 g/m*3 -1.3 C 0 km/h
722 16-01-2009 00:21:02 -1.2 C 3.97 g/m*3 -1.2 C 0 km/h
723 16-01-2009 00:33:02 -1.1 C 3.95 g/m*3 -1.1 C 0 km/h
724 16-01-2009 00:45:03 -0.9 C 4.01 g/m*3 -0.9 C 0 km/h
725 16-01-2009 00:57:03 -0.7 C 4.06 g/m*3 -0.7 C 0 km/h
Sensor: Nr:Datum:Temp:Abs-Feuchte:Windchill:Wind:
Aussen-T/F 726 16-01-2009 01:09:03 -0.6 C 4.04 g/m*3 -0.6 C 0 km/h
727 16-01-2009 01:21:03 -0.5 C 4.07 g/m*3 -0.5 C 0 km/h
728 16-01-2009 01:33:03 -0.4 C 4.1 g/m*3 -0.4 C 0 km/h
729 16-01-2009 01:45:03 -0.3 C 4.13 g/m*3 -0.3 C 0 km/h
730 16-01-2009 01:57:03 -0.3 C 4.13 g/m*3 -0.3 C 0 km/h
731 16-01-2009 02:09:03 -0.2 C 4.11 g/m*3 -0.2 C 0 km/h
732 16-01-2009 02:21:03 -0.2 C 4.11 g/m*3 -0.2 C 0 km/h
733 16-01-2009 02:33:03 0 C 4.17 g/m*3 0 C 0 km/h
734 16-01-2009 02:45:03 0 C 4.12 g/m*3 0 C 0 km/h
735 16-01-2009 02:57:03 0 C 4.12 g/m*3 0 C 0 km/h
736 16-01-2009 03:09:03 0 C 4.12 g/m*3 0 C 0 km/h
737 16-01-2009 03:21:03 0 C 4.07 g/m*3 0 C 0 km/h
738 16-01-2009 03:33:03 0.1 C 4.15 g/m*3 0.1 C 0 km/h
739 16-01-2009 03:45:03 0.1 C 4.1 g/m*3 0.1 C 0 km/h
740 16-01-2009 03:57:03 0.1 C 4.1 g/m*3 0.1 C 0 km/h
741 16-01-2009 04:09:03 0.2 C 4.13 g/m*3 0.2 C 0 km/h
742 16-01-2009 04:21:03 0.3 C 4.16 g/m*3 0.3 C 0 km/h
743 16-01-2009 04:33:04 0.3 C 4.06 g/m*3 0.3 C 0 km/h
744 16-01-2009 04:45:04 0.3 C 4.01 g/m*3 0.3 C 0 km/h
745 16-01-2009 04:57:04 0.3 C 3.91 g/m*3 0.3 C 0 km/h
746 16-01-2009 05:09:04 0.3 C 3.91 g/m*3 0.3 C 0 km/h
747 16-01-2009 05:21:04 0.3 C 3.91 g/m*3 0.3 C 0 km/h
748 16-01-2009 05:33:04 0.3 C 3.91 g/m*3 0.3 C 0 km/h
749 16-01-2009 05:45:04 0.3 C 3.91 g/m*3 0.3 C 0 km/h
750 16-01-2009 05:57:04 0.3 C 3.91 g/m*3 0.3 C 0 km/h
Sensor: Nr:Datum:Temp:Abs-Feuchte:Windchill:Wind:
Aussen-T/F 751 16-01-2009 06:09:04 0.3 C 3.96 g/m*3 0.3 C 0 km/h
752 16-01-2009 06:21:04 0.3 C 3.96 g/m*3 0.3 C 0 km/h
753 16-01-2009 06:33:04 0.3 C 3.91 g/m*3 0.3 C 0 km/h
754 16-01-2009 06:45:04 0.4 C 3.93 g/m*3 0.4 C 0 km/h
755 16-01-2009 06:57:04 0.4 C 3.93 g/m*3 0.4 C 0 km/h
756 16-01-2009 07:09:01 0.4 C 3.98 g/m*3 0.4 C 0 km/h
757 16-01-2009 07:21:01 0.4 C 3.98 g/m*3 0.4 C 0 km/h
758 16-01-2009 07:33:02 0.5 C 3.96 g/m*3 0.5 C 0 km/h
759 16-01-2009 07:45:01 0.5 C 3.96 g/m*3 0.5 C 0 km/h
760 16-01-2009 07:57:01 0.5 C 3.91 g/m*3 0.5 C 0 km/h
761 16-01-2009 08:09:01 0.5 C 3.91 g/m*3 0.5 C 0 km/h
762 16-01-2009 08:21:01 0.5 C 3.91 g/m*3 0.5 C 0 km/h
763 16-01-2009 08:33:01 0.5 C 3.86 g/m*3 0.5 C 0 km/h
764 16-01-2009 08:45:00 0.5 C 3.86 g/m*3 0.5 C 0 km/h
765 16-01-2009 08:57:00 0.6 C 3.89 g/m*3 0.6 C 0 km/h
766 16-01-2009 09:09:01 0.7 C 3.86 g/m*3 0.7 C 0 km/h
767 16-01-2009 09:21:00 0.8 C 3.84 g/m*3 0.8 C 0 km/h
768 16-01-2009 09:33:00 1 C 3.84 g/m*3 1 C 0 km/h
769 16-01-2009 09:45:00 0.9 C 3.76 g/m*3 0.9 C 0 km/h
770 16-01-2009 09:57:00 1 C 3.74 g/m*3 1 C 0 km/h
771 16-01-2009 10:09:00 1.1 C 3.76 g/m*3 1.1 C 0 km/h
772 16-01-2009 10:21:00 1.3 C 3.76 g/m*3 1.3 C 0 km/h
773 16-01-2009 10:33:59 1.4 C 3.73 g/m*3 1.4 C 0 km/h
774 16-01-2009 10:45:00 1.5 C 3.76 g/m*3 1.5 C 0 km/h
775 16-01-2009 10:57:00 1.8 C 3.73 g/m*3 1.8 C 0 km/h
Sensor: Nr:Datum:Temp:Abs-Feuchte:Windchill:Wind:
Aussen-T/F 776 16-01-2009 11:09:59 2.2 C 3.66 g/m*3 2.2 C 0 km/h
777 16-01-2009 11:21:59 2.4 C 3.65 g/m*3 2.4 C 0 km/h
778 16-01-2009 11:33:00 2.2 C 3.6 g/m*3 2.2 C 0 km/h
779 16-01-2009 11:45:59 2.3 C 3.63 g/m*3 2.3 C 0 km/h
780 16-01-2009 11:57:59 2.4 C 3.65 g/m*3 2.4 C 0 km/h
781 16-01-2009 12:09:59 2.2 C 3.6 g/m*3 2.2 C 0 km/h
782 16-01-2009 12:21:59 2.3 C 3.63 g/m*3 2.3 C 0 km/h
783 16-01-2009 12:33:59 2.2 C 3.6 g/m*3 2.2 C 0 km/h
784 16-01-2009 12:45:58 2.2 C 3.6 g/m*3 2.2 C 0 km/h
785 16-01-2009 12:57:58 2.1 C 3.64 g/m*3 2.1 C 0 km/h
786 16-01-2009 13:09:59 2.3 C 3.69 g/m*3 2.3 C 0 km/h
787 16-01-2009 13:21:58 2.3 C 3.69 g/m*3 2.3 C 0 km/h
788 16-01-2009 13:33:58 2.3 C 3.69 g/m*3 2.3 C 0 km/h
789 16-01-2009 13:45:57 2.7 C 3.79 g/m*3 2.7 C 0 km/h
790 16-01-2009 13:57:57 2.8 C 3.7 g/m*3 2.8 C 0 km/h
791 16-01-2009 14:09:58 2.6 C 3.65 g/m*3 2.6 C 0 km/h
792 16-01-2009 14:21:58 2.8 C 3.75 g/m*3 2.8 C 0 km/h
793 16-01-2009 14:33:57 3.1 C 3.71 g/m*3 3.1 C 0 km/h
794 16-01-2009 14:45:58 2.9 C 3.72 g/m*3 2.9 C 0 km/h
795 16-01-2009 14:57:58 2.7 C 3.67 g/m*3 2.7 C 0 km/h
796 16-01-2009 15:09:57 2.6 C 3.7 g/m*3 2.6 C 0 km/h
797 16-01-2009 15:21:57 2.5 C 3.74 g/m*3 2.5 C 0 km/h
798 16-01-2009 15:33:57 2.5 C 3.74 g/m*3 2.5 C 0 km/h
799 16-01-2009 15:45:57 2.5 C 3.74 g/m*3 2.5 C 0 km/h
800 16-01-2009 15:57:57 2.3 C 3.74 g/m*3 2.3 C 0 km/h
Sensor: Nr:Datum:Temp:Abs-Feuchte:Windchill:Wind:
Aussen-T/F 801 16-01-2009 16:09:56 2 C 3.67 g/m*3 2 C 0 km/h
802 16-01-2009 16:21:56 1.7 C 3.7 g/m*3 1.7 C 0 km/h
803 16-01-2009 16:33:57 1.4 C 3.68 g/m*3 1.4 C 0 km/h
804 16-01-2009 16:45:56 1.2 C 3.68 g/m*3 1.2 C 0 km/h
805 16-01-2009 16:57:56 1 C 3.74 g/m*3 1 C 0 km/h
806 16-01-2009 17:09:56 0.9 C 3.76 g/m*3 0.9 C 0 km/h
807 16-01-2009 17:21:56 0.6 C 3.74 g/m*3 0.6 C 0 km/h
808 16-01-2009 17:33:55 0.3 C 3.71 g/m*3 0.3 C 0 km/h
809 16-01-2009 17:45:56 0.1 C 3.71 g/m*3 0.1 C 0 km/h
810 16-01-2009 17:57:56 -0.2 C 3.73 g/m*3 -0.2 C 0 km/h
811 16-01-2009 18:09:55 -0.3 C 3.75 g/m*3 -0.3 C 0 km/h
812 16-01-2009 18:21:55 -0.5 C 3.74 g/m*3 -0.5 C 0 km/h
813 16-01-2009 18:33:55 -0.6 C 3.72 g/m*3 -0.6 C 0 km/h
814 16-01-2009 18:45:55 -0.6 C 3.76 g/m*3 -0.6 C 0 km/h
815 16-01-2009 18:57:55 -0.6 C 3.81 g/m*3 -0.6 C 0 km/h
816 16-01-2009 19:09:55 -0.7 C 3.78 g/m*3 -0.7 C 0 km/h
817 16-01-2009 19:21:55 -0.7 C 3.78 g/m*3 -0.7 C 0 km/h
818 16-01-2009 19:33:54 -0.7 C 3.83 g/m*3 -0.7 C 0 km/h
819 16-01-2009 19:45:55 -0.8 C 3.8 g/m*3 -0.8 C 0 km/h
820 16-01-2009 19:57:55 -0.7 C 3.83 g/m*3 -0.7 C 0 km/h
821 16-01-2009 20:09:54 -0.7 C 3.88 g/m*3 -0.7 C 0 km/h
822 16-01-2009 20:21:54 -0.5 C 3.93 g/m*3 -0.5 C 0 km/h
823 16-01-2009 20:33:54 -0.4 C 3.96 g/m*3 -0.4 C 0 km/h
824 16-01-2009 20:45:54 -0.2 C 4.01 g/m*3 -0.2 C 0 km/h
825 16-01-2009 20:57:54 0 C 4.07 g/m*3 0 C 0 km/h
Sensor: Nr:Datum:Temp:Abs-Feuchte:Windchill:Wind:
Aussen-T/F 826 16-01-2009 21:09:53 0.1 C 4.1 g/m*3 0.1 C 0 km/h
827 16-01-2009 21:21:53 0.2 C 4.13 g/m*3 0.2 C 0 km/h
828 16-01-2009 21:33:54 0.2 C 4.08 g/m*3 0.2 C 0 km/h
829 16-01-2009 21:45:53 0.3 C 4.11 g/m*3 0.3 C 0 km/h
830 16-01-2009 21:57:53 0.3 C 4.06 g/m*3 0.3 C 0 km/h
831 16-01-2009 22:09:53 0.5 C 4.11 g/m*3 0.5 C 0 km/h
832 16-01-2009 22:22:54 0.6 C 4.14 g/m*3 0.6 C 0 km/h
833 16-01-2009 22:34:54 0.6 C 4.14 g/m*3 0.6 C 0 km/h
834 16-01-2009 22:46:54 0.6 C 4.09 g/m*3 0.6 C 0 km/h
835 16-01-2009 22:58:54 0.7 C 4.07 g/m*3 0.7 C 0 km/h
836 16-01-2009 23:10:54 0.7 C 4.07 g/m*3 0.7 C 0 km/h
837 16-01-2009 23:22:54 0.7 C 4.07 g/m*3 0.7 C 0 km/h
838 16-01-2009 23:34:54 0.8 C 4.1 g/m*3 0.8 C 0 km/h
839 16-01-2009 23:46:54 0.7 C 4.02 g/m*3 0.7 C 0 km/h
840 16-01-2009 23:58:54 0.8 C 4.04 g/m*3 0.8 C 0 km/h
841 17-01-2009 00:10:54 0.8 C 4.04 g/m*3 0.8 C 0 km/h
842 17-01-2009 00:22:55 0.7 C 4.02 g/m*3 0.7 C 0 km/h
843 17-01-2009 00:34:55 0.8 C 4.04 g/m*3 0.8 C 0 km/h
844 17-01-2009 00:46:55 0.8 C 4.1 g/m*3 0.8 C 0 km/h
845 17-01-2009 00:58:55 0.8 C 4.1 g/m*3 0.8 C 0 km/h
846 17-01-2009 01:10:55 0.8 C 4.1 g/m*3 0.8 C 0 km/h
847 17-01-2009 01:22:55 0.9 C 4.12 g/m*3 0.9 C 0 km/h
848 17-01-2009 01:34:55 0.9 C 4.12 g/m*3 0.9 C 0 km/h
849 17-01-2009 01:46:55 0.7 C 4.07 g/m*3 0.7 C 0 km/h
850 17-01-2009 01:58:55 0.6 C 4.04 g/m*3 0.6 C 0 km/h
Sensor: Nr:Datum:Temp:Abs-Feuchte:Windchill:Wind:
Aussen-T/F 851 17-01-2009 02:10:55 0.6 C 4.09 g/m*3 0.6 C 0 km/h
852 17-01-2009 02:22:55 0.5 C 4.11 g/m*3 0.5 C 0 km/h
853 17-01-2009 02:34:55 0.6 C 4.19 g/m*3 0.6 C 0 km/h
854 17-01-2009 02:46:55 0.6 C 4.19 g/m*3 0.6 C 0 km/h
855 17-01-2009 02:58:55 0.6 C 4.24 g/m*3 0.6 C 0 km/h
856 17-01-2009 03:10:55 0.7 C 4.27 g/m*3 0.7 C 0 km/h
857 17-01-2009 03:22:55 0.7 C 4.32 g/m*3 0.7 C 0 km/h
858 17-01-2009 03:34:55 0.6 C 4.29 g/m*3 0.6 C 0 km/h
859 17-01-2009 03:46:55 0.6 C 4.34 g/m*3 0.6 C 0 km/h
860 17-01-2009 03:58:55 0.6 C 4.39 g/m*3 0.6 C 0 km/h
861 17-01-2009 04:10:56 0.7 C 4.42 g/m*3 0.7 C 0 km/h
862 17-01-2009 04:22:56 0.7 C 4.42 g/m*3 0.7 C 0 km/h
863 17-01-2009 04:34:56 0.8 C 4.51 g/m*3 0.8 C 0 km/h
864 17-01-2009 04:46:56 0.8 C 4.51 g/m*3 0.8 C 0 km/h
865 17-01-2009 04:58:56 0.8 C 4.51 g/m*3 0.8 C 0 km/h
866 17-01-2009 05:10:56 0.8 C 4.51 g/m*3 0.8 C 0 km/h
867 17-01-2009 05:22:56 0.8 C 4.51 g/m*3 0.8 C 0 km/h
868 17-01-2009 05:34:56 0.9 C 4.54 g/m*3 0.9 C 0 km/h
869 17-01-2009 05:46:56 0.9 C 4.59 g/m*3 0.9 C 0 km/h
870 17-01-2009 05:58:56 0.9 C 4.59 g/m*3 0.9 C 0 km/h
871 17-01-2009 06:10:56 1 C 4.62 g/m*3 1 C 0 km/h
872 17-01-2009 06:22:56 1 C 4.62 g/m*3 1 C 0 km/h
873 17-01-2009 06:34:56 1.1 C 4.65 g/m*3 1.1 C 0 km/h
874 17-01-2009 06:46:56 1.2 C 4.68 g/m*3 1.2 C 0 km/h
875 17-01-2009 06:58:56 1.2 C 4.68 g/m*3 1.2 C 0 km/h
Sensor: Nr:Datum:Temp:Abs-Feuchte:Windchill:Wind:
Aussen-T/F 876 17-01-2009 07:10:56 1.2 C 4.68 g/m*3 1.2 C 0 km/h
877 17-01-2009 07:22:56 1.2 C 4.74 g/m*3 1.2 C 0 km/h
878 17-01-2009 07:34:56 1.3 C 4.77 g/m*3 1.3 C 0 km/h
879 17-01-2009 07:46:56 1.3 C 4.77 g/m*3 1.3 C 0 km/h
880 17-01-2009 07:58:57 1.2 C 4.74 g/m*3 1.2 C 0 km/h
881 17-01-2009 08:10:57 1.2 C 4.74 g/m*3 1.2 C 0 km/h
882 17-01-2009 08:22:57 1.2 C 4.74 g/m*3 1.2 C 0 km/h
883 17-01-2009 08:34:55 1.3 C 4.77 g/m*3 1.3 C 0 km/h
884 17-01-2009 08:46:55 1.4 C 4.8 g/m*3 1.4 C 0 km/h
885 17-01-2009 08:58:55 1.4 C 4.8 g/m*3 1.4 C 0 km/h
886 17-01-2009 09:10:54 1.6 C 4.87 g/m*3 1.6 C 0 km/h
887 17-01-2009 09:22:54 1.7 C 4.85 g/m*3 1.7 C 0 km/h
888 17-01-2009 09:34:54 1.8 C 4.88 g/m*3 1.8 C 0 km/h
889 17-01-2009 09:46:54 1.9 C 4.91 g/m*3 1.9 C 0 km/h
890 17-01-2009 09:58:54 2 C 4.89 g/m*3 2 C 0 km/h
891 17-01-2009 10:10:54 2.1 C 4.87 g/m*3 2.1 C 0 km/h
892 17-01-2009 10:22:53 2.1 C 4.87 g/m*3 2.1 C 0 km/h
893 17-01-2009 10:34:54 2.2 C 4.9 g/m*3 2.2 C 0 km/h
894 17-01-2009 10:46:53 2.3 C 4.93 g/m*3 2.3 C 0 km/h
895 17-01-2009 10:58:53 2.5 C 5 g/m*3 2.5 C 0 km/h
896 17-01-2009 11:10:53 2.7 C 5.01 g/m*3 2.7 C 0 km/h
897 17-01-2009 11:22:53 2.9 C 5.08 g/m*3 2.9 C 0 km/h
898 17-01-2009 11:34:53 3.1 C 5.09 g/m*3 3.1 C 0 km/h
899 17-01-2009 11:46:52 3 C 4.99 g/m*3 3 C 0 km/h
900 17-01-2009 11:58:52 3 C 4.99 g/m*3 3 C 0 km/h
Sensor: Nr:Datum:Temp:Abs-Feuchte:Windchill:Wind:
Aussen-T/F 901 17-01-2009 12:10:53 3.1 C 5.03 g/m*3 3.1 C 0 km/h
902 17-01-2009 12:22:53 3 C 4.93 g/m*3 3 C 0 km/h
903 17-01-2009 12:34:52 3.2 C 4.94 g/m*3 3.2 C 0 km/h
904 17-01-2009 12:46:52 3.3 C 4.97 g/m*3 3.3 C 0 km/h
905 17-01-2009 12:58:52 3.5 C 4.98 g/m*3 3.5 C 0 km/h
906 17-01-2009 13:10:52 3.5 C 4.92 g/m*3 3.5 C 0 km/h
907 17-01-2009 13:22:52 3.8 C 5.08 g/m*3 3.8 C 0 km/h
908 17-01-2009 13:34:51 3.8 C 5.02 g/m*3 3.8 C 0 km/h
909 17-01-2009 13:46:52 3.9 C 5.05 g/m*3 3.9 C 0 km/h
910 17-01-2009 13:58:52 4.2 C 5.15 g/m*3 4.2 C 0 km/h
911 17-01-2009 14:10:51 4.2 C 5.09 g/m*3 4.2 C 0 km/h
912 17-01-2009 14:22:51 4.1 C 4.99 g/m*3 4.1 C 0 km/h
913 17-01-2009 14:34:51 4.1 C 5.06 g/m*3 4.1 C 0 km/h
914 17-01-2009 14:46:51 4.1 C 5.06 g/m*3 4.1 C 0 km/h
915 17-01-2009 14:58:51 3.9 C 5.12 g/m*3 3.9 C 0 km/h
916 17-01-2009 15:10:51 4.1 C 5.18 g/m*3 4.1 C 0 km/h
917 17-01-2009 15:22:50 4.2 C 5.28 g/m*3 4.2 C 0 km/h
918 17-01-2009 15:34:51 4.3 C 5.32 g/m*3 4.3 C 0 km/h
919 17-01-2009 15:46:50 4.4 C 5.42 g/m*3 4.4 C 0 km/h
920 17-01-2009 15:58:50 4.4 C 5.42 g/m*3 4.4 C 0 km/h
921 17-01-2009 16:10:51 4.4 C 5.35 g/m*3 4.4 C 0 km/h
922 17-01-2009 16:22:50 4.4 C 5.42 g/m*3 4.4 C 0 km/h
923 17-01-2009 16:34:50 4.6 C 5.49 g/m*3 4.6 C 0 km/h
924 17-01-2009 16:46:50 5.1 C 5.61 g/m*3 5.1 C 0 km/h
925 17-01-2009 16:58:50 5.2 C 5.51 g/m*3 5.2 C 0 km/h
Sensor: Nr:Datum:Temp:Abs-Feuchte:Windchill:Wind:
Aussen-T/F 926 17-01-2009 17:10:50 5.1 C 5.47 g/m*3 5.1 C 0 km/h
927 17-01-2009 17:22:49 5 C 5.5 g/m*3 5 C 0 km/h
928 17-01-2009 17:34:49 5 C 5.5 g/m*3 5 C 0 km/h
929 17-01-2009 17:46:49 5 C 5.5 g/m*3 5 C 0 km/h
930 17-01-2009 17:58:49 5 C 5.57 g/m*3 5 C 0 km/h
931 17-01-2009 18:10:49 5 C 5.5 g/m*3 5 C 0 km/h
932 17-01-2009 18:22:49 5 C 5.44 g/m*3 5 C 0 km/h
933 17-01-2009 18:34:49 5.1 C 5.47 g/m*3 5.1 C 0 km/h
934 17-01-2009 18:46:49 5.2 C 5.44 g/m*3 5.2 C 0 km/h
935 17-01-2009 18:58:49 5.1 C 5.34 g/m*3 5.1 C 0 km/h
936 17-01-2009 19:10:48 5.2 C 5.44 g/m*3 5.2 C 0 km/h
937 17-01-2009 19:22:49 5.2 C 5.37 g/m*3 5.2 C 0 km/h
938 17-01-2009 19:34:48 5.2 C 5.37 g/m*3 5.2 C 0 km/h
939 17-01-2009 19:46:48 5.1 C 5.27 g/m*3 5.1 C 0 km/h
940 17-01-2009 19:58:49 5.1 C 5.34 g/m*3 5.1 C 0 km/h
941 17-01-2009 20:10:48 5.5 C 5.41 g/m*3 5.5 C 0 km/h
942 17-01-2009 20:22:48 5.6 C 5.37 g/m*3 5.6 C 0 km/h
943 17-01-2009 20:34:48 5.7 C 5.34 g/m*3 5.7 C 0 km/h
944 17-01-2009 20:46:48 5.6 C 5.3 g/m*3 5.6 C 0 km/h
945 17-01-2009 20:58:48 5.4 C 5.23 g/m*3 5.4 C 0 km/h
946 17-01-2009 21:10:47 5.4 C 5.23 g/m*3 5.4 C 0 km/h
947 17-01-2009 21:22:48 5.3 C 5.27 g/m*3 5.3 C 0 km/h
948 17-01-2009 21:34:47 5 C 5.16 g/m*3 5 C 0 km/h
949 17-01-2009 21:46:47 5.3 C 5.27 g/m*3 5.3 C 0 km/h
950 17-01-2009 21:58:47 5.7 C 5.34 g/m*3 5.7 C 0 km/h
Sensor: Nr:Datum:Temp:Abs-Feuchte:Windchill:Wind:
Aussen-T/F 951 17-01-2009 22:10:47 5.6 C 5.16 g/m*3 5.6 C 0 km/h
952 17-01-2009 22:22:47 5.7 C 5.19 g/m*3 5.7 C 0 km/h
953 17-01-2009 22:34:46 5.6 C 5.16 g/m*3 5.6 C 0 km/h
954 17-01-2009 22:47:47 5.4 C 5.09 g/m*3 5.4 C 0 km/h
955 17-01-2009 22:59:47 5.2 C 5.1 g/m*3 5.2 C 0 km/h
956 17-01-2009 23:11:47 5 C 5.1 g/m*3 5 C 0 km/h
957 17-01-2009 23:23:47 4.8 C 5.16 g/m*3 4.8 C 0 km/h
958 17-01-2009 23:35:47 4.6 C 5.16 g/m*3 4.6 C 0 km/h
959 17-01-2009 23:47:47 4.4 C 5.09 g/m*3 4.4 C 0 km/h
960 17-01-2009 23:59:47 4.4 C 5.22 g/m*3 4.4 C 0 km/h
961 18-01-2009 00:11:47 4.1 C 5.12 g/m*3 4.1 C 0 km/h
962 18-01-2009 00:23:47 3.7 C 5.05 g/m*3 3.7 C 0 km/h
963 18-01-2009 00:35:47 3.9 C 5.18 g/m*3 3.9 C 0 km/h
964 18-01-2009 00:47:47 3.9 C 5.12 g/m*3 3.9 C 0 km/h
965 18-01-2009 00:59:47 4.2 C 5.09 g/m*3 4.2 C 0 km/h
966 18-01-2009 01:11:47 4.1 C 4.99 g/m*3 4.1 C 0 km/h
967 18-01-2009 01:23:47 3.9 C 5.05 g/m*3 3.9 C 0 km/h
968 18-01-2009 01:35:47 3.8 C 5.02 g/m*3 3.8 C 0 km/h
969 18-01-2009 01:47:47 3.8 C 5.02 g/m*3 3.8 C 0 km/h
970 18-01-2009 01:59:47 4 C 5.15 g/m*3 4 C 0 km/h
971 18-01-2009 02:11:47 4.3 C 5.25 g/m*3 4.3 C 0 km/h
972 18-01-2009 02:23:48 4.6 C 5.36 g/m*3 4.6 C 0 km/h
973 18-01-2009 02:35:48 4.6 C 5.29 g/m*3 4.6 C 0 km/h
974 18-01-2009 02:47:48 4.5 C 5.19 g/m*3 4.5 C 0 km/h
975 18-01-2009 02:59:48 4.3 C 5.12 g/m*3 4.3 C 0 km/h
Sensor: Nr:Datum:Temp:Abs-Feuchte:Windchill:Wind:
Aussen-T/F 976 18-01-2009 03:11:48 4.2 C 5.09 g/m*3 4.2 C 0 km/h
977 18-01-2009 03:23:48 4.1 C 5.06 g/m*3 4.1 C 0 km/h
978 18-01-2009 03:35:48 4.2 C 5.09 g/m*3 4.2 C 0 km/h
979 18-01-2009 03:47:48 4.3 C 5.19 g/m*3 4.3 C 0 km/h
980 18-01-2009 03:59:48 4.3 C 5.19 g/m*3 4.3 C 0 km/h
981 18-01-2009 04:11:48 4.4 C 5.22 g/m*3 4.4 C 0 km/h
982 18-01-2009 04:23:48 4.4 C 5.29 g/m*3 4.4 C 0 km/h
983 18-01-2009 04:35:48 4.6 C 5.36 g/m*3 4.6 C 0 km/h
984 18-01-2009 04:47:48 4.8 C 5.36 g/m*3 4.8 C 0 km/h
985 18-01-2009 04:59:48 4.6 C 5.23 g/m*3 4.6 C 0 km/h
986 18-01-2009 05:11:48 4.4 C 5.16 g/m*3 4.4 C 0 km/h
987 18-01-2009 05:23:48 4.5 C 5.26 g/m*3 4.5 C 0 km/h
988 18-01-2009 05:35:48 4.4 C 5.16 g/m*3 4.4 C 0 km/h
989 18-01-2009 05:47:48 4.3 C 5.12 g/m*3 4.3 C 0 km/h
990 18-01-2009 05:59:48 4.3 C 5.12 g/m*3 4.3 C 0 km/h
991 18-01-2009 06:11:49 4.5 C 5.19 g/m*3 4.5 C 0 km/h
992 18-01-2009 06:23:49 4.5 C 5.06 g/m*3 4.5 C 0 km/h
993 18-01-2009 06:35:49 4.5 C 5 g/m*3 4.5 C 0 km/h
994 18-01-2009 06:47:49 4.5 C 5 g/m*3 4.5 C 0 km/h
995 18-01-2009 06:59:49 4.4 C 4.9 g/m*3 4.4 C 0 km/h
996 18-01-2009 07:11:49 4.5 C 4.93 g/m*3 4.5 C 0 km/h
997 18-01-2009 07:23:49 4.5 C 4.86 g/m*3 4.5 C 0 km/h
998 18-01-2009 07:35:49 4.5 C 4.86 g/m*3 4.5 C 0 km/h
999 18-01-2009 07:47:49 4.7 C 4.93 g/m*3 4.7 C 0 km/h
1000 18-01-2009 07:59:49 4.5 C 4.86 g/m*3 4.5 C 0 km/h
Sensor: Nr:Datum:Temp:Abs-Feuchte:Windchill:Wind:
Aussen-T/F 1001 18-01-2009 08:11:49 4.5 C 5 g/m*3 4.5 C 0 km/h
1002 18-01-2009 08:23:49 4.5 C 5 g/m*3 4.5 C 0 km/h
1003 18-01-2009 08:35:49 4.5 C 5.13 g/m*3 4.5 C 0 km/h
1004 18-01-2009 08:47:49 4.4 C 5.16 g/m*3 4.4 C 0 km/h
1005 18-01-2009 08:59:49 4.5 C 5.32 g/m*3 4.5 C 0 km/h
1006 18-01-2009 09:11:47 4.4 C 5.42 g/m*3 4.4 C 0 km/h
1007 18-01-2009 09:23:47 4.3 C 5.51 g/m*3 4.3 C 0 km/h
1008 18-01-2009 09:35:46 4.3 C 5.64 g/m*3 4.3 C 0 km/h
1009 18-01-2009 09:47:47 4.1 C 5.57 g/m*3 4.1 C 0 km/h
1010 18-01-2009 09:59:47 3.9 C 5.62 g/m*3 3.9 C 0 km/h
1011 18-01-2009 10:11:46 3.5 C 5.47 g/m*3 3.5 C 0 km/h
1012 18-01-2009 10:23:46 3.3 C 5.4 g/m*3 3.3 C 0 km/h
1013 18-01-2009 10:35:46 3.4 C 5.44 g/m*3 3.4 C 0 km/h
1014 18-01-2009 10:47:46 3.6 C 5.57 g/m*3 3.6 C 0 km/h
1015 18-01-2009 10:59:46 3.9 C 5.68 g/m*3 3.9 C 0 km/h
1016 18-01-2009 11:11:46 4 C 5.59 g/m*3 4 C 0 km/h
1017 18-01-2009 11:23:46 4.2 C 5.54 g/m*3 4.2 C 0 km/h
1018 18-01-2009 11:35:46 4.5 C 5.52 g/m*3 4.5 C 0 km/h
1019 18-01-2009 11:47:45 4.5 C 5.39 g/m*3 4.5 C 0 km/h
1020 18-01-2009 11:59:45 4.5 C 5.46 g/m*3 4.5 C 0 km/h
1021 18-01-2009 12:11:46 4.7 C 5.6 g/m*3 4.7 C 0 km/h
1022 18-01-2009 12:23:45 5 C 5.64 g/m*3 5 C 0 km/h
1023 18-01-2009 12:35:45 5.3 C 5.68 g/m*3 5.3 C 0 km/h
1024 18-01-2009 12:47:44 5.8 C 5.66 g/m*3 5.8 C 0 km/h
1025 18-01-2009 12:59:44 6.2 C 5.52 g/m*3 6.2 C 0 km/h
Sensor: Nr:Datum:Temp:Abs-Feuchte:Windchill:Wind:
Aussen-T/F 1026 18-01-2009 13:11:45 6.2 C 5.52 g/m*3 6.2 C 0 km/h
1027 18-01-2009 13:23:44 6.2 C 5.44 g/m*3 6.2 C 0 km/h
1028 18-01-2009 13:35:44 6.3 C 5.48 g/m*3 6.3 C 0 km/h
1029 18-01-2009 13:47:44 6.4 C 5.44 g/m*3 6.4 C 0 km/h
1030 18-01-2009 13:59:44 6.4 C 5.44 g/m*3 6.4 C 0 km/h
1031 18-01-2009 14:11:44 6.2 C 5.37 g/m*3 6.2 C 0 km/h
1032 18-01-2009 14:23:43 6.2 C 5.37 g/m*3 6.2 C 0 km/h
1033 18-01-2009 14:35:44 6.2 C 5.29 g/m*3 6.2 C 0 km/h
1034 18-01-2009 14:47:44 6.2 C 5.15 g/m*3 6.2 C 0 km/h
1035 18-01-2009 14:59:44 6.1 C 5.11 g/m*3 6.1 C 0 km/h
1036 18-01-2009 15:11:43 6.2 C 5.15 g/m*3 6.2 C 0 km/h
1037 18-01-2009 15:23:44 6.6 C 5.13 g/m*3 6.6 C 0 km/h
1038 18-01-2009 15:35:43 6.5 C 5.1 g/m*3 6.5 C 0 km/h
1039 18-01-2009 15:47:43 6.2 C 5.15 g/m*3 6.2 C 0 km/h
1040 18-01-2009 15:59:43 6 C 5.23 g/m*3 6 C 0 km/h
1041 18-01-2009 16:11:43 5.7 C 5.34 g/m*3 5.7 C 0 km/h
1042 18-01-2009 16:23:43 5.6 C 5.3 g/m*3 5.6 C 0 km/h
1043 18-01-2009 16:35:43 5.4 C 5.16 g/m*3 5.4 C 0 km/h
1044 18-01-2009 16:47:42 5.4 C 5.16 g/m*3 5.4 C 0 km/h
1045 18-01-2009 16:59:42 5.2 C 5.1 g/m*3 5.2 C 0 km/h
1046 18-01-2009 17:11:43 5.3 C 4.99 g/m*3 5.3 C 0 km/h
1047 18-01-2009 17:23:42 5.4 C 4.95 g/m*3 5.4 C 0 km/h
1048 18-01-2009 17:35:42 5.3 C 4.92 g/m*3 5.3 C 0 km/h
1049 18-01-2009 17:47:42 4.6 C 5.1 g/m*3 4.6 C 0 km/h
1050 18-01-2009 17:59:42 4.4 C 5.16 g/m*3 4.4 C 0 km/h
Sensor: Nr:Datum:Temp:Abs-Feuchte:Windchill:Wind:
Aussen-T/F 1051 18-01-2009 18:11:42 4.3 C 5.19 g/m*3 4.3 C 0 km/h
1052 18-01-2009 18:23:41 4.3 C 5.12 g/m*3 4.3 C 0 km/h
1053 18-01-2009 18:35:41 4.3 C 4.99 g/m*3 4.3 C 0 km/h
1054 18-01-2009 18:47:41 4.4 C 5.03 g/m*3 4.4 C 0 km/h
1055 18-01-2009 18:59:41 4.5 C 4.93 g/m*3 4.5 C 0 km/h
1056 18-01-2009 19:11:41 4.4 C 4.77 g/m*3 4.4 C 0 km/h
1057 18-01-2009 19:23:41 4.4 C 4.77 g/m*3 4.4 C 0 km/h
1058 18-01-2009 19:35:41 4.2 C 4.7 g/m*3 4.2 C 0 km/h
1059 18-01-2009 19:47:41 4.3 C 4.67 g/m*3 4.3 C 0 km/h
1060 18-01-2009 19:59:41 4.2 C 4.64 g/m*3 4.2 C 0 km/h
1061 18-01-2009 20:11:40 4 C 4.58 g/m*3 4 C 0 km/h
1062 18-01-2009 20:23:41 3.9 C 4.67 g/m*3 3.9 C 0 km/h
1063 18-01-2009 20:35:40 3.8 C 4.64 g/m*3 3.8 C 0 km/h
1064 18-01-2009 20:47:40 3.8 C 4.71 g/m*3 3.8 C 0 km/h
1065 18-01-2009 20:59:41 3.6 C 4.58 g/m*3 3.6 C 0 km/h
1066 18-01-2009 21:11:40 3.3 C 4.55 g/m*3 3.3 C 0 km/h
1067 18-01-2009 21:23:40 3.4 C 4.58 g/m*3 3.4 C 0 km/h
1068 18-01-2009 21:35:40 3.5 C 4.61 g/m*3 3.5 C 0 km/h
1069 18-01-2009 21:47:39 3.8 C 4.64 g/m*3 3.8 C 0 km/h
1070 18-01-2009 21:59:39 3.9 C 4.61 g/m*3 3.9 C 0 km/h
1071 18-01-2009 22:11:40 3.4 C 4.46 g/m*3 3.4 C 0 km/h
1072 18-01-2009 22:23:39 3.3 C 4.55 g/m*3 3.3 C 0 km/h
1073 18-01-2009 22:35:39 3 C 4.52 g/m*3 3 C 0 km/h
1074 18-01-2009 22:48:01 2.9 C 4.55 g/m*3 2.9 C 0 km/h
1075 18-01-2009 23:00:01 2.9 C 4.55 g/m*3 2.9 C 0 km/h
Sensor: Nr:Datum:Temp:Abs-Feuchte:Windchill:Wind:
Aussen-T/F 1076 18-01-2009 23:12:01 3.1 C 4.55 g/m*3 3.1 C 0 km/h
1077 18-01-2009 23:24:01 3.2 C 4.58 g/m*3 3.2 C 0 km/h
1078 18-01-2009 23:36:01 3.1 C 4.55 g/m*3 3.1 C 0 km/h
1079 18-01-2009 23:48:01 2.8 C 4.52 g/m*3 2.8 C 0 km/h
1080 19-01-2009 00:00:01 2.4 C 4.45 g/m*3 2.4 C 0 km/h
1081 19-01-2009 00:12:01 2.6 C 4.57 g/m*3 2.6 C 0 km/h
1082 19-01-2009 00:24:02 2.6 C 4.51 g/m*3 2.6 C 0 km/h
1083 19-01-2009 00:36:02 3 C 4.52 g/m*3 3 C 0 km/h
1084 19-01-2009 00:48:02 3.1 C 4.43 g/m*3 3.1 C 0 km/h
1085 19-01-2009 01:00:02 3.3 C 4.43 g/m*3 3.3 C 0 km/h
1086 19-01-2009 01:12:02 3.4 C 4.4 g/m*3 3.4 C 0 km/h
1087 19-01-2009 01:24:02 3.3 C 4.37 g/m*3 3.3 C 0 km/h
1088 19-01-2009 01:36:02 3.4 C 4.34 g/m*3 3.4 C 0 km/h
1089 19-01-2009 01:48:02 3.6 C 4.27 g/m*3 3.6 C 0 km/h
1090 19-01-2009 02:00:02 3.4 C 4.21 g/m*3 3.4 C 0 km/h
1091 19-01-2009 02:12:02 3.4 C 4.28 g/m*3 3.4 C 0 km/h
1092 19-01-2009 02:24:02 3.6 C 4.27 g/m*3 3.6 C 0 km/h
1093 19-01-2009 02:36:02 3.5 C 4.24 g/m*3 3.5 C 0 km/h
1094 19-01-2009 02:48:02 3.4 C 4.21 g/m*3 3.4 C 0 km/h
1095 19-01-2009 03:00:02 3.3 C 4.31 g/m*3 3.3 C 0 km/h
1096 19-01-2009 03:12:02 3.2 C 4.34 g/m*3 3.2 C 0 km/h
1097 19-01-2009 03:24:02 3.2 C 4.4 g/m*3 3.2 C 0 km/h
1098 19-01-2009 03:36:02 3.3 C 4.49 g/m*3 3.3 C 0 km/h
1099 19-01-2009 03:48:02 3.4 C 4.52 g/m*3 3.4 C 0 km/h
1100 19-01-2009 04:00:02 3.4 C 4.52 g/m*3 3.4 C 0 km/h
Sensor: Nr:Datum:Temp:Abs-Feuchte:Windchill:Wind:
Aussen-T/F 1101 19-01-2009 04:12:03 3.4 C 4.46 g/m*3 3.4 C 0 km/h
1102 19-01-2009 04:24:03 3.4 C 4.46 g/m*3 3.4 C 0 km/h
1103 19-01-2009 04:36:03 3.3 C 4.43 g/m*3 3.3 C 0 km/h
1104 19-01-2009 04:48:03 3.4 C 4.46 g/m*3 3.4 C 0 km/h
1105 19-01-2009 05:00:03 3.5 C 4.49 g/m*3 3.5 C 0 km/h
1106 19-01-2009 05:12:03 3.5 C 4.49 g/m*3 3.5 C 0 km/h
1107 19-01-2009 05:24:03 3.5 C 4.55 g/m*3 3.5 C 0 km/h
1108 19-01-2009 05:36:03 3.5 C 4.49 g/m*3 3.5 C 0 km/h
1109 19-01-2009 05:48:03 3.4 C 4.46 g/m*3 3.4 C 0 km/h
1110 19-01-2009 06:00:03 3.2 C 4.46 g/m*3 3.2 C 0 km/h
1111 19-01-2009 06:12:03 2.8 C 4.4 g/m*3 2.8 C 0 km/h
1112 19-01-2009 06:24:03 2.7 C 4.49 g/m*3 2.7 C 0 km/h
1113 19-01-2009 06:36:03 2.6 C 4.46 g/m*3 2.6 C 0 km/h
1114 19-01-2009 06:48:03 2.7 C 4.54 g/m*3 2.7 C 0 km/h
1115 19-01-2009 07:00:03 2.9 C 4.67 g/m*3 2.9 C 0 km/h
1116 19-01-2009 07:12:03 2.8 C 4.63 g/m*3 2.8 C 0 km/h
1117 19-01-2009 07:24:03 2.8 C 4.69 g/m*3 2.8 C 0 km/h
1118 19-01-2009 07:36:03 2.9 C 4.78 g/m*3 2.9 C 0 km/h
1119 19-01-2009 07:48:03 3.2 C 4.88 g/m*3 3.2 C 0 km/h
1120 19-01-2009 08:00:03 3.2 C 4.82 g/m*3 3.2 C 0 km/h
1121 19-01-2009 08:12:01 3.4 C 4.95 g/m*3 3.4 C 0 km/h
1122 19-01-2009 08:24:01 3.4 C 4.89 g/m*3 3.4 C 0 km/h
1123 19-01-2009 08:36:00 3.5 C 4.98 g/m*3 3.5 C 0 km/h
1124 19-01-2009 08:48:01 3.7 C 4.99 g/m*3 3.7 C 0 km/h
1125 19-01-2009 09:00:01 3.9 C 4.99 g/m*3 3.9 C 0 km/h
Sensor: Nr:Datum:Temp:Abs-Feuchte:Windchill:Wind:
Aussen-T/F 1126 19-01-2009 09:12:01 3.9 C 4.99 g/m*3 3.9 C 0 km/h
1127 19-01-2009 09:24:01 4 C 4.9 g/m*3 4 C 0 km/h
1128 19-01-2009 09:36:00 3.8 C 4.96 g/m*3 3.8 C 0 km/h
1129 19-01-2009 09:48:00 3.6 C 5.01 g/m*3 3.6 C 0 km/h
1130 19-01-2009 10:00:00 3.6 C 5.14 g/m*3 3.6 C 0 km/h
1131 19-01-2009 10:12:00 3.4 C 5.13 g/m*3 3.4 C 0 km/h
1132 19-01-2009 10:24:00 3.3 C 5.22 g/m*3 3.3 C 0 km/h
1133 19-01-2009 10:36:59 3.3 C 5.22 g/m*3 3.3 C 0 km/h
1134 19-01-2009 10:48:00 3.3 C 5.28 g/m*3 3.3 C 0 km/h
1135 19-01-2009 11:00:01 3.3 C 5.28 g/m*3 3.3 C 0 km/h
1136 19-01-2009 11:12:59 3.3 C 5.28 g/m*3 3.3 C 0 km/h
1137 19-01-2009 11:24:59 3.4 C 5.31 g/m*3 3.4 C 0 km/h
1138 19-01-2009 11:36:00 3.4 C 5.31 g/m*3 3.4 C 0 km/h
1139 19-01-2009 11:48:59 3.5 C 5.35 g/m*3 3.5 C 0 km/h
1140 19-01-2009 12:00:59 3.6 C 5.39 g/m*3 3.6 C 0 km/h
1141 19-01-2009 12:12:59 3.6 C 5.45 g/m*3 3.6 C 0 km/h
1142 19-01-2009 12:24:59 3.7 C 5.48 g/m*3 3.7 C 0 km/h
1143 19-01-2009 12:36:59 4.2 C 5.67 g/m*3 4.2 C 0 km/h
1144 19-01-2009 12:48:58 4.5 C 5.78 g/m*3 4.5 C 0 km/h
1145 19-01-2009 13:00:58 4.5 C 5.72 g/m*3 4.5 C 0 km/h
1146 19-01-2009 13:12:59 4.5 C 5.72 g/m*3 4.5 C 0 km/h
1147 19-01-2009 13:24:58 4.5 C 5.72 g/m*3 4.5 C 0 km/h
1148 19-01-2009 13:36:58 4.7 C 5.86 g/m*3 4.7 C 0 km/h
1149 19-01-2009 13:48:57 5.2 C 6.06 g/m*3 5.2 C 0 km/h
1150 19-01-2009 14:00:58 5.5 C 6.18 g/m*3 5.5 C 0 km/h
Sensor: Nr:Datum:Temp:Abs-Feuchte:Windchill:Wind:
Aussen-T/F 1151 19-01-2009 14:12:58 5.8 C 6.3 g/m*3 5.8 C 0 km/h
1152 19-01-2009 14:24:58 6.2 C 6.47 g/m*3 6.2 C 0 km/h
1153 19-01-2009 14:36:57 6.6 C 6.64 g/m*3 6.6 C 0 km/h
1154 19-01-2009 14:48:58 7 C 6.82 g/m*3 7 C 0 km/h
1155 19-01-2009 15:00:57 7.3 C 6.95 g/m*3 7.3 C 0 km/h
1156 19-01-2009 15:12:57 8.1 C 7.24 g/m*3 8.1 C 0 km/h
1157 19-01-2009 15:24:57 8.4 C 7.04 g/m*3 8.4 C 0 km/h
1158 19-01-2009 15:36:56 8.6 C 6.87 g/m*3 8.6 C 0 km/h
1159 19-01-2009 15:48:57 8.9 C 6.75 g/m*3 8.9 C 0 km/h
1160 19-01-2009 16:00:57 9.1 C 6.48 g/m*3 9.1 C 0 km/h
1161 19-01-2009 16:12:57 9.1 C 6.39 g/m*3 9.1 C 0 km/h
1162 19-01-2009 16:24:56 9.2 C 6.25 g/m*3 9.2 C 0 km/h
1163 19-01-2009 16:36:57 9.3 C 6.11 g/m*3 9.3 C 0 km/h
1164 19-01-2009 16:48:56 9.3 C 5.93 g/m*3 9.3 C 0 km/h
1165 19-01-2009 17:00:56 9.4 C 5.88 g/m*3 9.4 C 0 km/h
1166 19-01-2009 17:12:56 9.3 C 5.84 g/m*3 9.3 C 0 km/h
1167 19-01-2009 17:24:56 9 C 5.82 g/m*3 9 C 0 km/h
1168 19-01-2009 17:36:02 9 C 5.82 g/m*3 9 C 0 km/h
1169 19-01-2009 17:48:02 8.7 C 5.71 g/m*3 8.7 C 0 km/h
1170 19-01-2009 18:00:02 8.2 C 5.61 g/m*3 8.2 C 0 km/h
1171 19-01-2009 18:12:02 8.3 C 5.65 g/m*3 8.3 C 0 km/h
1172 19-01-2009 18:24:01 8.4 C 5.51 g/m*3 8.4 C 0 km/h
1173 19-01-2009 18:36:02 8.2 C 5.44 g/m*3 8.2 C 0 km/h
1174 19-01-2009 18:48:01 8.2 C 5.44 g/m*3 8.2 C 0 km/h
1175 19-01-2009 19:00:01 8 C 5.46 g/m*3 8 C 0 km/h
Sensor: Nr:Datum:Temp:Abs-Feuchte:Windchill:Wind:
Aussen-T/F 1176 19-01-2009 19:12:01 7.8 C 5.47 g/m*3 7.8 C 0 km/h
1177 19-01-2009 19:24:01 7.8 C 5.47 g/m*3 7.8 C 0 km/h
1178 19-01-2009 19:36:01 8.2 C 5.44 g/m*3 8.2 C 0 km/h
1179 19-01-2009 19:48:02 8.2 C 5.36 g/m*3 8.2 C 0 km/h
1180 19-01-2009 20:00:02 8.6 C 5.41 g/m*3 8.6 C 0 km/h
1181 19-01-2009 20:12:02 8.6 C 5.41 g/m*3 8.6 C 0 km/h
1182 19-01-2009 20:24:01 8.6 C 5.5 g/m*3 8.6 C 0 km/h
1183 19-01-2009 20:36:01 8.6 C 5.41 g/m*3 8.6 C 0 km/h
1184 19-01-2009 20:48:01 8.9 C 5.52 g/m*3 8.9 C 0 km/h
1185 19-01-2009 21:00:01 9.4 C 5.43 g/m*3 9.4 C 0 km/h
1186 19-01-2009 21:12:01 9.3 C 5.39 g/m*3 9.3 C 0 km/h
1187 19-01-2009 21:24:01 8.9 C 5.43 g/m*3 8.9 C 0 km/h
1188 19-01-2009 21:36:01 8.7 C 5.1 g/m*3 8.7 C 0 km/h
1189 19-01-2009 21:48:00 8.6 C 5.16 g/m*3 8.6 C 0 km/h
1190 19-01-2009 22:00:00 8.4 C 5.09 g/m*3 8.4 C 0 km/h
1191 19-01-2009 22:12:01 8.3 C 5.14 g/m*3 8.3 C 0 km/h
1192 19-01-2009 22:24:01 8.3 C 5.14 g/m*3 8.3 C 0 km/h
1193 19-01-2009 22:36:00 8.2 C 5.19 g/m*3 8.2 C 0 km/h
1194 19-01-2009 22:48:01 8.2 C 5.19 g/m*3 8.2 C 0 km/h
1195 19-01-2009 23:00:01 8.3 C 5.23 g/m*3 8.3 C 0 km/h
1196 19-01-2009 23:12:00 8.1 C 5.16 g/m*3 8.1 C 0 km/h
1197 19-01-2009 23:24:00 8.1 C 5.24 g/m*3 8.1 C 0 km/h
1198 19-01-2009 23:36:59 8 C 5.21 g/m*3 8 C 0 km/h
1199 19-01-2009 23:48:00 7.2 C 4.95 g/m*3 7.2 C 0 km/h
1200 20-01-2009 00:00:01 6.2 C 5.22 g/m*3 6.2 C 0 km/h
Sensor: Nr:Datum:Temp:Abs-Feuchte:Windchill:Wind:
Aussen-T/F 1201 20-01-2009 00:12:59 5.7 C 5.41 g/m*3 5.7 C 0 km/h
1202 20-01-2009 00:24:00 5.4 C 5.44 g/m*3 5.4 C 0 km/h
1203 20-01-2009 00:36:59 5.2 C 5.44 g/m*3 5.2 C 0 km/h
1204 20-01-2009 00:48:59 5.2 C 5.51 g/m*3 5.2 C 0 km/h
1205 20-01-2009 01:00:59 5.1 C 5.47 g/m*3 5.1 C 0 km/h
1206 20-01-2009 01:12:59 5 C 5.23 g/m*3 5 C 0 km/h
1207 20-01-2009 01:24:59 5 C 4.89 g/m*3 5 C 0 km/h
1208 20-01-2009 01:36:59 5.1 C 4.65 g/m*3 5.1 C 0 km/h
1209 20-01-2009 01:48:59 4.9 C 4.46 g/m*3 4.9 C 0 km/h
1210 20-01-2009 02:00:59 5.2 C 4.34 g/m*3 5.2 C 0 km/h
1211 20-01-2009 02:12:59 5.4 C 4.33 g/m*3 5.4 C 0 km/h
1212 20-01-2009 02:24:58 5.4 C 4.26 g/m*3 5.4 C 0 km/h
1213 20-01-2009 02:36:58 5.3 C 4.23 g/m*3 5.3 C 0 km/h
1214 20-01-2009 02:49:59 5.4 C 4.19 g/m*3 5.4 C 0 km/h
1215 20-01-2009 03:01:59 5.5 C 4.21 g/m*3 5.5 C 0 km/h
1216 20-01-2009 03:12:59 5.5 C 4.21 g/m*3 5.5 C 0 km/h
1217 20-01-2009 03:24:59 5.3 C 4.16 g/m*3 5.3 C 0 km/h
1218 20-01-2009 03:37:59 5.1 C 4.17 g/m*3 5.1 C 0 km/h
1219 20-01-2009 03:49:59 4.7 C 4.2 g/m*3 4.7 C 0 km/h
1220 20-01-2009 04:01:59 5 C 4.28 g/m*3 5 C 0 km/h
1221 20-01-2009 04:13:59 5.2 C 4.48 g/m*3 5.2 C 0 km/h
1222 20-01-2009 04:25:58 3.9 C 4.67 g/m*3 3.9 C 0 km/h
1223 20-01-2009 04:37:59 3.5 C 4.86 g/m*3 3.5 C 0 km/h
1224 20-01-2009 04:49:58 3.3 C 4.91 g/m*3 3.3 C 0 km/h
1225 20-01-2009 05:01:58 3.1 C 4.97 g/m*3 3.1 C 0 km/h
Sensor: Nr:Datum:Temp:Abs-Feuchte:Windchill:Wind:
Aussen-T/F 1226 20-01-2009 05:13:58 3 C 4.99 g/m*3 3 C 0 km/h
1227 20-01-2009 05:25:58 2.9 C 4.96 g/m*3 2.9 C 0 km/h
1228 20-01-2009 05:37:58 2.9 C 4.96 g/m*3 2.9 C 0 km/h
1229 20-01-2009 05:49:58 2.8 C 4.87 g/m*3 2.8 C 0 km/h
1230 20-01-2009 06:01:57 2.7 C 4.84 g/m*3 2.7 C 0 km/h
1231 20-01-2009 06:13:57 2.7 C 4.78 g/m*3 2.7 C 0 km/h
1232 20-01-2009 06:25:58 2.5 C 4.6 g/m*3 2.5 C 0 km/h
1233 20-01-2009 06:37:57 2.1 C 4.48 g/m*3 2.1 C 0 km/h
1234 20-01-2009 06:49:57 2.5 C 4.66 g/m*3 2.5 C 0 km/h
1235 20-01-2009 07:01:57 2.6 C 4.63 g/m*3 2.6 C 0 km/h
1236 20-01-2009 07:13:57 2.8 C 4.63 g/m*3 2.8 C 0 km/h
1237 20-01-2009 07:25:57 2.6 C 4.51 g/m*3 2.6 C 0 km/h
1238 20-01-2009 07:37:57 2.4 C 4.51 g/m*3 2.4 C 0 km/h
1239 20-01-2009 07:49:57 2.4 C 4.45 g/m*3 2.4 C 0 km/h
1240 20-01-2009 08:01:57 2.6 C 4.46 g/m*3 2.6 C 0 km/h
1241 20-01-2009 08:13:57 2.6 C 4.34 g/m*3 2.6 C 0 km/h
1242 20-01-2009 08:25:56 2.7 C 4.2 g/m*3 2.7 C 0 km/h
1243 20-01-2009 08:37:56 2.9 C 4.07 g/m*3 2.9 C 0 km/h
1244 20-01-2009 08:49:56 2.9 C 4.02 g/m*3 2.9 C 0 km/h
1245 20-01-2009 09:01:56 3 C 4.04 g/m*3 3 C 0 km/h
1246 20-01-2009 09:13:56 3.1 C 3.95 g/m*3 3.1 C 0 km/h
1247 20-01-2009 09:25:55 3.1 C 3.83 g/m*3 3.1 C 0 km/h
1248 20-01-2009 09:37:56 3.1 C 3.89 g/m*3 3.1 C 0 km/h
1249 20-01-2009 09:49:55 3.1 C 3.89 g/m*3 3.1 C 0 km/h
1250 20-01-2009 10:01:55 3.2 C 3.92 g/m*3 3.2 C 0 km/h
Sensor: Nr:Datum:Temp:Abs-Feuchte:Windchill:Wind:
Aussen-T/F 1251 20-01-2009 10:13:55 3.2 C 3.86 g/m*3 3.2 C 0 km/h
1252 20-01-2009 10:25:55 3.3 C 3.82 g/m*3 3.3 C 0 km/h
1253 20-01-2009 10:37:55 3.5 C 3.75 g/m*3 3.5 C 0 km/h
1254 20-01-2009 10:49:55 3.5 C 3.75 g/m*3 3.5 C 0 km/h
1255 20-01-2009 11:01:55 3.6 C 3.84 g/m*3 3.6 C 0 km/h
1256 20-01-2009 11:13:55 3.7 C 3.86 g/m*3 3.7 C 0 km/h
1257 20-01-2009 11:25:55 3.7 C 3.86 g/m*3 3.7 C 0 km/h
1258 20-01-2009 11:37:54 3.8 C 3.83 g/m*3 3.8 C 0 km/h
1259 20-01-2009 11:49:54 4 C 3.81 g/m*3 4 C 0 km/h
1260 20-01-2009 12:01:54 4.2 C 3.87 g/m*3 4.2 C 0 km/h
1261 20-01-2009 12:13:54 4.3 C 3.89 g/m*3 4.3 C 0 km/h
1262 20-01-2009 12:25:54 4.3 C 3.89 g/m*3 4.3 C 0 km/h
1263 20-01-2009 12:37:54 4.4 C 3.92 g/m*3 4.4 C 0 km/h
1264 20-01-2009 12:49:54 4.5 C 3.94 g/m*3 4.5 C 0 km/h
1265 20-01-2009 13:01:54 4.7 C 3.93 g/m*3 4.7 C 0 km/h
1266 20-01-2009 13:13:54 4.8 C 3.96 g/m*3 4.8 C 0 km/h
1267 20-01-2009 13:25:53 5.2 C 3.86 g/m*3 5.2 C 0 km/h
1268 20-01-2009 13:37:54 5.2 C 3.79 g/m*3 5.2 C 0 km/h
1269 20-01-2009 13:49:53 5.2 C 3.79 g/m*3 5.2 C 0 km/h
1270 20-01-2009 14:01:53 5.3 C 3.81 g/m*3 5.3 C 0 km/h
1271 20-01-2009 14:13:53 5.4 C 3.84 g/m*3 5.4 C 0 km/h
1272 20-01-2009 14:25:52 5.6 C 3.82 g/m*3 5.6 C 0 km/h
1273 20-01-2009 14:37:53 5.8 C 3.94 g/m*3 5.8 C 0 km/h
1274 20-01-2009 14:49:52 5.7 C 3.77 g/m*3 5.7 C 0 km/h
1275 20-01-2009 15:01:52 5.5 C 3.79 g/m*3 5.5 C 0 km/h
Sensor: Nr:Datum:Temp:Abs-Feuchte:Windchill:Wind:
Aussen-T/F 1276 20-01-2009 15:13:52 5.7 C 3.91 g/m*3 5.7 C 0 km/h
1277 20-01-2009 15:25:53 5.8 C 3.87 g/m*3 5.8 C 0 km/h
1278 20-01-2009 15:37:52 5.7 C 3.84 g/m*3 5.7 C 0 km/h
1279 20-01-2009 15:49:52 5.6 C 3.89 g/m*3 5.6 C 0 km/h
1280 20-01-2009 16:01:52 5.5 C 3.93 g/m*3 5.5 C 0 km/h
1281 20-01-2009 16:13:52 5.5 C 3.93 g/m*3 5.5 C 0 km/h
1282 20-01-2009 16:25:52 5.4 C 3.91 g/m*3 5.4 C 0 km/h
1283 20-01-2009 16:37:51 5.3 C 3.95 g/m*3 5.3 C 0 km/h
1284 20-01-2009 16:49:52 5.1 C 3.83 g/m*3 5.1 C 0 km/h
1285 20-01-2009 17:01:52 5 C 3.74 g/m*3 5 C 0 km/h
1286 20-01-2009 17:13:52 4.8 C 3.82 g/m*3 4.8 C 0 km/h
1287 20-01-2009 17:25:51 4.6 C 3.84 g/m*3 4.6 C 0 km/h
1288 20-01-2009 17:37:51 4.6 C 3.71 g/m*3 4.6 C 0 km/h
1289 20-01-2009 17:49:51 4.6 C 3.71 g/m*3 4.6 C 0 km/h
1290 20-01-2009 18:01:51 4.4 C 3.72 g/m*3 4.4 C 0 km/h
1291 20-01-2009 18:13:51 4.3 C 3.83 g/m*3 4.3 C 0 km/h
1292 20-01-2009 18:25:50 4 C 3.88 g/m*3 4 C 0 km/h
1293 20-01-2009 18:37:51 3.8 C 3.89 g/m*3 3.8 C 0 km/h
1294 20-01-2009 18:49:50 3.6 C 3.9 g/m*3 3.6 C 0 km/h
1295 20-01-2009 19:01:50 3.4 C 3.91 g/m*3 3.4 C 0 km/h
1296 20-01-2009 19:13:50 3.1 C 3.95 g/m*3 3.1 C 0 km/h
1297 20-01-2009 19:25:50 3 C 3.92 g/m*3 3 C 0 km/h
1298 20-01-2009 19:37:50 2.9 C 3.96 g/m*3 2.9 C 0 km/h
1299 20-01-2009 19:49:49 3 C 3.98 g/m*3 3 C 0 km/h
1300 20-01-2009 20:01:50 2.9 C 4.02 g/m*3 2.9 C 0 km/h
Sensor: Nr:Datum:Temp:Abs-Feuchte:Windchill:Wind:
Aussen-T/F 1301 20-01-2009 20:13:50 2.5 C 3.97 g/m*3 2.5 C 0 km/h
1302 20-01-2009 20:25:50 2.1 C 3.86 g/m*3 2.1 C 0 km/h
1303 20-01-2009 20:37:49 1.8 C 3.84 g/m*3 1.8 C 0 km/h
1304 20-01-2009 20:49:50 1.6 C 3.84 g/m*3 1.6 C 0 km/h
1305 20-01-2009 21:01:49 1.4 C 3.89 g/m*3 1.4 C 0 km/h
1306 20-01-2009 21:13:49 1.3 C 3.87 g/m*3 1.3 C 0 km/h
1307 20-01-2009 21:25:49 1.3 C 3.97 g/m*3 1.3 C 0 km/h
1308 20-01-2009 21:37:49 1.3 C 4.03 g/m*3 1.3 C 0 km/h
1309 20-01-2009 21:49:49 1.1 C 3.97 g/m*3 1.1 C 0 km/h
1310 20-01-2009 22:01:48 0.7 C 3.97 g/m*3 0.7 C 0 km/h
1311 20-01-2009 22:13:48 0.6 C 3.94 g/m*3 0.6 C 0 km/h
1312 20-01-2009 22:25:48 0.6 C 4.04 g/m*3 0.6 C 0 km/h
1313 20-01-2009 22:37:48 0.4 C 3.98 g/m*3 0.4 C 0 km/h
1314 20-01-2009 22:49:48 0.2 C 3.93 g/m*3 0.2 C 0 km/h
1315 20-01-2009 23:01:48 -0.1 C 3.9 g/m*3 -0.1 C 0 km/h
1316 20-01-2009 23:13:48 -0.2 C 3.87 g/m*3 -0.2 C 0 km/h
1317 20-01-2009 23:25:48 -0.3 C 3.89 g/m*3 -0.3 C 0 km/h
1318 20-01-2009 23:37:48 -0.6 C 3.81 g/m*3 -0.6 C 0 km/h
1319 20-01-2009 23:49:47 -0.8 C 3.76 g/m*3 -0.8 C 0 km/h
1320 21-01-2009 00:01:48 -1 C 3.71 g/m*3 -1 C 0 km/h
1321 21-01-2009 00:13:48 -1 C 3.75 g/m*3 -1 C 0 km/h
1322 21-01-2009 00:25:47 -1.1 C 3.73 g/m*3 -1.1 C 0 km/h
1323 21-01-2009 00:37:47 -1.4 C 3.65 g/m*3 -1.4 C 0 km/h
1324 21-01-2009 00:49:47 -1.4 C 3.65 g/m*3 -1.4 C 0 km/h
1325 21-01-2009 01:01:47 -1.6 C 3.64 g/m*3 -1.6 C 0 km/h
Sensor: Nr:Datum:Temp:Abs-Feuchte:Windchill:Wind:
Aussen-T/F 1326 21-01-2009 01:13:47 -1.6 C 3.68 g/m*3 -1.6 C 0 km/h
1327 21-01-2009 01:25:46 -1.5 C 3.71 g/m*3 -1.5 C 0 km/h
1328 21-01-2009 01:37:47 -1.6 C 3.68 g/m*3 -1.6 C 0 km/h
1329 21-01-2009 01:49:46 -1.7 C 3.66 g/m*3 -1.7 C 0 km/h
1330 21-01-2009 02:01:46 -1.7 C 3.7 g/m*3 -1.7 C 0 km/h
1331 21-01-2009 02:13:46 -1.8 C 3.72 g/m*3 -1.8 C 0 km/h
1332 21-01-2009 02:25:46 -1.9 C 3.69 g/m*3 -1.9 C 0 km/h
1333 21-01-2009 02:37:46 -1.8 C 3.72 g/m*3 -1.8 C 0 km/h
1334 21-01-2009 02:50:02 -1.9 C 3.69 g/m*3 -1.9 C 0 km/h
1335 21-01-2009 03:02:02 -2.1 C 3.64 g/m*3 -2.1 C 0 km/h
1336 21-01-2009 03:14:01 -2.3 C 3.59 g/m*3 -2.3 C 0 km/h
1337 21-01-2009 03:26:01 -2.2 C 3.62 g/m*3 -2.2 C 0 km/h
1338 21-01-2009 03:38:01 -2.1 C 3.68 g/m*3 -2.1 C 0 km/h
1339 21-01-2009 03:50:01 -2.1 C 3.68 g/m*3 -2.1 C 0 km/h
1340 21-01-2009 04:02:01 -2.3 C 3.59 g/m*3 -2.3 C 0 km/h
1341 21-01-2009 04:14:01 -2.3 C 3.63 g/m*3 -2.3 C 0 km/h
1342 21-01-2009 04:26:01 -2.3 C 3.63 g/m*3 -2.3 C 0 km/h
1343 21-01-2009 04:38:01 -2.4 C 3.61 g/m*3 -2.4 C 0 km/h
1344 21-01-2009 04:50:01 -2.6 C 3.56 g/m*3 -2.6 C 0 km/h
1345 21-01-2009 05:02:02 -2.5 C 3.58 g/m*3 -2.5 C 0 km/h
1346 21-01-2009 05:14:02 -2.7 C 3.53 g/m*3 -2.7 C 0 km/h
1347 21-01-2009 05:26:01 -2.8 C 3.51 g/m*3 -2.8 C 0 km/h
1348 21-01-2009 05:38:02 -2.9 C 3.48 g/m*3 -2.9 C 0 km/h
1349 21-01-2009 05:50:01 -3 C 3.46 g/m*3 -3 C 0 km/h
1350 21-01-2009 06:02:01 -2.9 C 3.52 g/m*3 -2.9 C 0 km/h
Sensor: Nr:Datum:Temp:Abs-Feuchte:Windchill:Wind:
Aussen-T/F 1351 21-01-2009 06:14:01 -2.9 C 3.52 g/m*3 -2.9 C 0 km/h
1352 21-01-2009 06:26:01 -3 C 3.5 g/m*3 -3 C 0 km/h
1353 21-01-2009 06:38:02 -2.9 C 3.52 g/m*3 -2.9 C 0 km/h
1354 21-01-2009 06:50:01 -3.1 C 3.47 g/m*3 -3.1 C 0 km/h
1355 21-01-2009 07:02:02 -3 C 3.5 g/m*3 -3 C 0 km/h
1356 21-01-2009 07:14:02 -2.7 C 3.61 g/m*3 -2.7 C 0 km/h
1357 21-01-2009 07:26:01 -2.8 C 3.59 g/m*3 -2.8 C 0 km/h
1358 21-01-2009 07:38:02 -3 C 3.54 g/m*3 -3 C 0 km/h
1359 21-01-2009 07:50:01 -3 C 3.54 g/m*3 -3 C 0 km/h
1360 21-01-2009 08:02:02 -2.8 C 3.59 g/m*3 -2.8 C 0 km/h
1361 21-01-2009 08:14:02 -2.7 C 3.61 g/m*3 -2.7 C 0 km/h
1362 21-01-2009 08:26:01 -2.2 C 3.78 g/m*3 -2.2 C 0 km/h
1363 21-01-2009 08:38:01 -2.1 C 3.81 g/m*3 -2.1 C 0 km/h
1364 21-01-2009 08:50:01 -2.1 C 3.81 g/m*3 -2.1 C 0 km/h
1365 21-01-2009 09:02:01 -2 C 3.84 g/m*3 -2 C 0 km/h
1366 21-01-2009 09:14:01 -2.2 C 3.78 g/m*3 -2.2 C 0 km/h
1367 21-01-2009 09:26:01 -2.3 C 3.76 g/m*3 -2.3 C 0 km/h
1368 21-01-2009 09:38:01 -2.4 C 3.69 g/m*3 -2.4 C 0 km/h
1369 21-01-2009 09:50:01 -2.3 C 3.71 g/m*3 -2.3 C 0 km/h
1370 21-01-2009 10:02:01 -2.3 C 3.71 g/m*3 -2.3 C 0 km/h
1371 21-01-2009 10:14:01 -2.2 C 3.74 g/m*3 -2.2 C 0 km/h
1372 21-01-2009 10:26:02 -2.1 C 3.77 g/m*3 -2.1 C 0 km/h
1373 21-01-2009 10:38:01 -1.9 C 3.82 g/m*3 -1.9 C 0 km/h
1374 21-01-2009 10:50:02 -1.5 C 3.97 g/m*3 -1.5 C 0 km/h
1375 21-01-2009 11:02:01 -0.9 C 4.19 g/m*3 -0.9 C 0 km/h
Sensor: Nr:Datum:Temp:Abs-Feuchte:Windchill:Wind:
Aussen-T/F 1376 21-01-2009 11:14:01 -0.4 C 4.34 g/m*3 -0.4 C 0 km/h
1377 21-01-2009 11:26:02 0.1 C 4.49 g/m*3 0.1 C 0 km/h
1378 21-01-2009 11:38:01 0.4 C 4.58 g/m*3 0.4 C 0 km/h
1379 21-01-2009 11:50:02 0.8 C 4.71 g/m*3 0.8 C 0 km/h
1380 21-01-2009 12:02:01 1 C 4.67 g/m*3 1 C 0 km/h
1381 21-01-2009 12:14:01 1.4 C 4.75 g/m*3 1.4 C 0 km/h
1382 21-01-2009 12:26:01 1.5 C 4.67 g/m*3 1.5 C 0 km/h
1383 21-01-2009 12:38:02 1.8 C 4.66 g/m*3 1.8 C 0 km/h
1384 21-01-2009 12:50:01 2.1 C 4.64 g/m*3 2.1 C 0 km/h
1385 21-01-2009 13:02:02 2.3 C 4.65 g/m*3 2.3 C 0 km/h
1386 21-01-2009 13:14:02 2.5 C 4.71 g/m*3 2.5 C 0 km/h
1387 21-01-2009 13:26:01 2.8 C 4.75 g/m*3 2.8 C 0 km/h
1388 21-01-2009 13:38:02 3.1 C 4.73 g/m*3 3.1 C 0 km/h
1389 21-01-2009 13:50:01 3.3 C 4.67 g/m*3 3.3 C 0 km/h
1390 21-01-2009 14:02:01 3.5 C 4.61 g/m*3 3.5 C 0 km/h
1391 21-01-2009 14:14:02 3.6 C 4.58 g/m*3 3.6 C 0 km/h
1392 21-01-2009 14:26:01 3.6 C 4.58 g/m*3 3.6 C 0 km/h
1393 21-01-2009 14:38:01 3.8 C 4.45 g/m*3 3.8 C 0 km/h
1394 21-01-2009 14:50:01 3.8 C 4.45 g/m*3 3.8 C 0 km/h
1395 21-01-2009 15:02:01 4 C 4.45 g/m*3 4 C 0 km/h
1396 21-01-2009 15:14:01 4 C 4.39 g/m*3 4 C 0 km/h
1397 21-01-2009 15:26:02 4.1 C 4.42 g/m*3 4.1 C 0 km/h
1398 21-01-2009 15:38:01 4.4 C 4.44 g/m*3 4.4 C 0 km/h
1399 21-01-2009 15:50:02 3.9 C 4.42 g/m*3 3.9 C 0 km/h
1400 21-01-2009 16:02:01 3.6 C 4.46 g/m*3 3.6 C 0 km/h
Sensor: Nr:Datum:Temp:Abs-Feuchte:Windchill:Wind:
Aussen-T/F 1401 21-01-2009 16:14:01 3.3 C 4.43 g/m*3 3.3 C 0 km/h
1402 21-01-2009 16:26:01 3.2 C 4.4 g/m*3 3.2 C 0 km/h
1403 21-01-2009 16:38:01 3.3 C 4.43 g/m*3 3.3 C 0 km/h
1404 21-01-2009 16:50:01 3.2 C 4.34 g/m*3 3.2 C 0 km/h
1405 21-01-2009 17:02:01 3.2 C 4.34 g/m*3 3.2 C 0 km/h
1406 21-01-2009 17:14:01 3.2 C 4.34 g/m*3 3.2 C 0 km/h
1407 21-01-2009 17:26:01 3.1 C 4.31 g/m*3 3.1 C 0 km/h
1408 21-01-2009 17:38:02 2.9 C 4.37 g/m*3 2.9 C 0 km/h
1409 21-01-2009 17:50:01 2.8 C 4.34 g/m*3 2.8 C 0 km/h
1410 21-01-2009 18:02:01 2.6 C 4.34 g/m*3 2.6 C 0 km/h
1411 21-01-2009 18:14:01 2.4 C 4.34 g/m*3 2.4 C 0 km/h
1412 21-01-2009 18:26:02 2.4 C 4.4 g/m*3 2.4 C 0 km/h
1413 21-01-2009 18:38:01 2.3 C 4.42 g/m*3 2.3 C 0 km/h
1414 21-01-2009 18:50:02 2.2 C 4.39 g/m*3 2.2 C 0 km/h
1415 21-01-2009 19:02:01 2.1 C 4.42 g/m*3 2.1 C 0 km/h
1416 21-01-2009 19:14:01 2 C 4.39 g/m*3 2 C 0 km/h
1417 21-01-2009 19:26:01 2 C 4.45 g/m*3 2 C 0 km/h
1418 21-01-2009 19:38:01 2.4 C 4.62 g/m*3 2.4 C 0 km/h
1419 21-01-2009 19:50:01 2.8 C 4.69 g/m*3 2.8 C 0 km/h
1420 21-01-2009 20:02:02 2.9 C 4.61 g/m*3 2.9 C 0 km/h
1421 21-01-2009 20:14:02 3 C 4.58 g/m*3 3 C 0 km/h
1422 21-01-2009 20:26:01 2.9 C 4.55 g/m*3 2.9 C 0 km/h
1423 21-01-2009 20:38:02 2.8 C 4.52 g/m*3 2.8 C 0 km/h
1424 21-01-2009 20:50:01 2.7 C 4.54 g/m*3 2.7 C 0 km/h
1425 21-01-2009 21:02:02 2.7 C 4.54 g/m*3 2.7 C 0 km/h
Sensor: Nr:Datum:Temp:Abs-Feuchte:Windchill:Wind:
Aussen-T/F 1426 21-01-2009 21:14:02 2.6 C 4.51 g/m*3 2.6 C 0 km/h
1427 21-01-2009 21:26:01 2.5 C 4.48 g/m*3 2.5 C 0 km/h
1428 21-01-2009 21:38:01 2.3 C 4.42 g/m*3 2.3 C 0 km/h
1429 21-01-2009 21:50:01 2 C 4.39 g/m*3 2 C 0 km/h
1430 21-01-2009 22:02:01 1.8 C 4.39 g/m*3 1.8 C 0 km/h
1431 21-01-2009 22:14:01 1.8 C 4.44 g/m*3 1.8 C 0 km/h
1432 21-01-2009 22:26:01 1.9 C 4.53 g/m*3 1.9 C 0 km/h
1433 21-01-2009 22:38:01 1.9 C 4.53 g/m*3 1.9 C 0 km/h
1434 21-01-2009 22:50:01 2 C 4.5 g/m*3 2 C 0 km/h
1435 21-01-2009 23:02:01 2 C 4.5 g/m*3 2 C 0 km/h
1436 21-01-2009 23:14:01 1.9 C 4.53 g/m*3 1.9 C 0 km/h
1437 21-01-2009 23:26:02 1.9 C 4.53 g/m*3 1.9 C 0 km/h
1438 21-01-2009 23:38:01 1.8 C 4.49 g/m*3 1.8 C 0 km/h
1439 21-01-2009 23:50:02 1.5 C 4.4 g/m*3 1.5 C 0 km/h
1440 22-01-2009 00:02:01 1 C 4.26 g/m*3 1 C 0 km/h
1441 22-01-2009 00:14:01 0.7 C 4.22 g/m*3 0.7 C 0 km/h
1442 22-01-2009 00:26:01 0.4 C 4.18 g/m*3 0.4 C 0 km/h
1443 22-01-2009 00:38:02 0.4 C 4.23 g/m*3 0.4 C 0 km/h
1444 22-01-2009 00:50:01 0.5 C 4.26 g/m*3 0.5 C 0 km/h
1445 22-01-2009 01:02:02 0.3 C 4.2 g/m*3 0.3 C 0 km/h
1446 22-01-2009 01:14:02 0.3 C 4.2 g/m*3 0.3 C 0 km/h
1447 22-01-2009 01:26:01 0.2 C 4.22 g/m*3 0.2 C 0 km/h
1448 22-01-2009 01:38:01 0.2 C 4.22 g/m*3 0.2 C 0 km/h
1449 22-01-2009 01:50:01 0.6 C 4.39 g/m*3 0.6 C 0 km/h
1450 22-01-2009 02:02:01 1 C 4.46 g/m*3 1 C 0 km/h
Sensor: Nr:Datum:Temp:Abs-Feuchte:Windchill:Wind:
Aussen-T/F 1451 22-01-2009 02:14:02 1.3 C 4.45 g/m*3 1.3 C 0 km/h
1452 22-01-2009 02:26:01 1.6 C 4.33 g/m*3 1.6 C 0 km/h
1453 22-01-2009 02:38:01 1.6 C 4.22 g/m*3 1.6 C 0 km/h
1454 22-01-2009 02:50:35 1.3 C 4.08 g/m*3 1.3 C 0 km/h
1455 22-01-2009 03:02:35 1.2 C 4.05 g/m*3 1.2 C 0 km/h
1456 22-01-2009 03:14:35 1.1 C 4.08 g/m*3 1.1 C 0 km/h
1457 22-01-2009 03:26:35 0.9 C 4.02 g/m*3 0.9 C 0 km/h
1458 22-01-2009 03:38:35 0.8 C 4.04 g/m*3 0.8 C 0 km/h
1459 22-01-2009 03:50:35 0.8 C 4.04 g/m*3 0.8 C 0 km/h
1460 22-01-2009 04:02:35 0.6 C 3.99 g/m*3 0.6 C 0 km/h
1461 22-01-2009 04:14:34 0.5 C 3.96 g/m*3 0.5 C 0 km/h
1462 22-01-2009 04:26:34 0.5 C 4.01 g/m*3 0.5 C 0 km/h
1463 22-01-2009 04:38:35 0.5 C 4.01 g/m*3 0.5 C 0 km/h
1464 22-01-2009 04:50:35 0.4 C 4.03 g/m*3 0.4 C 0 km/h
1465 22-01-2009 05:02:34 0.4 C 4.03 g/m*3 0.4 C 0 km/h
1466 22-01-2009 05:14:34 0.6 C 4.09 g/m*3 0.6 C 0 km/h
1467 22-01-2009 05:26:35 0.5 C 4.06 g/m*3 0.5 C 0 km/h
1468 22-01-2009 05:38:34 0.2 C 3.98 g/m*3 0.2 C 0 km/h
1469 22-01-2009 05:50:34 -0.2 C 3.87 g/m*3 -0.2 C 0 km/h
1470 22-01-2009 06:02:34 -0.2 C 3.92 g/m*3 -0.2 C 0 km/h
1471 22-01-2009 06:14:34 -0.2 C 3.97 g/m*3 -0.2 C 0 km/h
1472 22-01-2009 06:26:34 -0.5 C 3.88 g/m*3 -0.5 C 0 km/h
1473 22-01-2009 06:38:33 -0.5 C 3.88 g/m*3 -0.5 C 0 km/h
1474 22-01-2009 06:50:34 -0.3 C 4.03 g/m*3 -0.3 C 0 km/h
1475 22-01-2009 07:02:33 -0.3 C 4.03 g/m*3 -0.3 C 0 km/h
Sensor: Nr:Datum:Temp:Abs-Feuchte:Windchill:Wind:
Aussen-T/F 1476 22-01-2009 07:14:33 -0.4 C 4.01 g/m*3 -0.4 C 0 km/h
1477 22-01-2009 07:26:33 -0.6 C 3.95 g/m*3 -0.6 C 0 km/h
1478 22-01-2009 07:38:33 -0.5 C 4.03 g/m*3 -0.5 C 0 km/h
1479 22-01-2009 07:50:33 -0.6 C 4 g/m*3 -0.6 C 0 km/h
1480 22-01-2009 08:02:32 -0.6 C 4.04 g/m*3 -0.6 C 0 km/h
1481 22-01-2009 08:14:33 -0.6 C 4.04 g/m*3 -0.6 C 0 km/h
1482 22-01-2009 08:26:33 -0.4 C 4.15 g/m*3 -0.4 C 0 km/h
1483 22-01-2009 08:38:32 -0.4 C 4.15 g/m*3 -0.4 C 0 km/h
1484 22-01-2009 08:50:32 -0.3 C 4.18 g/m*3 -0.3 C 0 km/h
1485 22-01-2009 09:02:33 0 C 4.26 g/m*3 0 C 0 km/h
1486 22-01-2009 09:14:32 0.2 C 4.37 g/m*3 0.2 C 0 km/h
1487 22-01-2009 09:26:32 0.3 C 4.35 g/m*3 0.3 C 0 km/h
1488 22-01-2009 09:38:32 0.3 C 4.35 g/m*3 0.3 C 0 km/h
1489 22-01-2009 09:50:32 0.5 C 4.41 g/m*3 0.5 C 0 km/h
1490 22-01-2009 10:02:32 1.5 C 4.51 g/m*3 1.5 C 0 km/h
1491 22-01-2009 10:14:31 1.9 C 4.36 g/m*3 1.9 C 0 km/h
1492 22-01-2009 10:26:31 2.6 C 4.17 g/m*3 2.6 C 0 km/h
1493 22-01-2009 10:38:31 2.9 C 4.02 g/m*3 2.9 C 0 km/h
1494 22-01-2009 10:50:31 3.1 C 3.89 g/m*3 3.1 C 0 km/h
1495 22-01-2009 11:02:31 3.2 C 3.86 g/m*3 3.2 C 0 km/h
1496 22-01-2009 11:14:30 3.5 C 3.81 g/m*3 3.5 C 0 km/h
1497 22-01-2009 11:26:30 3.9 C 3.85 g/m*3 3.9 C 0 km/h
1498 22-01-2009 11:38:31 4.1 C 3.71 g/m*3 4.1 C 0 km/h
1499 22-01-2009 11:50:30 4.2 C 3.74 g/m*3 4.2 C 0 km/h
1500 22-01-2009 12:02:30 4.1 C 3.71 g/m*3 4.1 C 0 km/h
Sensor: Nr:Datum:Temp:Abs-Feuchte:Windchill:Wind:
Aussen-T/F 1501 22-01-2009 12:14:31 4.3 C 3.83 g/m*3 4.3 C 0 km/h
1502 22-01-2009 12:26:31 4.7 C 3.66 g/m*3 4.7 C 0 km/h
1503 22-01-2009 12:38:30 4.9 C 3.71 g/m*3 4.9 C 0 km/h
1504 22-01-2009 12:50:30 5.3 C 3.53 g/m*3 5.3 C 0 km/h
1505 22-01-2009 13:02:30 5.6 C 3.61 g/m*3 5.6 C 0 km/h
1506 22-01-2009 13:14:30 5.5 C 3.37 g/m*3 5.5 C 0 km/h
1507 22-01-2009 13:26:30 5.6 C 3.39 g/m*3 5.6 C 0 km/h
1508 22-01-2009 13:38:29 5.6 C 3.39 g/m*3 5.6 C 0 km/h
1509 22-01-2009 13:50:30 5.8 C 3.37 g/m*3 5.8 C 0 km/h
1510 22-01-2009 14:02:29 6 C 3.34 g/m*3 6 C 0 km/h
1511 22-01-2009 14:14:29 6.1 C 3.36 g/m*3 6.1 C 0 km/h
1512 22-01-2009 14:26:29 6.3 C 3.41 g/m*3 6.3 C 0 km/h
1513 22-01-2009 14:38:29 6.7 C 3.42 g/m*3 6.7 C 0 km/h
1514 22-01-2009 14:50:29 7 C 3.18 g/m*3 7 C 0 km/h
1515 22-01-2009 15:02:29 6.8 C 3.06 g/m*3 6.8 C 0 km/h
1516 22-01-2009 15:14:28 6.4 C 3.05 g/m*3 6.4 C 0 km/h
1517 22-01-2009 15:26:28 6.2 C 3.09 g/m*3 6.2 C 0 km/h
1518 22-01-2009 15:38:29 6.2 C 3.09 g/m*3 6.2 C 0 km/h
1519 22-01-2009 15:50:28 6 C 2.98 g/m*3 6 C 0 km/h
1520 22-01-2009 16:02:28 5.9 C 3.1 g/m*3 5.9 C 0 km/h
1521 22-01-2009 16:14:28 5.7 C 3.06 g/m*3 5.7 C 0 km/h
1522 22-01-2009 16:26:28 5.6 C 3.11 g/m*3 5.6 C 0 km/h
1523 22-01-2009 16:38:28 5.5 C 3.02 g/m*3 5.5 C 0 km/h
1524 22-01-2009 16:50:27 5.3 C 3.12 g/m*3 5.3 C 0 km/h
1525 22-01-2009 17:02:28 5.2 C 3.03 g/m*3 5.2 C 0 km/h
Sensor: Nr:Datum:Temp:Abs-Feuchte:Windchill:Wind:
Aussen-T/F 1526 22-01-2009 17:14:02 5.3 C 2.91 g/m*3 5.3 C 0 km/h
1527 22-01-2009 17:26:02 5.3 C 2.98 g/m*3 5.3 C 0 km/h
1528 22-01-2009 17:38:01 5.2 C 3.1 g/m*3 5.2 C 0 km/h
1529 22-01-2009 17:50:01 5.2 C 2.96 g/m*3 5.2 C 0 km/h
1530 22-01-2009 18:02:01 5.2 C 3.03 g/m*3 5.2 C 0 km/h
1531 22-01-2009 18:14:01 5.2 C 3.1 g/m*3 5.2 C 0 km/h
1532 22-01-2009 18:26:01 5.1 C 3.15 g/m*3 5.1 C 0 km/h
1533 22-01-2009 18:38:01 5.2 C 3.24 g/m*3 5.2 C 0 km/h
1534 22-01-2009 18:50:01 5 C 3.26 g/m*3 5 C 0 km/h
1535 22-01-2009 19:02:01 5 C 3.33 g/m*3 5 C 0 km/h
1536 22-01-2009 19:14:01 5 C 3.4 g/m*3 5 C 0 km/h
1537 22-01-2009 19:26:00 5 C 3.6 g/m*3 5 C 0 km/h
1538 22-01-2009 19:38:01 4.9 C 3.85 g/m*3 4.9 C 0 km/h
1539 22-01-2009 19:50:00 4.8 C 3.96 g/m*3 4.8 C 0 km/h
1540 22-01-2009 20:02:00 4.7 C 4 g/m*3 4.7 C 0 km/h
1541 22-01-2009 20:14:01 4.6 C 4.1 g/m*3 4.6 C 0 km/h
1542 22-01-2009 20:26:00 4.5 C 4.14 g/m*3 4.5 C 0 km/h
1543 22-01-2009 20:38:00 4.4 C 4.24 g/m*3 4.4 C 0 km/h
1544 22-01-2009 20:50:00 4.1 C 4.35 g/m*3 4.1 C 0 km/h
1545 22-01-2009 21:02:00 3.8 C 4.45 g/m*3 3.8 C 0 km/h
1546 22-01-2009 21:14:00 3.6 C 4.52 g/m*3 3.6 C 0 km/h
1547 22-01-2009 21:26:59 3.5 C 4.67 g/m*3 3.5 C 0 km/h
1548 22-01-2009 21:38:59 3.3 C 4.67 g/m*3 3.3 C 0 km/h
1549 22-01-2009 21:50:59 3.2 C 4.7 g/m*3 3.2 C 0 km/h
1550 22-01-2009 22:02:59 3.2 C 4.82 g/m*3 3.2 C 0 km/h
Sensor: Nr:Datum:Temp:Abs-Feuchte:Windchill:Wind:
Aussen-T/F 1551 22-01-2009 22:14:58 3.1 C 4.79 g/m*3 3.1 C 0 km/h
1552 22-01-2009 22:26:58 3.1 C 4.79 g/m*3 3.1 C 0 km/h
1553 22-01-2009 22:38:59 3.1 C 4.85 g/m*3 3.1 C 0 km/h
1554 22-01-2009 22:50:58 3.2 C 4.88 g/m*3 3.2 C 0 km/h
1555 22-01-2009 23:02:58 3.2 C 4.94 g/m*3 3.2 C 0 km/h
1556 22-01-2009 23:14:59 3.4 C 4.95 g/m*3 3.4 C 0 km/h
1557 22-01-2009 23:26:59 3.6 C 4.83 g/m*3 3.6 C 0 km/h
1558 22-01-2009 23:38:58 3.8 C 4.77 g/m*3 3.8 C 0 km/h
1559 22-01-2009 23:50:58 3.9 C 4.74 g/m*3 3.9 C 0 km/h
1560 23-01-2009 00:02:58 4 C 4.7 g/m*3 4 C 0 km/h
1561 23-01-2009 00:14:58 4 C 4.7 g/m*3 4 C 0 km/h
1562 23-01-2009 00:26:58 4 C 4.7 g/m*3 4 C 0 km/h
1563 23-01-2009 00:38:57 4 C 4.7 g/m*3 4 C 0 km/h
1564 23-01-2009 00:50:58 4 C 4.7 g/m*3 4 C 0 km/h
1565 23-01-2009 01:02:57 4 C 4.7 g/m*3 4 C 0 km/h
1566 23-01-2009 01:14:57 4 C 4.77 g/m*3 4 C 0 km/h
1567 23-01-2009 01:26:57 4 C 4.77 g/m*3 4 C 0 km/h
1568 23-01-2009 01:38:58 3.9 C 4.8 g/m*3 3.9 C 0 km/h
1569 23-01-2009 01:50:57 3.8 C 4.77 g/m*3 3.8 C 0 km/h
1570 23-01-2009 02:02:57 3.7 C 4.74 g/m*3 3.7 C 0 km/h
1571 23-01-2009 02:14:56 3.8 C 4.77 g/m*3 3.8 C 0 km/h
1572 23-01-2009 02:26:56 3.8 C 4.77 g/m*3 3.8 C 0 km/h
1573 23-01-2009 02:38:57 3.6 C 4.7 g/m*3 3.6 C 0 km/h
1574 23-01-2009 02:51:58 3.7 C 4.74 g/m*3 3.7 C 0 km/h
1575 23-01-2009 03:03:58 3.7 C 4.74 g/m*3 3.7 C 0 km/h
Sensor: Nr:Datum:Temp:Abs-Feuchte:Windchill:Wind:
Aussen-T/F 1576 23-01-2009 03:15:58 3.9 C 4.8 g/m*3 3.9 C 0 km/h
1577 23-01-2009 03:27:58 3.9 C 4.8 g/m*3 3.9 C 0 km/h
1578 23-01-2009 03:39:57 3.9 C 4.8 g/m*3 3.9 C 0 km/h
1579 23-01-2009 03:51:57 3.9 C 4.8 g/m*3 3.9 C 0 km/h
1580 23-01-2009 04:03:58 3.8 C 4.83 g/m*3 3.8 C 0 km/h
1581 23-01-2009 04:15:57 3.8 C 4.83 g/m*3 3.8 C 0 km/h
1582 23-01-2009 04:27:57 3.7 C 4.8 g/m*3 3.7 C 0 km/h
1583 23-01-2009 04:39:57 3.7 C 4.86 g/m*3 3.7 C 0 km/h
1584 23-01-2009 04:51:57 3.7 C 4.86 g/m*3 3.7 C 0 km/h
1585 23-01-2009 05:03:57 3.7 C 4.92 g/m*3 3.7 C 0 km/h
1586 23-01-2009 05:15:56 3.8 C 4.96 g/m*3 3.8 C 0 km/h
1587 23-01-2009 05:27:56 3.8 C 4.96 g/m*3 3.8 C 0 km/h
1588 23-01-2009 05:39:56 3.8 C 4.96 g/m*3 3.8 C 0 km/h
1589 23-01-2009 05:51:56 3.8 C 5.02 g/m*3 3.8 C 0 km/h
1590 23-01-2009 06:03:57 3.9 C 4.93 g/m*3 3.9 C 0 km/h
1591 23-01-2009 06:15:56 3.7 C 4.8 g/m*3 3.7 C 0 km/h
1592 23-01-2009 06:27:56 3.4 C 4.76 g/m*3 3.4 C 0 km/h
1593 23-01-2009 06:39:56 3.1 C 4.73 g/m*3 3.1 C 0 km/h
1594 23-01-2009 06:51:56 2.9 C 4.9 g/m*3 2.9 C 0 km/h
1595 23-01-2009 07:03:56 2.7 C 4.95 g/m*3 2.7 C 0 km/h
1596 23-01-2009 07:15:55 2.5 C 4.94 g/m*3 2.5 C 0 km/h
1597 23-01-2009 07:27:55 2.5 C 5 g/m*3 2.5 C 0 km/h
1598 23-01-2009 07:39:55 2.4 C 4.97 g/m*3 2.4 C 0 km/h
1599 23-01-2009 07:51:55 2.5 C 5.06 g/m*3 2.5 C 0 km/h
1600 23-01-2009 08:03:55 2.7 C 5.13 g/m*3 2.7 C 0 km/h
Sensor: Nr:Datum:Temp:Abs-Feuchte:Windchill:Wind:
Aussen-T/F 1601 23-01-2009 08:15:54 2.7 C 5.13 g/m*3 2.7 C 0 km/h
1602 23-01-2009 08:27:54 2.7 C 5.19 g/m*3 2.7 C 0 km/h
1603 23-01-2009 08:39:55 2.9 C 5.26 g/m*3 2.9 C 0 km/h
1604 23-01-2009 08:51:54 2.9 C 5.26 g/m*3 2.9 C 0 km/h
1605 23-01-2009 09:03:54 2.9 C 5.32 g/m*3 2.9 C 0 km/h
1606 23-01-2009 09:15:55 2.9 C 5.32 g/m*3 2.9 C 0 km/h
1607 23-01-2009 09:27:55 3 C 5.29 g/m*3 3 C 0 km/h
1608 23-01-2009 09:39:54 3 C 5.35 g/m*3 3 C 0 km/h
1609 23-01-2009 09:51:54 3 C 5.35 g/m*3 3 C 0 km/h
1610 23-01-2009 10:03:54 3.1 C 5.39 g/m*3 3.1 C 0 km/h
1611 23-01-2009 10:15:54 3.1 C 5.39 g/m*3 3.1 C 0 km/h
1612 23-01-2009 10:27:54 3.4 C 5.5 g/m*3 3.4 C 0 km/h
1613 23-01-2009 10:39:53 3.5 C 5.53 g/m*3 3.5 C 0 km/h
1614 23-01-2009 10:51:54 3.4 C 5.5 g/m*3 3.4 C 0 km/h
1615 23-01-2009 11:03:54 3.6 C 5.63 g/m*3 3.6 C 0 km/h
1616 23-01-2009 11:15:53 4 C 5.72 g/m*3 4 C 0 km/h
1617 23-01-2009 11:27:53 4.2 C 5.73 g/m*3 4.2 C 0 km/h
1618 23-01-2009 11:39:53 4.1 C 5.7 g/m*3 4.1 C 0 km/h
1619 23-01-2009 11:51:53 4.2 C 5.8 g/m*3 4.2 C 0 km/h
1620 23-01-2009 12:03:53 4.4 C 5.94 g/m*3 4.4 C 0 km/h
1621 23-01-2009 12:15:52 4.6 C 6.02 g/m*3 4.6 C 0 km/h
1622 23-01-2009 12:27:52 5.2 C 6.27 g/m*3 5.2 C 0 km/h
1623 23-01-2009 12:39:53 5.4 C 6.35 g/m*3 5.4 C 0 km/h
1624 23-01-2009 12:51:52 5.5 C 6.39 g/m*3 5.5 C 0 km/h
1625 23-01-2009 13:03:52 5.5 C 6.39 g/m*3 5.5 C 0 km/h
Sensor: Nr:Datum:Temp:Abs-Feuchte:Windchill:Wind:
Aussen-T/F 1626 23-01-2009 13:15:52 5.4 C 6.35 g/m*3 5.4 C 0 km/h
1627 23-01-2009 13:27:52 5.6 C 6.5 g/m*3 5.6 C 0 km/h
1628 23-01-2009 13:39:52 5.6 C 6.5 g/m*3 5.6 C 0 km/h
1629 23-01-2009 13:51:51 5.6 C 6.5 g/m*3 5.6 C 0 km/h
1630 23-01-2009 14:03:52 5.7 C 6.62 g/m*3 5.7 C 0 km/h
1631 23-01-2009 14:15:52 5.7 C 6.62 g/m*3 5.7 C 0 km/h
1632 23-01-2009 14:27:52 5.5 C 6.53 g/m*3 5.5 C 0 km/h
1633 23-01-2009 14:39:51 5.4 C 6.49 g/m*3 5.4 C 0 km/h
1634 23-01-2009 14:51:52 5.9 C 6.78 g/m*3 5.9 C 0 km/h
1635 23-01-2009 15:03:51 6.5 C 7.05 g/m*3 6.5 C 0 km/h
1636 23-01-2009 15:15:51 6.5 C 7.12 g/m*3 6.5 C 0 km/h
1637 23-01-2009 15:27:51 6.6 C 7.17 g/m*3 6.6 C 0 km/h
1638 23-01-2009 15:39:50 6.5 C 7.05 g/m*3 6.5 C 0 km/h
1639 23-01-2009 15:51:51 6.6 C 7.1 g/m*3 6.6 C 0 km/h
1640 23-01-2009 16:03:50 6.7 C 7.14 g/m*3 6.7 C 0 km/h
1641 23-01-2009 16:15:50 7.1 C 7.18 g/m*3 7.1 C 0 km/h
1642 23-01-2009 16:27:50 7.3 C 7.11 g/m*3 7.3 C 0 km/h
1643 23-01-2009 16:39:51 7.4 C 6.92 g/m*3 7.4 C 0 km/h
1644 23-01-2009 16:51:50 7.3 C 6.56 g/m*3 7.3 C 0 km/h
1645 23-01-2009 17:03:50 7.1 C 6.08 g/m*3 7.1 C 0 km/h
1646 23-01-2009 17:15:50 7.2 C 5.81 g/m*3 7.2 C 0 km/h
1647 23-01-2009 17:27:50 7 C 5.73 g/m*3 7 C 0 km/h
1648 23-01-2009 17:39:50 6.9 C 5.77 g/m*3 6.9 C 0 km/h
1649 23-01-2009 17:51:49 6.3 C 5.55 g/m*3 6.3 C 0 km/h
1650 23-01-2009 18:03:50 6.2 C 5 g/m*3 6.2 C 0 km/h
Sensor: Nr:Datum:Temp:Abs-Feuchte:Windchill:Wind:
Aussen-T/F 1651 23-01-2009 18:15:49 6 C 4.72 g/m*3 6 C 0 km/h
1652 23-01-2009 18:27:49 5.9 C 4.69 g/m*3 5.9 C 0 km/h
1653 23-01-2009 18:39:49 5.6 C 4.52 g/m*3 5.6 C 0 km/h
1654 23-01-2009 18:51:49 5.2 C 4.27 g/m*3 5.2 C 0 km/h
1655 23-01-2009 19:03:49 5 C 4.28 g/m*3 5 C 0 km/h
1656 23-01-2009 19:15:49 4.8 C 4.43 g/m*3 4.8 C 0 km/h
1657 23-01-2009 19:27:49 4.5 C 4.47 g/m*3 4.5 C 0 km/h
1658 23-01-2009 19:39:48 4.3 C 4.61 g/m*3 4.3 C 0 km/h
1659 23-01-2009 19:51:48 4 C 4.58 g/m*3 4 C 0 km/h
1660 23-01-2009 20:03:48 3.8 C 4.77 g/m*3 3.8 C 0 km/h
1661 23-01-2009 20:15:48 3.5 C 4.8 g/m*3 3.5 C 0 km/h
1662 23-01-2009 20:27:48 3.3 C 4.91 g/m*3 3.3 C 0 km/h
1663 23-01-2009 20:39:48 3.2 C 4.94 g/m*3 3.2 C 0 km/h
1664 23-01-2009 20:51:48 3.3 C 5.04 g/m*3 3.3 C 0 km/h
1665 23-01-2009 21:03:48 3.5 C 5.1 g/m*3 3.5 C 0 km/h
1666 23-01-2009 21:15:47 3.5 C 4.98 g/m*3 3.5 C 0 km/h
1667 23-01-2009 21:27:47 3.5 C 4.92 g/m*3 3.5 C 0 km/h
1668 23-01-2009 21:39:48 3.8 C 4.89 g/m*3 3.8 C 0 km/h
1669 23-01-2009 21:51:48 3.8 C 4.77 g/m*3 3.8 C 0 km/h
1670 23-01-2009 22:03:47 3.8 C 4.77 g/m*3 3.8 C 0 km/h
1671 23-01-2009 22:15:47 4 C 4.64 g/m*3 4 C 0 km/h
1672 23-01-2009 22:27:47 4.1 C 4.61 g/m*3 4.1 C 0 km/h
1673 23-01-2009 22:39:47 4 C 4.58 g/m*3 4 C 0 km/h
1674 23-01-2009 22:51:47 4.1 C 4.61 g/m*3 4.1 C 0 km/h
1675 23-01-2009 23:03:46 4.1 C 4.54 g/m*3 4.1 C 0 km/h
Sensor: Nr:Datum:Temp:Abs-Feuchte:Windchill:Wind:
Aussen-T/F 1676 23-01-2009 23:15:47 4.1 C 4.54 g/m*3 4.1 C 0 km/h
1677 23-01-2009 23:27:47 4.1 C 4.48 g/m*3 4.1 C 0 km/h
1678 23-01-2009 23:39:46 4.2 C 4.45 g/m*3 4.2 C 0 km/h
1679 23-01-2009 23:51:46 4.1 C 4.35 g/m*3 4.1 C 0 km/h
1680 24-01-2009 00:03:46 4.2 C 4.25 g/m*3 4.2 C 0 km/h
1681 24-01-2009 00:15:46 4.1 C 4.22 g/m*3 4.1 C 0 km/h
1682 24-01-2009 00:27:46 4.2 C 4.12 g/m*3 4.2 C 0 km/h
1683 24-01-2009 00:39:46 4.2 C 4.06 g/m*3 4.2 C 0 km/h
1684 24-01-2009 00:51:45 4.2 C 4.06 g/m*3 4.2 C 0 km/h
1685 24-01-2009 01:03:45 4.2 C 3.99 g/m*3 4.2 C 0 km/h
1686 24-01-2009 01:15:46 4.2 C 3.99 g/m*3 4.2 C 0 km/h
1687 24-01-2009 01:27:46 4.2 C 3.99 g/m*3 4.2 C 0 km/h
1688 24-01-2009 01:39:45 4.2 C 3.93 g/m*3 4.2 C 0 km/h
1689 24-01-2009 01:51:45 4.1 C 3.97 g/m*3 4.1 C 0 km/h
1690 24-01-2009 02:03:45 4.1 C 3.97 g/m*3 4.1 C 0 km/h
1691 24-01-2009 02:15:45 4 C 3.94 g/m*3 4 C 0 km/h
1692 24-01-2009 02:27:45 3.8 C 4.08 g/m*3 3.8 C 0 km/h
1693 24-01-2009 02:39:44 3.8 C 4.08 g/m*3 3.8 C 0 km/h
1694 24-01-2009 02:52:46 3.9 C 4.17 g/m*3 3.9 C 0 km/h
1695 24-01-2009 03:04:46 3.8 C 4.2 g/m*3 3.8 C 0 km/h
1696 24-01-2009 03:16:46 3.6 C 4.27 g/m*3 3.6 C 0 km/h
1697 24-01-2009 03:28:46 3.5 C 4.24 g/m*3 3.5 C 0 km/h
1698 24-01-2009 03:40:46 3.5 C 4.3 g/m*3 3.5 C 0 km/h
1699 24-01-2009 03:52:46 3.4 C 4.28 g/m*3 3.4 C 0 km/h
1700 24-01-2009 04:04:45 3.3 C 4.25 g/m*3 3.3 C 0 km/h
Sensor: Nr:Datum:Temp:Abs-Feuchte:Windchill:Wind:
Aussen-T/F 1701 24-01-2009 04:16:45 3.2 C 4.28 g/m*3 3.2 C 0 km/h
1702 24-01-2009 04:28:45 2.8 C 4.22 g/m*3 2.8 C 0 km/h
1703 24-01-2009 04:40:45 2.7 C 4.25 g/m*3 2.7 C 0 km/h
1704 24-01-2009 04:52:45 2.7 C 4.2 g/m*3 2.7 C 0 km/h
1705 24-01-2009 05:04:45 2.7 C 4.2 g/m*3 2.7 C 0 km/h
1706 24-01-2009 05:16:45 2.8 C 4.16 g/m*3 2.8 C 0 km/h
1707 24-01-2009 05:28:45 2.7 C 4.2 g/m*3 2.7 C 0 km/h
1708 24-01-2009 05:40:44 2.7 C 4.2 g/m*3 2.7 C 0 km/h
1709 24-01-2009 05:52:44 2.1 C 4.08 g/m*3 2.1 C 0 km/h
1710 24-01-2009 06:04:44 1.8 C 4.17 g/m*3 1.8 C 0 km/h
1711 24-01-2009 06:16:44 1.5 C 4.14 g/m*3 1.5 C 0 km/h
1712 24-01-2009 06:28:44 1.6 C 4.27 g/m*3 1.6 C 0 km/h
1713 24-01-2009 06:40:44 1.6 C 4.27 g/m*3 1.6 C 0 km/h
1714 24-01-2009 06:52:43 1.4 C 4.21 g/m*3 1.4 C 0 km/h
1715 24-01-2009 07:04:44 1 C 4.15 g/m*3 1 C 0 km/h
1716 24-01-2009 07:16:44 0.8 C 4.2 g/m*3 0.8 C 0 km/h
1717 24-01-2009 07:28:44 0.7 C 4.22 g/m*3 0.7 C 0 km/h
1718 24-01-2009 07:40:43 0.7 C 4.27 g/m*3 0.7 C 0 km/h
1719 24-01-2009 07:52:44 0.5 C 4.21 g/m*3 0.5 C 0 km/h
1720 24-01-2009 08:04:43 0.5 C 4.26 g/m*3 0.5 C 0 km/h
1721 24-01-2009 08:16:43 0.5 C 4.26 g/m*3 0.5 C 0 km/h
1722 24-01-2009 08:28:43 0.6 C 4.29 g/m*3 0.6 C 0 km/h
1723 24-01-2009 08:40:43 0.8 C 4.35 g/m*3 0.8 C 0 km/h
1724 24-01-2009 08:52:43 0.8 C 4.35 g/m*3 0.8 C 0 km/h
1725 24-01-2009 09:04:43 0.8 C 4.35 g/m*3 0.8 C 0 km/h
Sensor: Nr:Datum:Temp:Abs-Feuchte:Windchill:Wind:
Aussen-T/F 1726 24-01-2009 09:16:43 0.9 C 4.38 g/m*3 0.9 C 0 km/h
1727 24-01-2009 09:28:43 0.8 C 4.35 g/m*3 0.8 C 0 km/h
1728 24-01-2009 09:40:42 0.7 C 4.32 g/m*3 0.7 C 0 km/h
1729 24-01-2009 09:52:43 0.7 C 4.32 g/m*3 0.7 C 0 km/h
1730 24-01-2009 10:04:42 0.7 C 4.37 g/m*3 0.7 C 0 km/h
1731 24-01-2009 10:16:42 0.9 C 4.43 g/m*3 0.9 C 0 km/h
1732 24-01-2009 10:28:42 1 C 4.46 g/m*3 1 C 0 km/h
1733 24-01-2009 10:40:41 1.3 C 4.56 g/m*3 1.3 C 0 km/h
1734 24-01-2009 10:52:42 1.4 C 4.59 g/m*3 1.4 C 0 km/h
1735 24-01-2009 11:04:41 1.6 C 4.65 g/m*3 1.6 C 0 km/h
1736 24-01-2009 11:16:41 1.9 C 4.69 g/m*3 1.9 C 0 km/h
1737 24-01-2009 11:28:42 2.2 C 4.62 g/m*3 2.2 C 0 km/h
1738 24-01-2009 11:40:41 2.4 C 4.45 g/m*3 2.4 C 0 km/h
1739 24-01-2009 11:52:41 2.7 C 4.43 g/m*3 2.7 C 0 km/h
1740 24-01-2009 12:04:41 3.1 C 4.37 g/m*3 3.1 C 0 km/h
1741 24-01-2009 12:16:41 3.7 C 4.42 g/m*3 3.7 C 0 km/h
1742 24-01-2009 12:28:41 4.4 C 4.24 g/m*3 4.4 C 0 km/h
1743 24-01-2009 12:40:40 4.6 C 3.97 g/m*3 4.6 C 0 km/h
1744 24-01-2009 12:52:41 4.6 C 3.9 g/m*3 4.6 C 0 km/h
1745 24-01-2009 13:04:40 4.8 C 3.96 g/m*3 4.8 C 0 km/h
1746 24-01-2009 13:16:40 5.3 C 3.95 g/m*3 5.3 C 0 km/h
1747 24-01-2009 13:28:40 4.9 C 4.05 g/m*3 4.9 C 0 km/h
1748 24-01-2009 13:40:40 4.7 C 4.06 g/m*3 4.7 C 0 km/h
1749 24-01-2009 13:52:40 4.8 C 4.16 g/m*3 4.8 C 0 km/h
1750 24-01-2009 14:04:40 4.7 C 4.13 g/m*3 4.7 C 0 km/h
Sensor: Nr:Datum:Temp:Abs-Feuchte:Windchill:Wind:
Aussen-T/F 1751 24-01-2009 14:16:39 4.7 C 4.2 g/m*3 4.7 C 0 km/h
1752 24-01-2009 14:28:39 4.6 C 4.1 g/m*3 4.6 C 0 km/h
1753 24-01-2009 14:40:40 4.6 C 4.1 g/m*3 4.6 C 0 km/h
1754 24-01-2009 14:52:39 4.7 C 4.2 g/m*3 4.7 C 0 km/h
1755 24-01-2009 15:04:39 4.8 C 4.16 g/m*3 4.8 C 0 km/h
1756 24-01-2009 15:16:40 5.1 C 4.17 g/m*3 5.1 C 0 km/h
1757 24-01-2009 15:28:40 5.4 C 4.26 g/m*3 5.4 C 0 km/h
1758 24-01-2009 15:40:40 5.4 C 3.84 g/m*3 5.4 C 0 km/h
1759 24-01-2009 15:52:40 5.1 C 3.83 g/m*3 5.1 C 0 km/h
1760 24-01-2009 16:04:42 4.9 C 3.92 g/m*3 4.9 C 0 km/h
1761 24-01-2009 16:16:39 4.7 C 3.93 g/m*3 4.7 C 0 km/h
1762 24-01-2009 16:28:39 4.6 C 4.04 g/m*3 4.6 C 0 km/h
1763 24-01-2009 16:40:38 4.4 C 4.11 g/m*3 4.4 C 0 km/h
1764 24-01-2009 16:52:04 4.3 C 4.15 g/m*3 4.3 C 0 km/h
1765 24-01-2009 17:04:04 4.2 C 4.19 g/m*3 4.2 C 0 km/h
1766 24-01-2009 17:16:01 4.1 C 4.22 g/m*3 4.1 C 0 km/h
1767 24-01-2009 17:28:01 4 C 4.26 g/m*3 4 C 0 km/h
1768 24-01-2009 17:40:02 4 C 4.32 g/m*3 4 C 0 km/h
1769 24-01-2009 17:52:01 3.9 C 4.36 g/m*3 3.9 C 0 km/h
1770 24-01-2009 18:04:01 3.9 C 4.42 g/m*3 3.9 C 0 km/h
1771 24-01-2009 18:16:01 3.8 C 4.45 g/m*3 3.8 C 0 km/h
1772 24-01-2009 18:28:01 3.8 C 4.45 g/m*3 3.8 C 0 km/h
1773 24-01-2009 18:40:01 3.8 C 4.45 g/m*3 3.8 C 0 km/h
1774 24-01-2009 18:52:00 3.8 C 4.45 g/m*3 3.8 C 0 km/h
1775 24-01-2009 19:04:01 3.8 C 4.39 g/m*3 3.8 C 0 km/h
Sensor: Nr:Datum:Temp:Abs-Feuchte:Windchill:Wind:
Aussen-T/F 1776 24-01-2009 19:16:00 3.7 C 4.42 g/m*3 3.7 C 0 km/h
1777 24-01-2009 19:28:00 3.7 C 4.49 g/m*3 3.7 C 0 km/h
1778 24-01-2009 19:40:00 3.6 C 4.46 g/m*3 3.6 C 0 km/h
1779 24-01-2009 19:52:00 3.3 C 4.31 g/m*3 3.3 C 0 km/h
1780 24-01-2009 20:04:00 3 C 4.34 g/m*3 3 C 0 km/h
1781 24-01-2009 20:15:59 2.8 C 4.4 g/m*3 2.8 C 0 km/h
1782 24-01-2009 20:27:59 3 C 4.46 g/m*3 3 C 0 km/h
1783 24-01-2009 20:40:00 3.1 C 4.49 g/m*3 3.1 C 0 km/h
1784 24-01-2009 20:52:59 3.2 C 4.46 g/m*3 3.2 C 0 km/h
1785 24-01-2009 21:04:00 3.2 C 4.46 g/m*3 3.2 C 0 km/h
1786 24-01-2009 21:16:59 3 C 4.4 g/m*3 3 C 0 km/h
1787 24-01-2009 21:28:59 3.1 C 4.43 g/m*3 3.1 C 0 km/h
1788 24-01-2009 21:40:59 3.2 C 4.4 g/m*3 3.2 C 0 km/h
1789 24-01-2009 21:52:59 3.3 C 4.43 g/m*3 3.3 C 0 km/h
1790 24-01-2009 22:05:00 3.2 C 4.4 g/m*3 3.2 C 0 km/h
1791 24-01-2009 22:17:00 3 C 4.34 g/m*3 3 C 0 km/h
1792 24-01-2009 22:29:00 3 C 4.4 g/m*3 3 C 0 km/h
1793 24-01-2009 22:41:00 3 C 4.4 g/m*3 3 C 0 km/h
1794 24-01-2009 22:53:00 3 C 4.4 g/m*3 3 C 0 km/h
1795 24-01-2009 23:05:00 2.8 C 4.4 g/m*3 2.8 C 0 km/h
1796 24-01-2009 23:17:00 2.8 C 4.46 g/m*3 2.8 C 0 km/h
1797 24-01-2009 23:29:00 2.7 C 4.43 g/m*3 2.7 C 0 km/h
1798 24-01-2009 23:41:00 2.6 C 4.4 g/m*3 2.6 C 0 km/h
1799 24-01-2009 23:53:00 2.6 C 4.4 g/m*3 2.6 C 0 km/h
1800 25-01-2009 00:05:00 2.4 C 4.34 g/m*3 2.4 C 0 km/h
Sensor: Nr:Datum:Temp:Abs-Feuchte:Windchill:Wind:
Aussen-T/F 1801 25-01-2009 00:17:00 2.2 C 4.34 g/m*3 2.2 C 0 km/h
1802 25-01-2009 00:29:00 2.1 C 4.31 g/m*3 2.1 C 0 km/h
1803 25-01-2009 00:41:00 1.8 C 4.33 g/m*3 1.8 C 0 km/h
1804 25-01-2009 00:53:00 1.6 C 4.33 g/m*3 1.6 C 0 km/h
1805 25-01-2009 01:05:00 1.4 C 4.32 g/m*3 1.4 C 0 km/h
1806 25-01-2009 01:17:00 1.2 C 4.37 g/m*3 1.2 C 0 km/h
1807 25-01-2009 01:29:01 1 C 4.31 g/m*3 1 C 0 km/h
1808 25-01-2009 01:41:01 0.7 C 4.27 g/m*3 0.7 C 0 km/h
1809 25-01-2009 01:53:01 0.7 C 4.32 g/m*3 0.7 C 0 km/h
1810 25-01-2009 02:05:01 0.6 C 4.34 g/m*3 0.6 C 0 km/h
1811 25-01-2009 02:17:01 0.5 C 4.31 g/m*3 0.5 C 0 km/h
1812 25-01-2009 02:29:01 0.3 C 4.25 g/m*3 0.3 C 0 km/h
1813 25-01-2009 02:41:01 0.3 C 4.3 g/m*3 0.3 C 0 km/h
1814 25-01-2009 02:53:01 0.3 C 4.3 g/m*3 0.3 C 0 km/h
1815 25-01-2009 03:05:01 0.3 C 4.3 g/m*3 0.3 C 0 km/h
1816 25-01-2009 03:17:01 0.2 C 4.32 g/m*3 0.2 C 0 km/h
1817 25-01-2009 03:29:01 0.2 C 4.32 g/m*3 0.2 C 0 km/h
1818 25-01-2009 03:41:01 0.1 C 4.29 g/m*3 0.1 C 0 km/h
1819 25-01-2009 03:53:01 -0.1 C 4.23 g/m*3 -0.1 C 0 km/h
1820 25-01-2009 04:05:01 -0.2 C 4.21 g/m*3 -0.2 C 0 km/h
1821 25-01-2009 04:17:01 -0.7 C 4.06 g/m*3 -0.7 C 0 km/h
1822 25-01-2009 04:29:01 -0.9 C 4.01 g/m*3 -0.9 C 0 km/h
1823 25-01-2009 04:41:01 -1.2 C 3.92 g/m*3 -1.2 C 0 km/h
1824 25-01-2009 04:53:01 -1.5 C 3.84 g/m*3 -1.5 C 0 km/h
1825 25-01-2009 05:05:01 -1.4 C 3.87 g/m*3 -1.4 C 0 km/h
Sensor: Nr:Datum:Temp:Abs-Feuchte:Windchill:Wind:
Aussen-T/F 1826 25-01-2009 05:17:02 -1.6 C 3.86 g/m*3 -1.6 C 0 km/h
1827 25-01-2009 05:29:02 -1.7 C 3.83 g/m*3 -1.7 C 0 km/h
1828 25-01-2009 05:41:02 -1.8 C 3.8 g/m*3 -1.8 C 0 km/h
1829 25-01-2009 05:53:02 -1.2 C 4.01 g/m*3 -1.2 C 0 km/h
1830 25-01-2009 06:05:02 -1.1 C 4.09 g/m*3 -1.1 C 0 km/h
1831 25-01-2009 06:17:02 -1 C 4.11 g/m*3 -1 C 0 km/h
1832 25-01-2009 06:29:02 -0.9 C 4.19 g/m*3 -0.9 C 0 km/h
1833 25-01-2009 06:41:02 -0.8 C 4.22 g/m*3 -0.8 C 0 km/h
1834 25-01-2009 06:53:02 -1 C 4.16 g/m*3 -1 C 0 km/h
1835 25-01-2009 07:05:02 -1.1 C 4.09 g/m*3 -1.1 C 0 km/h
1836 25-01-2009 07:17:02 -1.2 C 4.06 g/m*3 -1.2 C 0 km/h
1837 25-01-2009 07:29:02 -1.4 C 4 g/m*3 -1.4 C 0 km/h
1838 25-01-2009 07:41:02 -1.5 C 3.97 g/m*3 -1.5 C 0 km/h
1839 25-01-2009 07:53:02 -1.7 C 3.92 g/m*3 -1.7 C 0 km/h
1840 25-01-2009 08:05:02 -1.8 C 3.89 g/m*3 -1.8 C 0 km/h
1841 25-01-2009 08:17:02 -1.6 C 3.99 g/m*3 -1.6 C 0 km/h
1842 25-01-2009 08:29:02 -1.9 C 3.86 g/m*3 -1.9 C 0 km/h
1843 25-01-2009 08:41:02 -1.8 C 3.93 g/m*3 -1.8 C 0 km/h
1844 25-01-2009 08:53:59 -1.7 C 3.96 g/m*3 -1.7 C 0 km/h
1845 25-01-2009 09:05:59 -1.7 C 3.96 g/m*3 -1.7 C 0 km/h
1846 25-01-2009 09:17:58 -1.6 C 3.99 g/m*3 -1.6 C 0 km/h
1847 25-01-2009 09:29:58 -1.5 C 4.02 g/m*3 -1.5 C 0 km/h
1848 25-01-2009 09:41:59 -1.3 C 4.07 g/m*3 -1.3 C 0 km/h
1849 25-01-2009 09:53:58 -1.5 C 4.02 g/m*3 -1.5 C 0 km/h
1850 25-01-2009 10:05:59 -1.4 C 4.04 g/m*3 -1.4 C 0 km/h
Sensor: Nr:Datum:Temp:Abs-Feuchte:Windchill:Wind:
Aussen-T/F 1851 25-01-2009 10:17:59 -1.3 C 4.07 g/m*3 -1.3 C 0 km/h
1852 25-01-2009 10:29:59 -1.2 C 4.1 g/m*3 -1.2 C 0 km/h
1853 25-01-2009 10:41:58 -1 C 4.16 g/m*3 -1 C 0 km/h
1854 25-01-2009 10:53:59 -0.8 C 4.26 g/m*3 -0.8 C 0 km/h
1855 25-01-2009 11:05:58 -0.6 C 4.32 g/m*3 -0.6 C 0 km/h
1856 25-01-2009 11:17:58 -0.5 C 4.31 g/m*3 -0.5 C 0 km/h
1857 25-01-2009 11:29:58 -0.4 C 4.34 g/m*3 -0.4 C 0 km/h
1858 25-01-2009 11:41:57 -0.2 C 4.44 g/m*3 -0.2 C 0 km/h
1859 25-01-2009 11:53:58 0.3 C 4.6 g/m*3 0.3 C 0 km/h
1860 25-01-2009 12:05:57 0.5 C 4.66 g/m*3 0.5 C 0 km/h
1861 25-01-2009 12:17:57 1 C 4.78 g/m*3 1 C 0 km/h
1862 25-01-2009 12:29:57 1.5 C 4.89 g/m*3 1.5 C 0 km/h
1863 25-01-2009 12:41:57 1.9 C 4.91 g/m*3 1.9 C 0 km/h
1864 25-01-2009 12:53:57 2.4 C 4.97 g/m*3 2.4 C 0 km/h
1865 25-01-2009 13:05:57 3 C 4.93 g/m*3 3 C 0 km/h
1866 25-01-2009 13:17:56 3.1 C 4.67 g/m*3 3.1 C 0 km/h
1867 25-01-2009 13:29:56 3 C 4.34 g/m*3 3 C 0 km/h
1868 25-01-2009 13:41:57 3.4 C 4.46 g/m*3 3.4 C 0 km/h
1869 25-01-2009 13:53:56 3.9 C 4.29 g/m*3 3.9 C 0 km/h
1870 25-01-2009 14:05:56 4.2 C 3.99 g/m*3 4.2 C 0 km/h
1871 25-01-2009 14:17:57 4.5 C 3.94 g/m*3 4.5 C 0 km/h
1872 25-01-2009 14:29:57 5 C 3.87 g/m*3 5 C 0 km/h
1873 25-01-2009 14:41:56 5.4 C 3.7 g/m*3 5.4 C 0 km/h
1874 25-01-2009 14:53:56 5.4 C 3.56 g/m*3 5.4 C 0 km/h
1875 25-01-2009 15:05:56 5.2 C 3.51 g/m*3 5.2 C 0 km/h
Sensor: Nr:Datum:Temp:Abs-Feuchte:Windchill:Wind:
Aussen-T/F 1876 25-01-2009 15:17:56 5.3 C 3.53 g/m*3 5.3 C 0 km/h
1877 25-01-2009 15:29:56 4.6 C 3.57 g/m*3 4.6 C 0 km/h
1878 25-01-2009 15:41:55 3.6 C 3.65 g/m*3 3.6 C 0 km/h
1879 25-01-2009 15:53:55 3.2 C 3.74 g/m*3 3.2 C 0 km/h
1880 25-01-2009 16:05:55 2.8 C 3.81 g/m*3 2.8 C 0 km/h
1881 25-01-2009 16:17:55 2.6 C 3.82 g/m*3 2.6 C 0 km/h
1882 25-01-2009 16:29:55 2.3 C 3.8 g/m*3 2.3 C 0 km/h
1883 25-01-2009 16:41:55 2.1 C 3.8 g/m*3 2.1 C 0 km/h
1884 25-01-2009 16:53:55 1.8 C 3.89 g/m*3 1.8 C 0 km/h
1885 25-01-2009 17:05:54 1.6 C 3.89 g/m*3 1.6 C 0 km/h
1886 25-01-2009 17:17:55 1.3 C 3.87 g/m*3 1.3 C 0 km/h
1887 25-01-2009 17:29:55 1 C 3.89 g/m*3 1 C 0 km/h
1888 25-01-2009 17:41:54 0.7 C 3.92 g/m*3 0.7 C 0 km/h
1889 25-01-2009 17:53:55 0.4 C 3.88 g/m*3 0.4 C 0 km/h
1890 25-01-2009 18:05:54 0 C 3.78 g/m*3 0 C 0 km/h
1891 25-01-2009 18:17:54 -0.3 C 3.8 g/m*3 -0.3 C 0 km/h
1892 25-01-2009 18:29:54 -0.4 C 3.82 g/m*3 -0.4 C 0 km/h
1893 25-01-2009 18:41:54 -0.5 C 3.79 g/m*3 -0.5 C 0 km/h
1894 25-01-2009 18:53:53 -0.5 C 3.88 g/m*3 -0.5 C 0 km/h
1895 25-01-2009 19:05:54 -0.6 C 3.86 g/m*3 -0.6 C 0 km/h
1896 25-01-2009 19:17:53 -0.7 C 3.88 g/m*3 -0.7 C 0 km/h
1897 25-01-2009 19:29:53 -0.8 C 3.85 g/m*3 -0.8 C 0 km/h
1898 25-01-2009 19:41:53 -0.9 C 3.82 g/m*3 -0.9 C 0 km/h
1899 25-01-2009 19:53:53 -1.1 C 3.82 g/m*3 -1.1 C 0 km/h
1900 25-01-2009 20:05:53 -1.2 C 3.79 g/m*3 -1.2 C 0 km/h
Sensor: Nr:Datum:Temp:Abs-Feuchte:Windchill:Wind:
Aussen-T/F 1901 25-01-2009 20:17:53 -1.3 C 3.81 g/m*3 -1.3 C 0 km/h
1902 25-01-2009 20:29:53 -1.3 C 3.85 g/m*3 -1.3 C 0 km/h
1903 25-01-2009 20:41:53 -1.3 C 3.85 g/m*3 -1.3 C 0 km/h
1904 25-01-2009 20:53:53 -1.3 C 3.85 g/m*3 -1.3 C 0 km/h
1905 25-01-2009 21:05:52 -1.5 C 3.84 g/m*3 -1.5 C 0 km/h
1906 25-01-2009 21:17:53 -1.5 C 3.84 g/m*3 -1.5 C 0 km/h
1907 25-01-2009 21:29:53 -1.6 C 3.81 g/m*3 -1.6 C 0 km/h
1908 25-01-2009 21:41:52 -1.7 C 3.79 g/m*3 -1.7 C 0 km/h
1909 25-01-2009 21:53:52 -1.6 C 3.81 g/m*3 -1.6 C 0 km/h
1910 25-01-2009 22:05:52 -1.7 C 3.83 g/m*3 -1.7 C 0 km/h
1911 25-01-2009 22:17:52 -1.8 C 3.8 g/m*3 -1.8 C 0 km/h
1912 25-01-2009 22:29:52 -1.9 C 3.78 g/m*3 -1.9 C 0 km/h
1913 25-01-2009 22:41:51 -1.8 C 3.8 g/m*3 -1.8 C 0 km/h
1914 25-01-2009 22:54:53 -1.9 C 3.78 g/m*3 -1.9 C 0 km/h
1915 25-01-2009 23:06:53 -1.8 C 3.85 g/m*3 -1.8 C 0 km/h
1916 25-01-2009 23:18:53 -1.9 C 3.82 g/m*3 -1.9 C 0 km/h
1917 25-01-2009 23:30:53 -1.9 C 3.82 g/m*3 -1.9 C 0 km/h
1918 25-01-2009 23:42:53 -2 C 3.79 g/m*3 -2 C 0 km/h
1919 25-01-2009 23:54:53 -2.1 C 3.77 g/m*3 -2.1 C 0 km/h
1920 26-01-2009 00:06:53 -2.2 C 3.74 g/m*3 -2.2 C 0 km/h
1921 26-01-2009 00:18:53 -2.4 C 3.69 g/m*3 -2.4 C 0 km/h
1922 26-01-2009 00:30:53 -2.4 C 3.69 g/m*3 -2.4 C 0 km/h
1923 26-01-2009 00:42:53 -2.5 C 3.62 g/m*3 -2.5 C 0 km/h
1924 26-01-2009 00:54:53 -2.5 C 3.66 g/m*3 -2.5 C 0 km/h
1925 26-01-2009 01:06:53 -2.5 C 3.66 g/m*3 -2.5 C 0 km/h
Sensor: Nr:Datum:Temp:Abs-Feuchte:Windchill:Wind:
Aussen-T/F 1926 26-01-2009 01:18:53 -2.7 C 3.57 g/m*3 -2.7 C 0 km/h
1927 26-01-2009 01:30:53 -2.9 C 3.52 g/m*3 -2.9 C 0 km/h
1928 26-01-2009 01:42:53 -3 C 3.5 g/m*3 -3 C 0 km/h
1929 26-01-2009 01:54:53 -3.1 C 3.47 g/m*3 -3.1 C 0 km/h
1930 26-01-2009 02:06:53 -3.2 C 3.45 g/m*3 -3.2 C 0 km/h
1931 26-01-2009 02:18:53 -3.2 C 3.45 g/m*3 -3.2 C 0 km/h
1932 26-01-2009 02:30:54 -3.3 C 3.42 g/m*3 -3.3 C 0 km/h
1933 26-01-2009 02:42:54 -3.2 C 3.49 g/m*3 -3.2 C 0 km/h
1934 26-01-2009 02:54:54 -3.2 C 3.49 g/m*3 -3.2 C 0 km/h
1935 26-01-2009 03:06:54 -3.2 C 3.49 g/m*3 -3.2 C 0 km/h
1936 26-01-2009 03:18:54 -3.3 C 3.46 g/m*3 -3.3 C 0 km/h
1937 26-01-2009 03:30:54 -3.4 C 3.47 g/m*3 -3.4 C 0 km/h
1938 26-01-2009 03:42:54 -3.4 C 3.47 g/m*3 -3.4 C 0 km/h
1939 26-01-2009 03:54:54 -3.4 C 3.47 g/m*3 -3.4 C 0 km/h
1940 26-01-2009 04:06:54 -3.5 C 3.45 g/m*3 -3.5 C 0 km/h
1941 26-01-2009 04:18:54 -3.8 C 3.38 g/m*3 -3.8 C 0 km/h
1942 26-01-2009 04:30:54 -3.7 C 3.4 g/m*3 -3.7 C 0 km/h
1943 26-01-2009 04:42:54 -3.8 C 3.38 g/m*3 -3.8 C 0 km/h
1944 26-01-2009 04:54:54 -3.8 C 3.38 g/m*3 -3.8 C 0 km/h
1945 26-01-2009 05:06:54 -3.8 C 3.38 g/m*3 -3.8 C 0 km/h
1946 26-01-2009 05:18:54 -3.9 C 3.39 g/m*3 -3.9 C 0 km/h
1947 26-01-2009 05:30:54 -3.7 C 3.44 g/m*3 -3.7 C 0 km/h
1948 26-01-2009 05:42:54 -3.7 C 3.44 g/m*3 -3.7 C 0 km/h
1949 26-01-2009 05:54:54 -3.6 C 3.46 g/m*3 -3.6 C 0 km/h
1950 26-01-2009 06:06:54 -3.5 C 3.49 g/m*3 -3.5 C 0 km/h
Sensor: Nr:Datum:Temp:Abs-Feuchte:Windchill:Wind:
Aussen-T/F 1951 26-01-2009 06:18:55 -3.4 C 3.55 g/m*3 -3.4 C 0 km/h
1952 26-01-2009 06:30:55 -3.4 C 3.55 g/m*3 -3.4 C 0 km/h
1953 26-01-2009 06:42:55 -3.4 C 3.55 g/m*3 -3.4 C 0 km/h
1954 26-01-2009 06:54:55 -3.3 C 3.58 g/m*3 -3.3 C 0 km/h
1955 26-01-2009 07:06:52 -3.4 C 3.55 g/m*3 -3.4 C 0 km/h
1956 26-01-2009 07:18:53 -3.3 C 3.58 g/m*3 -3.3 C 0 km/h
1957 26-01-2009 07:30:52 -3.4 C 3.55 g/m*3 -3.4 C 0 km/h
1958 26-01-2009 07:42:52 -3.5 C 3.53 g/m*3 -3.5 C 0 km/h
1959 26-01-2009 07:54:52 -3.5 C 3.53 g/m*3 -3.5 C 0 km/h
1960 26-01-2009 08:06:52 -3.4 C 3.59 g/m*3 -3.4 C 0 km/h
1961 26-01-2009 08:18:52 -3.3 C 3.61 g/m*3 -3.3 C 0 km/h
1962 26-01-2009 08:30:52 -3.4 C 3.59 g/m*3 -3.4 C 0 km/h
1963 26-01-2009 08:42:52 -3.4 C 3.59 g/m*3 -3.4 C 0 km/h
1964 26-01-2009 08:54:52 -3.4 C 3.59 g/m*3 -3.4 C 0 km/h
1965 26-01-2009 09:06:52 -3.1 C 3.67 g/m*3 -3.1 C 0 km/h
1966 26-01-2009 09:18:51 -3.1 C 3.67 g/m*3 -3.1 C 0 km/h
1967 26-01-2009 09:30:51 -3.1 C 3.67 g/m*3 -3.1 C 0 km/h
1968 26-01-2009 09:42:51 -3.1 C 3.67 g/m*3 -3.1 C 0 km/h
1969 26-01-2009 09:54:51 -2.9 C 3.72 g/m*3 -2.9 C 0 km/h
1970 26-01-2009 10:06:51 -2.6 C 3.8 g/m*3 -2.6 C 0 km/h
1971 26-01-2009 10:18:50 -2.2 C 3.91 g/m*3 -2.2 C 0 km/h
1972 26-01-2009 10:30:51 -2 C 3.96 g/m*3 -2 C 0 km/h
1973 26-01-2009 10:42:51 -1.7 C 4.05 g/m*3 -1.7 C 0 km/h
1974 26-01-2009 10:54:50 -1.5 C 4.1 g/m*3 -1.5 C 0 km/h
1975 26-01-2009 11:06:50 -1.6 C 4.03 g/m*3 -1.6 C 0 km/h
Sensor: Nr:Datum:Temp:Abs-Feuchte:Windchill:Wind:
Aussen-T/F 1976 26-01-2009 11:18:51 -1.8 C 3.93 g/m*3 -1.8 C 0 km/h
1977 26-01-2009 11:30:50 -1.9 C 3.82 g/m*3 -1.9 C 0 km/h
1978 26-01-2009 11:42:50 -1.6 C 3.9 g/m*3 -1.6 C 0 km/h
1979 26-01-2009 11:54:50 -1.1 C 4.04 g/m*3 -1.1 C 0 km/h
1980 26-01-2009 12:06:50 -0.4 C 4.19 g/m*3 -0.4 C 0 km/h
1981 26-01-2009 12:18:50 -0.1 C 4.23 g/m*3 -0.1 C 0 km/h
1982 26-01-2009 12:30:49 0.3 C 4.3 g/m*3 0.3 C 0 km/h
1983 26-01-2009 12:42:49 0 C 4.07 g/m*3 0 C 0 km/h
1984 26-01-2009 12:54:50 0.1 C 4.05 g/m*3 0.1 C 0 km/h
1985 26-01-2009 13:06:50 0.5 C 4.16 g/m*3 0.5 C 0 km/h
1986 26-01-2009 13:18:50 0.7 C 4.17 g/m*3 0.7 C 0 km/h
1987 26-01-2009 13:30:52 0.6 C 4.14 g/m*3 0.6 C 0 km/h
1988 26-01-2009 13:42:52 0.6 C 4.14 g/m*3 0.6 C 0 km/h
1989 26-01-2009 13:54:49 1 C 4.26 g/m*3 1 C 0 km/h
1990 26-01-2009 14:06:48 1.3 C 4.34 g/m*3 1.3 C 0 km/h
1991 26-01-2009 14:18:49 1.3 C 4.24 g/m*3 1.3 C 0 km/h
1992 26-01-2009 14:30:49 1.2 C 4.21 g/m*3 1.2 C 0 km/h
1993 26-01-2009 14:42:49 1.1 C 4.18 g/m*3 1.1 C 0 km/h
1994 26-01-2009 14:54:48 1.2 C 4.21 g/m*3 1.2 C 0 km/h
1995 26-01-2009 15:06:49 1.3 C 4.24 g/m*3 1.3 C 0 km/h
1996 26-01-2009 15:18:48 1.2 C 4.21 g/m*3 1.2 C 0 km/h
1997 26-01-2009 15:30:48 1.1 C 4.18 g/m*3 1.1 C 0 km/h
1998 26-01-2009 15:42:48 1 C 4.2 g/m*3 1 C 0 km/h
1999 26-01-2009 15:54:48 0.9 C 4.23 g/m*3 0.9 C 0 km/h
2000 26-01-2009 16:06:47 0.7 C 4.17 g/m*3 0.7 C 0 km/h
Sensor: Nr:Datum:Temp:Abs-Feuchte:Windchill:Wind:
Aussen-T/F 2001 26-01-2009 16:18:48 0.4 C 4.08 g/m*3 0.4 C 0 km/h
2002 26-01-2009 16:30:47 0.2 C 4.03 g/m*3 0.2 C 0 km/h
2003 26-01-2009 16:42:47 -0.2 C 3.92 g/m*3 -0.2 C 0 km/h
2004 26-01-2009 16:54:27 -0.5 C 3.84 g/m*3 -0.5 C 0 km/h
2005 26-01-2009 17:06:02 -0.8 C 3.76 g/m*3 -0.8 C 0 km/h
2006 26-01-2009 17:18:02 -1 C 3.75 g/m*3 -1 C 0 km/h
2007 26-01-2009 17:30:02 -1.4 C 3.69 g/m*3 -1.4 C 0 km/h
2008 26-01-2009 17:42:02 -1.7 C 3.62 g/m*3 -1.7 C 0 km/h
2009 26-01-2009 17:54:02 -1.8 C 3.63 g/m*3 -1.8 C 0 km/h
2010 26-01-2009 18:06:01 -1.8 C 3.72 g/m*3 -1.8 C 0 km/h
2011 26-01-2009 18:18:01 -1.9 C 3.69 g/m*3 -1.9 C 0 km/h
2012 26-01-2009 18:30:01 -2 C 3.67 g/m*3 -2 C 0 km/h
2013 26-01-2009 18:42:01 -2 C 3.71 g/m*3 -2 C 0 km/h
2014 26-01-2009 18:54:01 -2.1 C 3.68 g/m*3 -2.1 C 0 km/h
2015 26-01-2009 19:06:00 -2.1 C 3.68 g/m*3 -2.1 C 0 km/h
2016 26-01-2009 19:18:01 -2.3 C 3.63 g/m*3 -2.3 C 0 km/h
2017 26-01-2009 19:30:02 -2.4 C 3.61 g/m*3 -2.4 C 0 km/h
2018 26-01-2009 19:42:00 -2.3 C 3.63 g/m*3 -2.3 C 0 km/h
2019 26-01-2009 19:54:00 -2.6 C 3.56 g/m*3 -2.6 C 0 km/h
2020 26-01-2009 20:06:00 -2.6 C 3.56 g/m*3 -2.6 C 0 km/h
2021 26-01-2009 20:18:00 -2.6 C 3.56 g/m*3 -2.6 C 0 km/h
2022 26-01-2009 20:30:00 -2.8 C 3.51 g/m*3 -2.8 C 0 km/h
2023 26-01-2009 20:42:00 -3 C 3.46 g/m*3 -3 C 0 km/h
2024 26-01-2009 20:54:00 -2.9 C 3.48 g/m*3 -2.9 C 0 km/h
2025 26-01-2009 21:06:00 -3.1 C 3.43 g/m*3 -3.1 C 0 km/h
Sensor: Nr:Datum:Temp:Abs-Feuchte:Windchill:Wind:
Aussen-T/F 2026 26-01-2009 21:18:59 -3.3 C 3.38 g/m*3 -3.3 C 0 km/h
2027 26-01-2009 21:29:59 -3.2 C 3.41 g/m*3 -3.2 C 0 km/h
2028 26-01-2009 21:41:59 -3.3 C 3.38 g/m*3 -3.3 C 0 km/h
2029 26-01-2009 21:55:00 -3.3 C 3.42 g/m*3 -3.3 C 0 km/h
2030 26-01-2009 22:07:00 -3.2 C 3.45 g/m*3 -3.2 C 0 km/h
2031 26-01-2009 22:19:00 -3.4 C 3.4 g/m*3 -3.4 C 0 km/h
2032 26-01-2009 22:31:00 -3.7 C 3.33 g/m*3 -3.7 C 0 km/h
2033 26-01-2009 22:43:00 -3.8 C 3.3 g/m*3 -3.8 C 0 km/h
2034 26-01-2009 22:55:00 -3.9 C 3.28 g/m*3 -3.9 C 0 km/h
2035 26-01-2009 23:07:00 -3.8 C 3.3 g/m*3 -3.8 C 0 km/h
2036 26-01-2009 23:19:01 -3.8 C 3.3 g/m*3 -3.8 C 0 km/h
2037 26-01-2009 23:31:01 -3.7 C 3.33 g/m*3 -3.7 C 0 km/h
2038 26-01-2009 23:43:01 -3.8 C 3.3 g/m*3 -3.8 C 0 km/h
2039 26-01-2009 23:55:01 -3.8 C 3.34 g/m*3 -3.8 C 0 km/h
2040 27-01-2009 00:07:01 -3.8 C 3.34 g/m*3 -3.8 C 0 km/h
2041 27-01-2009 00:19:01 -3.9 C 3.32 g/m*3 -3.9 C 0 km/h
2042 27-01-2009 00:31:01 -3.8 C 3.34 g/m*3 -3.8 C 0 km/h
2043 27-01-2009 00:43:01 -3.8 C 3.34 g/m*3 -3.8 C 0 km/h
2044 27-01-2009 00:55:01 -3.7 C 3.36 g/m*3 -3.7 C 0 km/h
2045 27-01-2009 01:07:01 -3.7 C 3.4 g/m*3 -3.7 C 0 km/h
2046 27-01-2009 01:19:01 -3.6 C 3.43 g/m*3 -3.6 C 0 km/h
2047 27-01-2009 01:31:01 -3.6 C 3.43 g/m*3 -3.6 C 0 km/h
2048 27-01-2009 01:43:01 -3.7 C 3.4 g/m*3 -3.7 C 0 km/h
2049 27-01-2009 01:55:01 -3.8 C 3.38 g/m*3 -3.8 C 0 km/h
2050 27-01-2009 02:07:01 -3.8 C 3.38 g/m*3 -3.8 C 0 km/h
Sensor: Nr:Datum:Temp:Abs-Feuchte:Windchill:Wind:
Aussen-T/F 2051 27-01-2009 02:19:01 -3.8 C 3.38 g/m*3 -3.8 C 0 km/h
2052 27-01-2009 02:31:01 -3.7 C 3.44 g/m*3 -3.7 C 0 km/h
2053 27-01-2009 02:43:01 -3.6 C 3.46 g/m*3 -3.6 C 0 km/h
2054 27-01-2009 02:55:01 -3.5 C 3.49 g/m*3 -3.5 C 0 km/h
2055 27-01-2009 03:07:02 -3.4 C 3.51 g/m*3 -3.4 C 0 km/h
2056 27-01-2009 03:19:02 -3.2 C 3.6 g/m*3 -3.2 C 0 km/h
2057 27-01-2009 03:31:02 -3.1 C 3.63 g/m*3 -3.1 C 0 km/h
2058 27-01-2009 03:43:02 -3 C 3.65 g/m*3 -3 C 0 km/h
2059 27-01-2009 03:55:02 -3 C 3.65 g/m*3 -3 C 0 km/h
2060 27-01-2009 04:07:02 -2.9 C 3.68 g/m*3 -2.9 C 0 km/h
2061 27-01-2009 04:19:02 -2.7 C 3.73 g/m*3 -2.7 C 0 km/h
2062 27-01-2009 04:31:02 -2.7 C 3.73 g/m*3 -2.7 C 0 km/h
2063 27-01-2009 04:43:02 -2.7 C 3.73 g/m*3 -2.7 C 0 km/h
2064 27-01-2009 04:55:02 -2.8 C 3.71 g/m*3 -2.8 C 0 km/h
2065 27-01-2009 05:07:02 -2.7 C 3.73 g/m*3 -2.7 C 0 km/h
2066 27-01-2009 05:19:02 -2.5 C 3.78 g/m*3 -2.5 C 0 km/h
2067 27-01-2009 05:31:02 -2.5 C 3.78 g/m*3 -2.5 C 0 km/h
2068 27-01-2009 05:43:02 -2.4 C 3.81 g/m*3 -2.4 C 0 km/h
2069 27-01-2009 05:55:02 -2.5 C 3.78 g/m*3 -2.5 C 0 km/h
2070 27-01-2009 06:07:02 -2.4 C 3.81 g/m*3 -2.4 C 0 km/h
2071 27-01-2009 06:19:02 -2.6 C 3.72 g/m*3 -2.6 C 0 km/h
2072 27-01-2009 06:31:00 -2.6 C 3.72 g/m*3 -2.6 C 0 km/h
2073 27-01-2009 06:43:00 -2.5 C 3.7 g/m*3 -2.5 C 0 km/h
2074 27-01-2009 06:55:00 -2.5 C 3.66 g/m*3 -2.5 C 0 km/h
2075 27-01-2009 07:07:00 -2.5 C 3.66 g/m*3 -2.5 C 0 km/h
Sensor: Nr:Datum:Temp:Abs-Feuchte:Windchill:Wind:
Aussen-T/F 2076 27-01-2009 07:19:59 -2.4 C 3.69 g/m*3 -2.4 C 0 km/h
2077 27-01-2009 07:31:59 -2.3 C 3.71 g/m*3 -2.3 C 0 km/h
2078 27-01-2009 07:42:59 -2.3 C 3.67 g/m*3 -2.3 C 0 km/h
2079 27-01-2009 07:55:59 -2.2 C 3.7 g/m*3 -2.2 C 0 km/h
2080 27-01-2009 08:07:59 -2.1 C 3.73 g/m*3 -2.1 C 0 km/h
2081 27-01-2009 08:19:58 -2.1 C 3.73 g/m*3 -2.1 C 0 km/h
2082 27-01-2009 08:31:59 -2.1 C 3.73 g/m*3 -2.1 C 0 km/h
2083 27-01-2009 08:43:59 -2.1 C 3.73 g/m*3 -2.1 C 0 km/h
2084 27-01-2009 08:55:00 -2 C 3.75 g/m*3 -2 C 0 km/h
2085 27-01-2009 09:07:59 -2 C 3.75 g/m*3 -2 C 0 km/h
2086 27-01-2009 09:19:58 -1.9 C 3.78 g/m*3 -1.9 C 0 km/h
2087 27-01-2009 09:31:58 -1.8 C 3.8 g/m*3 -1.8 C 0 km/h
2088 27-01-2009 09:43:58 -1.7 C 3.79 g/m*3 -1.7 C 0 km/h
2089 27-01-2009 09:55:58 -1.6 C 3.81 g/m*3 -1.6 C 0 km/h
2090 27-01-2009 10:07:57 -1.5 C 3.84 g/m*3 -1.5 C 0 km/h
2091 27-01-2009 10:19:58 -1.5 C 3.84 g/m*3 -1.5 C 0 km/h
2092 27-01-2009 10:30:59 -1.4 C 3.82 g/m*3 -1.4 C 0 km/h
2093 27-01-2009 10:42:59 -1.2 C 3.88 g/m*3 -1.2 C 0 km/h
2094 27-01-2009 10:55:57 -1 C 3.93 g/m*3 -1 C 0 km/h
2095 27-01-2009 11:07:57 -0.9 C 3.91 g/m*3 -0.9 C 0 km/h
2096 27-01-2009 11:19:57 -0.8 C 3.94 g/m*3 -0.8 C 0 km/h
2097 27-01-2009 11:31:57 -0.5 C 3.98 g/m*3 -0.5 C 0 km/h
2098 27-01-2009 11:43:58 -0.4 C 3.96 g/m*3 -0.4 C 0 km/h
2099 27-01-2009 11:55:56 -0.3 C 3.99 g/m*3 -0.3 C 0 km/h
2100 27-01-2009 12:07:57 -0.1 C 3.99 g/m*3 -0.1 C 0 km/h
Sensor: Nr:Datum:Temp:Abs-Feuchte:Windchill:Wind:
Aussen-T/F 2101 27-01-2009 12:19:56 0.1 C 4.05 g/m*3 0.1 C 0 km/h
2102 27-01-2009 12:31:56 0.4 C 4.08 g/m*3 0.4 C 0 km/h
2103 27-01-2009 12:43:56 0.7 C 4.17 g/m*3 0.7 C 0 km/h
2104 27-01-2009 12:55:56 0.8 C 4.15 g/m*3 0.8 C 0 km/h
2105 27-01-2009 13:07:56 1 C 4.15 g/m*3 1 C 0 km/h
2106 27-01-2009 13:19:56 1.2 C 4.21 g/m*3 1.2 C 0 km/h
2107 27-01-2009 13:31:55 1.2 C 4.1 g/m*3 1.2 C 0 km/h
2108 27-01-2009 13:43:55 1.4 C 4.16 g/m*3 1.4 C 0 km/h
2109 27-01-2009 13:55:56 1.4 C 4.11 g/m*3 1.4 C 0 km/h
2110 27-01-2009 14:07:55 1.5 C 4.14 g/m*3 1.5 C 0 km/h
2111 27-01-2009 14:19:55 1.6 C 4.16 g/m*3 1.6 C 0 km/h
2112 27-01-2009 14:31:55 1.7 C 4.19 g/m*3 1.7 C 0 km/h
2113 27-01-2009 14:43:55 1.7 C 4.25 g/m*3 1.7 C 0 km/h
2114 27-01-2009 14:55:56 1.8 C 4.28 g/m*3 1.8 C 0 km/h
2115 27-01-2009 15:07:55 1.8 C 4.28 g/m*3 1.8 C 0 km/h
2116 27-01-2009 15:19:54 1.8 C 4.28 g/m*3 1.8 C 0 km/h
2117 27-01-2009 15:31:54 1.8 C 4.28 g/m*3 1.8 C 0 km/h
2118 27-01-2009 15:43:54 1.7 C 4.25 g/m*3 1.7 C 0 km/h
2119 27-01-2009 15:55:54 1.5 C 4.24 g/m*3 1.5 C 0 km/h
2120 27-01-2009 16:07:54 1.4 C 4.21 g/m*3 1.4 C 0 km/h
2121 27-01-2009 16:19:54 1.2 C 4.16 g/m*3 1.2 C 0 km/h
2122 27-01-2009 16:31:54 1 C 4.1 g/m*3 1 C 0 km/h
2123 27-01-2009 16:43:54 0.8 C 4.15 g/m*3 0.8 C 0 km/h
2124 27-01-2009 16:55:54 0.6 C 4.09 g/m*3 0.6 C 0 km/h
2125 27-01-2009 17:07:54 0.5 C 4.06 g/m*3 0.5 C 0 km/h
Sensor: Nr:Datum:Temp:Abs-Feuchte:Windchill:Wind:
Aussen-T/F 2126 27-01-2009 17:19:53 0.4 C 4.08 g/m*3 0.4 C 0 km/h
2127 27-01-2009 17:31:54 0.3 C 4.06 g/m*3 0.3 C 0 km/h
2128 27-01-2009 17:43:54 0.3 C 4.06 g/m*3 0.3 C 0 km/h
2129 27-01-2009 17:55:53 0.3 C 4.11 g/m*3 0.3 C 0 km/h
2130 27-01-2009 18:07:53 0.3 C 4.11 g/m*3 0.3 C 0 km/h
2131 27-01-2009 18:19:53 0.1 C 4.05 g/m*3 0.1 C 0 km/h
2132 27-01-2009 18:31:53 0.1 C 4.1 g/m*3 0.1 C 0 km/h
2133 27-01-2009 18:43:54 0.1 C 4.1 g/m*3 0.1 C 0 km/h
2134 27-01-2009 18:55:52 0.1 C 4.1 g/m*3 0.1 C 0 km/h
2135 27-01-2009 19:07:53 0.1 C 4.15 g/m*3 0.1 C 0 km/h
2136 27-01-2009 19:19:52 0.1 C 4.15 g/m*3 0.1 C 0 km/h
2137 27-01-2009 19:31:52 0.2 C 4.18 g/m*3 0.2 C 0 km/h
2138 27-01-2009 19:43:52 0.3 C 4.25 g/m*3 0.3 C 0 km/h
2139 27-01-2009 19:55:52 0.2 C 4.22 g/m*3 0.2 C 0 km/h
2140 27-01-2009 20:07:52 0.3 C 4.25 g/m*3 0.3 C 0 km/h
2141 27-01-2009 20:19:52 0.3 C 4.25 g/m*3 0.3 C 0 km/h
2142 27-01-2009 20:31:52 0.3 C 4.25 g/m*3 0.3 C 0 km/h
2143 27-01-2009 20:43:52 0.3 C 4.25 g/m*3 0.3 C 0 km/h
2144 27-01-2009 20:55:51 0.3 C 4.25 g/m*3 0.3 C 0 km/h
2145 27-01-2009 21:07:51 0.3 C 4.25 g/m*3 0.3 C 0 km/h
2146 27-01-2009 21:19:52 0.3 C 4.3 g/m*3 0.3 C 0 km/h
2147 27-01-2009 21:31:51 0.3 C 4.3 g/m*3 0.3 C 0 km/h
2148 27-01-2009 21:43:51 0.3 C 4.3 g/m*3 0.3 C 0 km/h
2149 27-01-2009 21:55:51 0.2 C 4.27 g/m*3 0.2 C 0 km/h
2150 27-01-2009 22:08:51 0.3 C 4.3 g/m*3 0.3 C 0 km/h
Sensor: Nr:Datum:Temp:Abs-Feuchte:Windchill:Wind:
Aussen-T/F 2151 27-01-2009 22:20:51 0.3 C 4.3 g/m*3 0.3 C 0 km/h
2152 27-01-2009 22:32:51 0.3 C 4.35 g/m*3 0.3 C 0 km/h
2153 27-01-2009 22:44:51 0.3 C 4.35 g/m*3 0.3 C 0 km/h
2154 27-01-2009 22:56:51 0.3 C 4.35 g/m*3 0.3 C 0 km/h
2155 27-01-2009 23:08:51 0.3 C 4.35 g/m*3 0.3 C 0 km/h
2156 27-01-2009 23:20:51 0.3 C 4.35 g/m*3 0.3 C 0 km/h
2157 27-01-2009 23:32:51 0.3 C 4.35 g/m*3 0.3 C 0 km/h
2158 27-01-2009 23:44:52 0.3 C 4.35 g/m*3 0.3 C 0 km/h
2159 27-01-2009 23:56:52 0.3 C 4.35 g/m*3 0.3 C 0 km/h
2160 28-01-2009 00:08:52 0.2 C 4.32 g/m*3 0.2 C 0 km/h
2161 28-01-2009 00:20:52 0.2 C 4.32 g/m*3 0.2 C 0 km/h
2162 28-01-2009 00:32:52 0.2 C 4.32 g/m*3 0.2 C 0 km/h
2163 28-01-2009 00:44:52 0.2 C 4.32 g/m*3 0.2 C 0 km/h
2164 28-01-2009 00:56:52 0.1 C 4.29 g/m*3 0.1 C 0 km/h
2165 28-01-2009 01:08:52 0 C 4.26 g/m*3 0 C 0 km/h
2166 28-01-2009 01:20:52 0.1 C 4.29 g/m*3 0.1 C 0 km/h
2167 28-01-2009 01:32:52 0.1 C 4.29 g/m*3 0.1 C 0 km/h
2168 28-01-2009 01:44:52 0.1 C 4.29 g/m*3 0.1 C 0 km/h
2169 28-01-2009 01:56:52 0.1 C 4.29 g/m*3 0.1 C 0 km/h
2170 28-01-2009 02:08:52 0.1 C 4.29 g/m*3 0.1 C 0 km/h
2171 28-01-2009 02:20:52 0 C 4.22 g/m*3 0 C 0 km/h
2172 28-01-2009 02:32:52 0 C 4.22 g/m*3 0 C 0 km/h
2173 28-01-2009 02:44:52 0 C 4.22 g/m*3 0 C 0 km/h
2174 28-01-2009 02:56:52 0 C 4.22 g/m*3 0 C 0 km/h
2175 28-01-2009 03:08:52 0 C 4.22 g/m*3 0 C 0 km/h
Sensor: Nr:Datum:Temp:Abs-Feuchte:Windchill:Wind:
Aussen-T/F 2176 28-01-2009 03:20:52 -0.2 C 4.16 g/m*3 -0.2 C 0 km/h
2177 28-01-2009 03:32:53 -0.2 C 4.16 g/m*3 -0.2 C 0 km/h
2178 28-01-2009 03:44:53 -0.2 C 4.16 g/m*3 -0.2 C 0 km/h
2179 28-01-2009 03:56:53 -0.2 C 4.16 g/m*3 -0.2 C 0 km/h
2180 28-01-2009 04:08:53 -0.3 C 4.13 g/m*3 -0.3 C 0 km/h
2181 28-01-2009 04:20:53 -0.3 C 4.13 g/m*3 -0.3 C 0 km/h
2182 28-01-2009 04:32:53 -0.4 C 4.05 g/m*3 -0.4 C 0 km/h
2183 28-01-2009 04:44:53 -0.6 C 4 g/m*3 -0.6 C 0 km/h
2184 28-01-2009 04:56:53 -0.8 C 3.94 g/m*3 -0.8 C 0 km/h
2185 28-01-2009 05:08:53 -1 C 3.89 g/m*3 -1 C 0 km/h
2186 28-01-2009 05:20:53 -0.9 C 3.91 g/m*3 -0.9 C 0 km/h
2187 28-01-2009 05:32:53 -0.6 C 4.04 g/m*3 -0.6 C 0 km/h
2188 28-01-2009 05:44:53 -0.6 C 4 g/m*3 -0.6 C 0 km/h
2189 28-01-2009 05:56:53 -0.6 C 4 g/m*3 -0.6 C 0 km/h
2190 28-01-2009 06:08:53 -0.6 C 4 g/m*3 -0.6 C 0 km/h
2191 28-01-2009 06:20:53 -0.7 C 3.97 g/m*3 -0.7 C 0 km/h
2192 28-01-2009 06:32:53 -0.7 C 3.97 g/m*3 -0.7 C 0 km/h
2193 28-01-2009 06:44:53 -0.7 C 3.92 g/m*3 -0.7 C 0 km/h
2194 28-01-2009 06:56:53 -0.6 C 3.95 g/m*3 -0.6 C 0 km/h
2195 28-01-2009 07:08:52 -0.6 C 3.95 g/m*3 -0.6 C 0 km/h
2196 28-01-2009 07:20:51 -0.6 C 3.95 g/m*3 -0.6 C 0 km/h
2197 28-01-2009 07:32:51 -0.5 C 3.98 g/m*3 -0.5 C 0 km/h
2198 28-01-2009 07:44:51 -0.5 C 3.98 g/m*3 -0.5 C 0 km/h
2199 28-01-2009 07:56:51 -0.5 C 3.98 g/m*3 -0.5 C 0 km/h
2200 28-01-2009 08:08:51 -0.4 C 4.01 g/m*3 -0.4 C 0 km/h
Sensor: Nr:Datum:Temp:Abs-Feuchte:Windchill:Wind:
Aussen-T/F 2201 28-01-2009 08:20:50 -0.5 C 3.93 g/m*3 -0.5 C 0 km/h
2202 28-01-2009 08:32:50 -0.5 C 3.93 g/m*3 -0.5 C 0 km/h
2203 28-01-2009 08:44:50 -0.4 C 3.96 g/m*3 -0.4 C 0 km/h
2204 28-01-2009 08:56:50 -0.5 C 3.93 g/m*3 -0.5 C 0 km/h
2205 28-01-2009 09:08:50 -0.4 C 3.96 g/m*3 -0.4 C 0 km/h
2206 28-01-2009 09:20:49 -0.3 C 3.99 g/m*3 -0.3 C 0 km/h
2207 28-01-2009 09:32:50 -0.3 C 3.94 g/m*3 -0.3 C 0 km/h
2208 28-01-2009 09:44:50 -0.1 C 3.99 g/m*3 -0.1 C 0 km/h
2209 28-01-2009 09:56:50 0.1 C 4.05 g/m*3 0.1 C 0 km/h
2210 28-01-2009 10:08:49 0.2 C 4.08 g/m*3 0.2 C 0 km/h
2211 28-01-2009 10:20:50 0.3 C 4.06 g/m*3 0.3 C 0 km/h
2212 28-01-2009 10:32:49 0.4 C 4.03 g/m*3 0.4 C 0 km/h
2213 28-01-2009 10:44:49 0.6 C 4.09 g/m*3 0.6 C 0 km/h
2214 28-01-2009 10:56:49 0.7 C 4.07 g/m*3 0.7 C 0 km/h
2215 28-01-2009 11:08:48 0.8 C 3.99 g/m*3 0.8 C 0 km/h
2216 28-01-2009 11:20:49 0.8 C 3.94 g/m*3 0.8 C 0 km/h
2217 28-01-2009 11:32:48 1 C 3.94 g/m*3 1 C 0 km/h
2218 28-01-2009 11:44:48 1.3 C 3.92 g/m*3 1.3 C 0 km/h
2219 28-01-2009 11:56:48 1.4 C 3.89 g/m*3 1.4 C 0 km/h
2220 28-01-2009 12:08:48 1.7 C 3.92 g/m*3 1.7 C 0 km/h
2221 28-01-2009 12:20:48 2.2 C 4 g/m*3 2.2 C 0 km/h
2222 28-01-2009 12:32:48 2.3 C 3.86 g/m*3 2.3 C 0 km/h
2223 28-01-2009 12:44:48 2.5 C 3.91 g/m*3 2.5 C 0 km/h
2224 28-01-2009 12:56:48 2.7 C 3.96 g/m*3 2.7 C 0 km/h
2225 28-01-2009 13:08:48 2.6 C 3.88 g/m*3 2.6 C 0 km/h
Sensor: Nr:Datum:Temp:Abs-Feuchte:Windchill:Wind:
Aussen-T/F 2226 28-01-2009 13:20:47 2.6 C 3.94 g/m*3 2.6 C 0 km/h
2227 28-01-2009 13:32:48 2.6 C 3.94 g/m*3 2.6 C 0 km/h
2228 28-01-2009 13:44:47 2.9 C 4.07 g/m*3 2.9 C 0 km/h
2229 28-01-2009 13:56:47 3.2 C 4.1 g/m*3 3.2 C 0 km/h
2230 28-01-2009 14:08:47 3.1 C 4.01 g/m*3 3.1 C 0 km/h
2231 28-01-2009 14:20:46 3.1 C 4.07 g/m*3 3.1 C 0 km/h
2232 28-01-2009 14:32:47 2.7 C 4.08 g/m*3 2.7 C 0 km/h
2233 28-01-2009 14:44:46 2.8 C 4.11 g/m*3 2.8 C 0 km/h
2234 28-01-2009 14:56:46 2.7 C 4.14 g/m*3 2.7 C 0 km/h
2235 28-01-2009 15:08:46 2.6 C 4.17 g/m*3 2.6 C 0 km/h
2236 28-01-2009 15:20:47 2.4 C 4.11 g/m*3 2.4 C 0 km/h
2237 28-01-2009 15:32:46 2 C 4 g/m*3 2 C 0 km/h
2238 28-01-2009 15:44:46 1.6 C 3.95 g/m*3 1.6 C 0 km/h
2239 28-01-2009 15:56:46 1.3 C 3.92 g/m*3 1.3 C 0 km/h
2240 28-01-2009 16:08:46 1.1 C 3.92 g/m*3 1.1 C 0 km/h
2241 28-01-2009 16:20:46 1 C 3.89 g/m*3 1 C 0 km/h
2242 28-01-2009 16:32:46 0.7 C 3.86 g/m*3 0.7 C 0 km/h
2243 28-01-2009 16:44:45 0.5 C 3.86 g/m*3 0.5 C 0 km/h
2244 28-01-2009 16:56:45 0.4 C 3.88 g/m*3 0.4 C 0 km/h
2245 28-01-2009 17:08:46 0.2 C 3.83 g/m*3 0.2 C 0 km/h
2246 28-01-2009 17:20:45 0 C 3.78 g/m*3 0 C 0 km/h
2247 28-01-2009 17:32:45 -0.3 C 3.75 g/m*3 -0.3 C 0 km/h
2248 28-01-2009 17:44:47 -0.4 C 3.77 g/m*3 -0.4 C 0 km/h
2249 28-01-2009 17:56:47 -0.7 C 3.69 g/m*3 -0.7 C 0 km/h
2250 28-01-2009 18:08:45 -0.8 C 3.67 g/m*3 -0.8 C 0 km/h
Sensor: Nr:Datum:Temp:Abs-Feuchte:Windchill:Wind:
Aussen-T/F 2251 28-01-2009 18:20:45 -0.4 C 3.86 g/m*3 -0.4 C 0 km/h
2252 28-01-2009 18:32:45 0 C 4.02 g/m*3 0 C 0 km/h
2253 28-01-2009 18:44:44 0.2 C 4.08 g/m*3 0.2 C 0 km/h
2254 28-01-2009 18:56:44 0.3 C 4.06 g/m*3 0.3 C 0 km/h
2255 28-01-2009 19:08:45 0.4 C 4.08 g/m*3 0.4 C 0 km/h
2256 28-01-2009 19:20:44 0.4 C 4.08 g/m*3 0.4 C 0 km/h
2257 28-01-2009 19:32:44 0.5 C 4.11 g/m*3 0.5 C 0 km/h
2258 28-01-2009 19:44:44 0.5 C 4.11 g/m*3 0.5 C 0 km/h
2259 28-01-2009 19:56:44 0.6 C 4.14 g/m*3 0.6 C 0 km/h
2260 28-01-2009 20:08:44 0.6 C 4.09 g/m*3 0.6 C 0 km/h
2261 28-01-2009 20:20:43 0.6 C 4.09 g/m*3 0.6 C 0 km/h
2262 28-01-2009 20:32:43 0.7 C 4.12 g/m*3 0.7 C 0 km/h
2263 28-01-2009 20:44:43 0.8 C 4.15 g/m*3 0.8 C 0 km/h
2264 28-01-2009 20:56:43 0.8 C 4.1 g/m*3 0.8 C 0 km/h
2265 28-01-2009 21:08:43 0.8 C 4.1 g/m*3 0.8 C 0 km/h
2266 28-01-2009 21:20:43 0.7 C 4.12 g/m*3 0.7 C 0 km/h
2267 28-01-2009 21:32:43 0.7 C 4.07 g/m*3 0.7 C 0 km/h
2268 28-01-2009 21:44:42 0.7 C 4.02 g/m*3 0.7 C 0 km/h
2269 28-01-2009 21:56:42 0.8 C 4.04 g/m*3 0.8 C 0 km/h
2270 28-01-2009 22:09:44 0.8 C 3.94 g/m*3 0.8 C 0 km/h
2271 28-01-2009 22:21:44 0.7 C 3.81 g/m*3 0.7 C 0 km/h
2272 28-01-2009 22:33:44 0.7 C 3.76 g/m*3 0.7 C 0 km/h
2273 28-01-2009 22:45:44 0.7 C 3.71 g/m*3 0.7 C 0 km/h
2274 28-01-2009 22:57:44 0.7 C 3.66 g/m*3 0.7 C 0 km/h
2275 28-01-2009 23:09:44 0.7 C 3.61 g/m*3 0.7 C 0 km/h
Sensor: Nr:Datum:Temp:Abs-Feuchte:Windchill:Wind:
Aussen-T/F 2276 28-01-2009 23:21:44 0.7 C 3.56 g/m*3 0.7 C 0 km/h
2277 28-01-2009 23:33:44 0.7 C 3.51 g/m*3 0.7 C 0 km/h
2278 28-01-2009 23:45:44 0.8 C 3.53 g/m*3 0.8 C 0 km/h
2279 28-01-2009 23:57:44 0.8 C 3.48 g/m*3 0.8 C 0 km/h
2280 29-01-2009 00:09:44 0.7 C 3.46 g/m*3 0.7 C 0 km/h
2281 29-01-2009 00:21:44 0.7 C 3.46 g/m*3 0.7 C 0 km/h
2282 29-01-2009 00:33:44 0.7 C 3.46 g/m*3 0.7 C 0 km/h
2283 29-01-2009 00:45:44 0.7 C 3.46 g/m*3 0.7 C 0 km/h
2284 29-01-2009 00:57:44 0.7 C 3.46 g/m*3 0.7 C 0 km/h
2285 29-01-2009 01:09:44 0.7 C 3.41 g/m*3 0.7 C 0 km/h
2286 29-01-2009 01:21:44 0.7 C 3.36 g/m*3 0.7 C 0 km/h
2287 29-01-2009 01:33:44 0.6 C 3.38 g/m*3 0.6 C 0 km/h
2288 29-01-2009 01:45:44 0.5 C 3.36 g/m*3 0.5 C 0 km/h
2289 29-01-2009 01:57:44 0.4 C 3.34 g/m*3 0.4 C 0 km/h
2290 29-01-2009 02:09:45 0.4 C 3.19 g/m*3 0.4 C 0 km/h
2291 29-01-2009 02:21:45 0.5 C 3.21 g/m*3 0.5 C 0 km/h
2292 29-01-2009 02:33:45 0.6 C 3.13 g/m*3 0.6 C 0 km/h
2293 29-01-2009 02:45:45 0.6 C 3.08 g/m*3 0.6 C 0 km/h
2294 29-01-2009 02:57:45 0.5 C 3.11 g/m*3 0.5 C 0 km/h
2295 29-01-2009 03:09:45 0.5 C 3.16 g/m*3 0.5 C 0 km/h
2296 29-01-2009 03:21:45 0.5 C 3.11 g/m*3 0.5 C 0 km/h
2297 29-01-2009 03:33:45 0.6 C 3.13 g/m*3 0.6 C 0 km/h
2298 29-01-2009 03:45:45 0.6 C 3.18 g/m*3 0.6 C 0 km/h
2299 29-01-2009 03:57:45 0.7 C 3.05 g/m*3 0.7 C 0 km/h
2300 29-01-2009 04:09:45 0.6 C 3.13 g/m*3 0.6 C 0 km/h
Sensor: Nr:Datum:Temp:Abs-Feuchte:Windchill:Wind:
Aussen-T/F 2301 29-01-2009 04:21:45 0.7 C 3.15 g/m*3 0.7 C 0 km/h
2302 29-01-2009 04:33:45 0.7 C 3.15 g/m*3 0.7 C 0 km/h
2303 29-01-2009 04:45:45 0.6 C 3.18 g/m*3 0.6 C 0 km/h
2304 29-01-2009 04:57:45 0.6 C 3.18 g/m*3 0.6 C 0 km/h
2305 29-01-2009 05:09:45 0.8 C 3.12 g/m*3 0.8 C 0 km/h
2306 29-01-2009 05:21:45 0.8 C 3.17 g/m*3 0.8 C 0 km/h
2307 29-01-2009 05:33:45 0.7 C 3.2 g/m*3 0.7 C 0 km/h
2308 29-01-2009 05:45:45 0.7 C 3.25 g/m*3 0.7 C 0 km/h
2309 29-01-2009 05:57:45 0.7 C 3.3 g/m*3 0.7 C 0 km/h
2310 29-01-2009 06:09:46 0.7 C 3.36 g/m*3 0.7 C 0 km/h
2311 29-01-2009 06:21:46 0.8 C 3.33 g/m*3 0.8 C 0 km/h
2312 29-01-2009 06:33:46 0.8 C 3.28 g/m*3 0.8 C 0 km/h
2313 29-01-2009 06:45:44 0.8 C 3.28 g/m*3 0.8 C 0 km/h
2314 29-01-2009 06:57:44 0.8 C 3.23 g/m*3 0.8 C 0 km/h
2315 29-01-2009 07:09:44 0.9 C 3.25 g/m*3 0.9 C 0 km/h
2316 29-01-2009 07:21:43 0.8 C 3.23 g/m*3 0.8 C 0 km/h
2317 29-01-2009 07:33:43 0.8 C 3.17 g/m*3 0.8 C 0 km/h
2318 29-01-2009 07:45:43 0.8 C 3.17 g/m*3 0.8 C 0 km/h
2319 29-01-2009 07:57:43 0.8 C 3.17 g/m*3 0.8 C 0 km/h
2320 29-01-2009 08:09:43 0.8 C 3.23 g/m*3 0.8 C 0 km/h
2321 29-01-2009 08:21:42 0.8 C 3.23 g/m*3 0.8 C 0 km/h
2322 29-01-2009 08:33:43 0.8 C 3.17 g/m*3 0.8 C 0 km/h
2323 29-01-2009 08:45:42 0.8 C 3.17 g/m*3 0.8 C 0 km/h
2324 29-01-2009 08:57:42 0.8 C 3.12 g/m*3 0.8 C 0 km/h
2325 29-01-2009 09:09:42 0.9 C 3.14 g/m*3 0.9 C 0 km/h
Sensor: Nr:Datum:Temp:Abs-Feuchte:Windchill:Wind:
Aussen-T/F 2326 29-01-2009 09:21:43 1 C 3.06 g/m*3 1 C 0 km/h
2327 29-01-2009 09:33:42 1.1 C 2.98 g/m*3 1.1 C 0 km/h
2328 29-01-2009 09:45:42 1.2 C 3 g/m*3 1.2 C 0 km/h
2329 29-01-2009 09:57:42 1.4 C 3.04 g/m*3 1.4 C 0 km/h
2330 29-01-2009 10:09:42 1.6 C 3.03 g/m*3 1.6 C 0 km/h
2331 29-01-2009 10:21:42 1.5 C 2.95 g/m*3 1.5 C 0 km/h
2332 29-01-2009 10:33:41 1.2 C 2.89 g/m*3 1.2 C 0 km/h
2333 29-01-2009 10:45:41 1 C 2.96 g/m*3 1 C 0 km/h
2334 29-01-2009 10:57:42 1 C 3.01 g/m*3 1 C 0 km/h
2335 29-01-2009 11:09:41 1 C 3.11 g/m*3 1 C 0 km/h
2336 29-01-2009 11:21:41 1.4 C 3.04 g/m*3 1.4 C 0 km/h
2337 29-01-2009 11:33:41 1.6 C 3.03 g/m*3 1.6 C 0 km/h
2338 29-01-2009 11:45:41 1.7 C 2.99 g/m*3 1.7 C 0 km/h
2339 29-01-2009 11:57:41 2 C 3 g/m*3 2 C 0 km/h
2340 29-01-2009 12:09:41 2.2 C 2.99 g/m*3 2.2 C 0 km/h
2341 29-01-2009 12:21:40 2.6 C 3.01 g/m*3 2.6 C 0 km/h
2342 29-01-2009 12:33:40 2.9 C 3.01 g/m*3 2.9 C 0 km/h
2343 29-01-2009 12:45:40 3.3 C 2.97 g/m*3 3.3 C 0 km/h
2344 29-01-2009 12:57:40 3.9 C 2.97 g/m*3 3.9 C 0 km/h
2345 29-01-2009 13:09:40 4.2 C 2.9 g/m*3 4.2 C 0 km/h
2346 29-01-2009 13:21:39 4.4 C 2.81 g/m*3 4.4 C 0 km/h
2347 29-01-2009 13:33:40 4.8 C 2.82 g/m*3 4.8 C 0 km/h
2348 29-01-2009 13:45:40 5.1 C 2.74 g/m*3 5.1 C 0 km/h
2349 29-01-2009 13:57:40 5.3 C 2.77 g/m*3 5.3 C 0 km/h
2350 29-01-2009 14:09:39 5.5 C 2.67 g/m*3 5.5 C 0 km/h
Sensor: Nr:Datum:Temp:Abs-Feuchte:Windchill:Wind:
Aussen-T/F 2351 29-01-2009 14:21:40 5.8 C 2.72 g/m*3 5.8 C 0 km/h
2352 29-01-2009 14:33:39 6.1 C 2.63 g/m*3 6.1 C 0 km/h
2353 29-01-2009 14:45:39 6.2 C 2.65 g/m*3 6.2 C 0 km/h
2354 29-01-2009 14:57:39 6.4 C 2.61 g/m*3 6.4 C 0 km/h
2355 29-01-2009 15:09:39 6.6 C 2.64 g/m*3 6.6 C 0 km/h
2356 29-01-2009 15:21:39 6.8 C 2.68 g/m*3 6.8 C 0 km/h
2357 29-01-2009 15:33:39 6.5 C 2.62 g/m*3 6.5 C 0 km/h
2358 29-01-2009 15:45:39 6.4 C 2.61 g/m*3 6.4 C 0 km/h
2359 29-01-2009 15:57:39 5.6 C 2.55 g/m*3 5.6 C 0 km/h
2360 29-01-2009 16:09:39 4.7 C 2.66 g/m*3 4.7 C 0 km/h
2361 29-01-2009 16:21:38 4 C 2.61 g/m*3 4 C 0 km/h
2362 29-01-2009 16:33:38 3.5 C 2.77 g/m*3 3.5 C 0 km/h
2363 29-01-2009 16:45:38 3 C 2.73 g/m*3 3 C 0 km/h
2364 29-01-2009 16:57:38 2.5 C 2.82 g/m*3 2.5 C 0 km/h
2365 29-01-2009 17:09:38 2.1 C 2.85 g/m*3 2.1 C 0 km/h
2366 29-01-2009 17:21:37 1.7 C 2.89 g/m*3 1.7 C 0 km/h
2367 29-01-2009 17:33:37 1.2 C 2.95 g/m*3 1.2 C 0 km/h
2368 29-01-2009 17:45:37 1 C 2.96 g/m*3 1 C 0 km/h
2369 29-01-2009 17:57:37 0.7 C 3.05 g/m*3 0.7 C 0 km/h
2370 29-01-2009 18:09:37 0.5 C 3.06 g/m*3 0.5 C 0 km/h
2371 29-01-2009 18:21:38 0.4 C 3.09 g/m*3 0.4 C 0 km/h
2372 29-01-2009 18:33:37 0.3 C 3.12 g/m*3 0.3 C 0 km/h
2373 29-01-2009 18:45:37 0.2 C 3.09 g/m*3 0.2 C 0 km/h
2374 29-01-2009 18:57:37 0.1 C 3.12 g/m*3 0.1 C 0 km/h
2375 29-01-2009 19:09:37 -0.1 C 3.13 g/m*3 -0.1 C 0 km/h
Sensor: Nr:Datum:Temp:Abs-Feuchte:Windchill:Wind:
Aussen-T/F 2376 29-01-2009 19:21:36 -0.3 C 3.13 g/m*3 -0.3 C 0 km/h
2377 29-01-2009 19:33:36 -0.4 C 3.11 g/m*3 -0.4 C 0 km/h
2378 29-01-2009 19:45:36 -0.6 C 3.11 g/m*3 -0.6 C 0 km/h
2379 29-01-2009 19:57:37 -0.8 C 3.12 g/m*3 -0.8 C 0 km/h
2380 29-01-2009 20:09:36 -0.9 C 3.14 g/m*3 -0.9 C 0 km/h
2381 29-01-2009 20:21:36 -0.9 C 3.14 g/m*3 -0.9 C 0 km/h
2382 29-01-2009 20:33:36 -1.1 C 3.14 g/m*3 -1.1 C 0 km/h
2383 29-01-2009 20:45:36 -1.1 C 3.14 g/m*3 -1.1 C 0 km/h
2384 29-01-2009 20:57:36 -1.2 C 3.12 g/m*3 -1.2 C 0 km/h
2385 29-01-2009 21:09:35 -1.4 C 3.08 g/m*3 -1.4 C 0 km/h
2386 29-01-2009 21:21:35 -1.5 C 3.1 g/m*3 -1.5 C 0 km/h
2387 29-01-2009 21:34:36 -1.6 C 3.12 g/m*3 -1.6 C 0 km/h
2388 29-01-2009 21:46:36 -1.7 C 3.14 g/m*3 -1.7 C 0 km/h
2389 29-01-2009 21:58:36 -1.8 C 3.12 g/m*3 -1.8 C 0 km/h
2390 29-01-2009 22:10:36 -2 C 3.08 g/m*3 -2 C 0 km/h
2391 29-01-2009 22:22:36 -1.9 C 3.14 g/m*3 -1.9 C 0 km/h
2392 29-01-2009 22:34:36 -2 C 3.12 g/m*3 -2 C 0 km/h
2393 29-01-2009 22:46:36 -2.2 C 3.08 g/m*3 -2.2 C 0 km/h
2394 29-01-2009 22:58:36 -2.4 C 3.03 g/m*3 -2.4 C 0 km/h
2395 29-01-2009 23:10:36 -2.3 C 3.1 g/m*3 -2.3 C 0 km/h
2396 29-01-2009 23:22:36 -2.4 C 3.07 g/m*3 -2.4 C 0 km/h
2397 29-01-2009 23:34:36 -2.5 C 3.05 g/m*3 -2.5 C 0 km/h
2398 29-01-2009 23:46:36 -2.5 C 3.09 g/m*3 -2.5 C 0 km/h
2399 29-01-2009 23:58:36 -2.5 C 3.09 g/m*3 -2.5 C 0 km/h
2400 30-01-2009 00:10:36 -2.5 C 3.13 g/m*3 -2.5 C 0 km/h
Sensor: Nr:Datum:Temp:Abs-Feuchte:Windchill:Wind:
Aussen-T/F 2401 30-01-2009 00:22:37 -2.5 C 3.13 g/m*3 -2.5 C 0 km/h
2402 30-01-2009 00:34:37 -2.5 C 3.13 g/m*3 -2.5 C 0 km/h
2403 30-01-2009 00:46:37 -2.6 C 3.11 g/m*3 -2.6 C 0 km/h
2404 30-01-2009 00:58:37 -2.7 C 3.09 g/m*3 -2.7 C 0 km/h
2405 30-01-2009 01:10:37 -2.7 C 3.09 g/m*3 -2.7 C 0 km/h
2406 30-01-2009 01:22:37 -2.9 C 3.05 g/m*3 -2.9 C 0 km/h
2407 30-01-2009 01:34:37 -2.8 C 3.11 g/m*3 -2.8 C 0 km/h
2408 30-01-2009 01:46:37 -3 C 3.06 g/m*3 -3 C 0 km/h
2409 30-01-2009 01:58:37 -3.1 C 3 g/m*3 -3.1 C 0 km/h
2410 30-01-2009 02:10:37 -3.2 C 3.02 g/m*3 -3.2 C 0 km/h
2411 30-01-2009 02:22:37 -3.2 C 3.02 g/m*3 -3.2 C 0 km/h
2412 30-01-2009 02:34:37 -3.5 C 2.96 g/m*3 -3.5 C 0 km/h
2413 30-01-2009 02:46:37 -3.5 C 2.96 g/m*3 -3.5 C 0 km/h
2414 30-01-2009 02:58:37 -3.5 C 2.96 g/m*3 -3.5 C 0 km/h
2415 30-01-2009 03:10:37 -3.6 C 2.94 g/m*3 -3.6 C 0 km/h
2416 30-01-2009 03:22:37 -3.7 C 2.95 g/m*3 -3.7 C 0 km/h
2417 30-01-2009 03:34:37 -3.8 C 2.93 g/m*3 -3.8 C 0 km/h
2418 30-01-2009 03:46:37 -3.6 C 3.01 g/m*3 -3.6 C 0 km/h
2419 30-01-2009 03:58:37 -3.7 C 2.99 g/m*3 -3.7 C 0 km/h
2420 30-01-2009 04:10:37 -3.8 C 2.97 g/m*3 -3.8 C 0 km/h
2421 30-01-2009 04:22:37 -3.8 C 2.97 g/m*3 -3.8 C 0 km/h
2422 30-01-2009 04:34:38 -3.9 C 2.95 g/m*3 -3.9 C 0 km/h
2423 30-01-2009 04:46:38 -3.9 C 2.98 g/m*3 -3.9 C 0 km/h
2424 30-01-2009 04:58:38 -3.9 C 2.98 g/m*3 -3.9 C 0 km/h
2425 30-01-2009 05:10:38 -3.9 C 2.98 g/m*3 -3.9 C 0 km/h
Sensor: Nr:Datum:Temp:Abs-Feuchte:Windchill:Wind:
Aussen-T/F 2426 30-01-2009 05:22:38 -3.8 C 3.04 g/m*3 -3.8 C 0 km/h
2427 30-01-2009 05:34:38 -3.8 C 3.04 g/m*3 -3.8 C 0 km/h
2428 30-01-2009 05:46:38 -3.8 C 3.04 g/m*3 -3.8 C 0 km/h
2429 30-01-2009 05:58:38 -3.9 C 3.02 g/m*3 -3.9 C 0 km/h
2430 30-01-2009 06:10:38 -3.9 C 3.02 g/m*3 -3.9 C 0 km/h
2431 30-01-2009 06:22:38 -4.1 C 2.98 g/m*3 -4.1 C 0 km/h
2432 30-01-2009 06:34:35 -4.1 C 2.98 g/m*3 -4.1 C 0 km/h
2433 30-01-2009 06:46:35 -4.3 C 2.94 g/m*3 -4.3 C 0 km/h
2434 30-01-2009 06:58:35 -4.3 C 2.94 g/m*3 -4.3 C 0 km/h
2435 30-01-2009 07:10:35 -4.4 C 2.92 g/m*3 -4.4 C 0 km/h
2436 30-01-2009 07:22:35 -4.6 C 2.87 g/m*3 -4.6 C 0 km/h
2437 30-01-2009 07:34:34 -4.8 C 2.83 g/m*3 -4.8 C 0 km/h
2438 30-01-2009 07:46:35 -4.8 C 2.83 g/m*3 -4.8 C 0 km/h
2439 30-01-2009 07:58:35 -4.7 C 2.85 g/m*3 -4.7 C 0 km/h
2440 30-01-2009 08:10:34 -4.7 C 2.89 g/m*3 -4.7 C 0 km/h
2441 30-01-2009 08:22:34 -4.6 C 2.91 g/m*3 -4.6 C 0 km/h
2442 30-01-2009 08:34:34 -4.2 C 3.03 g/m*3 -4.2 C 0 km/h
2443 30-01-2009 08:46:34 -3.6 C 3.2 g/m*3 -3.6 C 0 km/h
2444 30-01-2009 08:58:34 -3.3 C 3.31 g/m*3 -3.3 C 0 km/h
2445 30-01-2009 09:10:33 -3 C 3.38 g/m*3 -3 C 0 km/h
2446 30-01-2009 09:22:34 -2.7 C 3.45 g/m*3 -2.7 C 0 km/h
2447 30-01-2009 09:34:34 -2.5 C 3.46 g/m*3 -2.5 C 0 km/h
2448 30-01-2009 09:46:33 -2.2 C 3.49 g/m*3 -2.2 C 0 km/h
2449 30-01-2009 09:58:33 -1.8 C 3.55 g/m*3 -1.8 C 0 km/h
2450 30-01-2009 10:10:34 -1.5 C 3.54 g/m*3 -1.5 C 0 km/h
Sensor: Nr:Datum:Temp:Abs-Feuchte:Windchill:Wind:
Aussen-T/F 2451 30-01-2009 10:22:33 -1.2 C 3.43 g/m*3 -1.2 C 0 km/h
2452 30-01-2009 10:34:33 -1 C 3.25 g/m*3 -1 C 0 km/h
2453 30-01-2009 10:46:32 -0.8 C 3.21 g/m*3 -0.8 C 0 km/h
2454 30-01-2009 10:58:32 -0.7 C 3.18 g/m*3 -0.7 C 0 km/h
2455 30-01-2009 11:10:33 -0.5 C 3.14 g/m*3 -0.5 C 0 km/h
2456 30-01-2009 11:22:32 -0.3 C 3.08 g/m*3 -0.3 C 0 km/h
2457 30-01-2009 11:34:32 0 C 3.1 g/m*3 0 C 0 km/h
2458 30-01-2009 11:46:32 0.2 C 3.09 g/m*3 0.2 C 0 km/h
2459 30-01-2009 11:58:32 0.5 C 3.16 g/m*3 0.5 C 0 km/h
2460 30-01-2009 12:10:32 0.4 C 2.99 g/m*3 0.4 C 0 km/h
2461 30-01-2009 12:22:32 0.4 C 2.99 g/m*3 0.4 C 0 km/h
2462 30-01-2009 12:34:31 0.4 C 2.99 g/m*3 0.4 C 0 km/h
2463 30-01-2009 12:46:32 0.6 C 3.03 g/m*3 0.6 C 0 km/h
2464 30-01-2009 12:58:32 1.1 C 3.03 g/m*3 1.1 C 0 km/h
2465 30-01-2009 13:10:31 1.4 C 2.99 g/m*3 1.4 C 0 km/h
2466 30-01-2009 13:22:31 2 C 2.95 g/m*3 2 C 0 km/h
2467 30-01-2009 13:34:31 2.5 C 2.93 g/m*3 2.5 C 0 km/h
2468 30-01-2009 13:46:31 2.8 C 2.93 g/m*3 2.8 C 0 km/h
2469 30-01-2009 13:58:31 3 C 2.73 g/m*3 3 C 0 km/h
2470 30-01-2009 14:10:30 3.3 C 2.79 g/m*3 3.3 C 0 km/h
2471 30-01-2009 14:22:31 3.4 C 2.75 g/m*3 3.4 C 0 km/h
2472 30-01-2009 14:34:30 3.6 C 2.79 g/m*3 3.6 C 0 km/h
2473 30-01-2009 14:46:30 3.8 C 2.82 g/m*3 3.8 C 0 km/h
2474 30-01-2009 14:58:30 3.8 C 2.76 g/m*3 3.8 C 0 km/h
2475 30-01-2009 15:10:30 3.9 C 2.72 g/m*3 3.9 C 0 km/h
Sensor: Nr:Datum:Temp:Abs-Feuchte:Windchill:Wind:
Aussen-T/F 2476 30-01-2009 15:22:30 4.2 C 2.71 g/m*3 4.2 C 0 km/h
2477 30-01-2009 15:34:30 3.9 C 2.72 g/m*3 3.9 C 0 km/h
2478 30-01-2009 15:46:30 3.7 C 2.68 g/m*3 3.7 C 0 km/h
2479 30-01-2009 15:58:30 3.6 C 2.72 g/m*3 3.6 C 0 km/h
2480 30-01-2009 16:10:30 2.8 C 2.7 g/m*3 2.8 C 0 km/h
2481 30-01-2009 16:22:29 2 C 2.72 g/m*3 2 C 0 km/h
2482 30-01-2009 16:34:29 1.5 C 2.79 g/m*3 1.5 C 0 km/h
2483 30-01-2009 16:46:29 0.8 C 2.87 g/m*3 0.8 C 0 km/h
2484 30-01-2009 16:58:29 0.4 C 2.89 g/m*3 0.4 C 0 km/h
2485 30-01-2009 17:10:29 0 C 2.91 g/m*3 0 C 0 km/h
2486 30-01-2009 17:22:29 -0.2 C 2.87 g/m*3 -0.2 C 0 km/h
2487 30-01-2009 17:34:29 -0.5 C 2.9 g/m*3 -0.5 C 0 km/h
2488 30-01-2009 17:46:28 -0.8 C 2.89 g/m*3 -0.8 C 0 km/h
2489 30-01-2009 17:58:28 -0.9 C 2.91 g/m*3 -0.9 C 0 km/h
2490 30-01-2009 18:10:29 -1 C 2.94 g/m*3 -1 C 0 km/h
2491 30-01-2009 18:22:29 -1 C 2.98 g/m*3 -1 C 0 km/h
2492 30-01-2009 18:34:28 -1.1 C 2.96 g/m*3 -1.1 C 0 km/h
2493 30-01-2009 18:46:29 -1.1 C 3.01 g/m*3 -1.1 C 0 km/h
2494 30-01-2009 18:58:29 -1.2 C 2.99 g/m*3 -1.2 C 0 km/h
2495 30-01-2009 19:10:28 -1.2 C 3.03 g/m*3 -1.2 C 0 km/h
2496 30-01-2009 19:22:28 -1.2 C 3.03 g/m*3 -1.2 C 0 km/h
2497 30-01-2009 19:34:27 -1.3 C 3.05 g/m*3 -1.3 C 0 km/h
2498 30-01-2009 19:46:28 -1.5 C 3.06 g/m*3 -1.5 C 0 km/h
2499 30-01-2009 19:58:28 -1.5 C 3.06 g/m*3 -1.5 C 0 km/h
2500 30-01-2009 20:10:27 -1.5 C 3.1 g/m*3 -1.5 C 0 km/h
Sensor: Nr:Datum:Temp:Abs-Feuchte:Windchill:Wind:
Aussen-T/F 2501 30-01-2009 20:22:27 -1.7 C 3.06 g/m*3 -1.7 C 0 km/h
2502 30-01-2009 20:34:27 -1.7 C 3.1 g/m*3 -1.7 C 0 km/h
2503 30-01-2009 20:46:27 -1.7 C 3.1 g/m*3 -1.7 C 0 km/h
2504 30-01-2009 20:58:27 -1.8 C 3.08 g/m*3 -1.8 C 0 km/h
2505 30-01-2009 21:10:27 -1.8 C 3.12 g/m*3 -1.8 C 0 km/h
2506 30-01-2009 21:22:26 -1.8 C 3.12 g/m*3 -1.8 C 0 km/h
2507 30-01-2009 21:34:26 -2 C 3.08 g/m*3 -2 C 0 km/h
2508 30-01-2009 21:46:26 -2.1 C 3.1 g/m*3 -2.1 C 0 km/h
2509 30-01-2009 21:58:26 -2 C 3.12 g/m*3 -2 C 0 km/h
2510 30-01-2009 22:10:26 -2.1 C 3.06 g/m*3 -2.1 C 0 km/h
2511 30-01-2009 22:22:26 -2.2 C 3.03 g/m*3 -2.2 C 0 km/h
2512 30-01-2009 22:34:26 -2.3 C 3.01 g/m*3 -2.3 C 0 km/h
2513 30-01-2009 22:46:26 -2.4 C 2.99 g/m*3 -2.4 C 0 km/h
2514 30-01-2009 22:58:26 -2.4 C 2.99 g/m*3 -2.4 C 0 km/h
2515 30-01-2009 23:10:25 -2.4 C 2.99 g/m*3 -2.4 C 0 km/h
2516 30-01-2009 23:22:26 -2.6 C 2.95 g/m*3 -2.6 C 0 km/h
2517 30-01-2009 23:35:25 -2.8 C 2.91 g/m*3 -2.8 C 0 km/h
2518 30-01-2009 23:47:25 -2.8 C 2.95 g/m*3 -2.8 C 0 km/h
2519 30-01-2009 23:59:25 -2.8 C 2.99 g/m*3 -2.8 C 0 km/h
2520 31-01-2009 00:11:25 -2.7 C 3.01 g/m*3 -2.7 C 0 km/h
2521 31-01-2009 00:23:25 -2.3 C 3.1 g/m*3 -2.3 C 0 km/h
2522 31-01-2009 00:35:25 -2.1 C 3.1 g/m*3 -2.1 C 0 km/h
2523 31-01-2009 00:47:25 -1.8 C 3.12 g/m*3 -1.8 C 0 km/h
2524 31-01-2009 00:59:26 -1.7 C 3.06 g/m*3 -1.7 C 0 km/h
2525 31-01-2009 01:11:26 -1.6 C 3.03 g/m*3 -1.6 C 0 km/h
Sensor: Nr:Datum:Temp:Abs-Feuchte:Windchill:Wind:
Aussen-T/F 2526 31-01-2009 01:23:26 -1.5 C 2.97 g/m*3 -1.5 C 0 km/h
2527 31-01-2009 01:35:26 -1.4 C 2.99 g/m*3 -1.4 C 0 km/h
2528 31-01-2009 01:47:26 -1.3 C 2.97 g/m*3 -1.3 C 0 km/h
2529 31-01-2009 01:59:26 -1.2 C 2.9 g/m*3 -1.2 C 0 km/h
2530 31-01-2009 02:11:26 -1.2 C 2.85 g/m*3 -1.2 C 0 km/h
2531 31-01-2009 02:23:26 -1.2 C 2.81 g/m*3 -1.2 C 0 km/h
2532 31-01-2009 02:35:26 -1.2 C 2.81 g/m*3 -1.2 C 0 km/h
2533 31-01-2009 02:47:26 -1.1 C 2.78 g/m*3 -1.1 C 0 km/h
2534 31-01-2009 02:59:26 -1.1 C 2.78 g/m*3 -1.1 C 0 km/h
2535 31-01-2009 03:11:26 -1.1 C 2.74 g/m*3 -1.1 C 0 km/h
2536 31-01-2009 03:23:26 -1.1 C 2.74 g/m*3 -1.1 C 0 km/h
2537 31-01-2009 03:35:26 -1 C 2.71 g/m*3 -1 C 0 km/h
2538 31-01-2009 03:47:26 -1 C 2.76 g/m*3 -1 C 0 km/h
2539 31-01-2009 03:59:26 -1 C 2.71 g/m*3 -1 C 0 km/h
2540 31-01-2009 04:11:26 -0.9 C 2.73 g/m*3 -0.9 C 0 km/h
2541 31-01-2009 04:23:26 -0.9 C 2.73 g/m*3 -0.9 C 0 km/h
2542 31-01-2009 04:35:26 -0.9 C 2.73 g/m*3 -0.9 C 0 km/h
2543 31-01-2009 04:47:26 -0.9 C 2.78 g/m*3 -0.9 C 0 km/h
2544 31-01-2009 04:59:27 -0.9 C 2.73 g/m*3 -0.9 C 0 km/h
2545 31-01-2009 05:11:27 -0.9 C 2.73 g/m*3 -0.9 C 0 km/h
2546 31-01-2009 05:23:27 -0.8 C 2.7 g/m*3 -0.8 C 0 km/h
2547 31-01-2009 05:35:27 -0.8 C 2.66 g/m*3 -0.8 C 0 km/h
2548 31-01-2009 05:47:27 -0.7 C 2.68 g/m*3 -0.7 C 0 km/h
2549 31-01-2009 05:59:27 -0.7 C 2.72 g/m*3 -0.7 C 0 km/h
2550 31-01-2009 06:11:27 -0.7 C 2.68 g/m*3 -0.7 C 0 km/h
Sensor: Nr:Datum:Temp:Abs-Feuchte:Windchill:Wind:
Aussen-T/F 2551 31-01-2009 06:23:27 -0.7 C 2.68 g/m*3 -0.7 C 0 km/h
2552 31-01-2009 06:35:27 -0.6 C 2.65 g/m*3 -0.6 C 0 km/h
2553 31-01-2009 06:47:27 -0.6 C 2.6 g/m*3 -0.6 C 0 km/h
2554 31-01-2009 06:59:27 -0.6 C 2.6 g/m*3 -0.6 C 0 km/h
2555 31-01-2009 07:11:27 -0.6 C 2.6 g/m*3 -0.6 C 0 km/h
2556 31-01-2009 07:23:27 -0.6 C 2.6 g/m*3 -0.6 C 0 km/h
2557 31-01-2009 07:35:27 -0.6 C 2.6 g/m*3 -0.6 C 0 km/h
2558 31-01-2009 07:47:27 -0.6 C 2.6 g/m*3 -0.6 C 0 km/h
2559 31-01-2009 07:59:27 -0.5 C 2.57 g/m*3 -0.5 C 0 km/h
2560 31-01-2009 08:11:27 -0.6 C 2.56 g/m*3 -0.6 C 0 km/h
2561 31-01-2009 08:23:27 -0.5 C 2.57 g/m*3 -0.5 C 0 km/h
2562 31-01-2009 08:35:27 -0.5 C 2.57 g/m*3 -0.5 C 0 km/h
2563 31-01-2009 08:47:27 -0.4 C 2.59 g/m*3 -0.4 C 0 km/h
2564 31-01-2009 08:59:28 -0.4 C 2.59 g/m*3 -0.4 C 0 km/h
2565 31-01-2009 09:11:25 -0.4 C 2.59 g/m*3 -0.4 C 0 km/h
2566 31-01-2009 09:23:25 -0.3 C 2.61 g/m*3 -0.3 C 0 km/h
2567 31-01-2009 09:35:26 -0.3 C 2.56 g/m*3 -0.3 C 0 km/h
2568 31-01-2009 09:47:25 -0.2 C 2.53 g/m*3 -0.2 C 0 km/h
2569 31-01-2009 09:59:25 -0.2 C 2.53 g/m*3 -0.2 C 0 km/h
2570 31-01-2009 10:11:25 -0.1 C 2.55 g/m*3 -0.1 C 0 km/h
2571 31-01-2009 10:23:25 -0.1 C 2.55 g/m*3 -0.1 C 0 km/h
2572 31-01-2009 10:35:25 0 C 2.62 g/m*3 0 C 0 km/h
2573 31-01-2009 10:47:24 0.1 C 2.59 g/m*3 0.1 C 0 km/h
2574 31-01-2009 10:59:24 0.1 C 2.59 g/m*3 0.1 C 0 km/h
2575 31-01-2009 11:11:25 0.2 C 2.55 g/m*3 0.2 C 0 km/h
Sensor: Nr:Datum:Temp:Abs-Feuchte:Windchill:Wind:
Aussen-T/F 2576 31-01-2009 11:23:24 0.3 C 2.57 g/m*3 0.3 C 0 km/h
2577 31-01-2009 11:35:24 0.5 C 2.56 g/m*3 0.5 C 0 km/h
2578 31-01-2009 11:47:23 0.5 C 2.56 g/m*3 0.5 C 0 km/h
2579 31-01-2009 11:59:23 0.6 C 2.52 g/m*3 0.6 C 0 km/h
2580 31-01-2009 12:11:24 0.7 C 2.54 g/m*3 0.7 C 0 km/h
2581 31-01-2009 12:23:23 0.7 C 2.49 g/m*3 0.7 C 0 km/h
2582 31-01-2009 12:35:23 0.6 C 2.47 g/m*3 0.6 C 0 km/h
2583 31-01-2009 12:47:24 0.7 C 2.49 g/m*3 0.7 C 0 km/h
2584 31-01-2009 12:59:24 0.7 C 2.49 g/m*3 0.7 C 0 km/h
2585 31-01-2009 13:11:23 0.6 C 2.42 g/m*3 0.6 C 0 km/h
2586 31-01-2009 13:23:23 0.8 C 2.46 g/m*3 0.8 C 0 km/h
2587 31-01-2009 13:35:23 0.8 C 2.41 g/m*3 0.8 C 0 km/h
2588 31-01-2009 13:47:23 0.8 C 2.41 g/m*3 0.8 C 0 km/h
2589 31-01-2009 13:59:23 0.7 C 2.44 g/m*3 0.7 C 0 km/h
2590 31-01-2009 14:11:22 0.8 C 2.46 g/m*3 0.8 C 0 km/h
2591 31-01-2009 14:23:23 1 C 2.39 g/m*3 1 C 0 km/h
2592 31-01-2009 14:35:22 1.1 C 2.4 g/m*3 1.1 C 0 km/h
2593 31-01-2009 14:47:22 1.3 C 2.44 g/m*3 1.3 C 0 km/h
2594 31-01-2009 14:59:22 1.3 C 2.33 g/m*3 1.3 C 0 km/h
2595 31-01-2009 15:11:22 1.2 C 2.32 g/m*3 1.2 C 0 km/h
2596 31-01-2009 15:23:22 1.5 C 2.26 g/m*3 1.5 C 0 km/h
2597 31-01-2009 15:35:22 2.5 C 2.3 g/m*3 2.5 C 0 km/h
2598 31-01-2009 15:47:22 3.1 C 2.21 g/m*3 3.1 C 0 km/h
2599 31-01-2009 15:59:22 3.3 C 2.24 g/m*3 3.3 C 0 km/h
2600 31-01-2009 16:11:22 2.5 C 2.3 g/m*3 2.5 C 0 km/h
Sensor: Nr:Datum:Temp:Abs-Feuchte:Windchill:Wind:
Aussen-T/F 2601 31-01-2009 16:23:21 1.8 C 2.41 g/m*3 1.8 C 0 km/h
2602 31-01-2009 16:35:21 1.6 C 2.43 g/m*3 1.6 C 0 km/h
2603 31-01-2009 16:47:21 1.4 C 2.45 g/m*3 1.4 C 0 km/h
2604 31-01-2009 16:59:21 0.8 C 2.51 g/m*3 0.8 C 0 km/h
2605 31-01-2009 17:11:21 0.5 C 2.56 g/m*3 0.5 C 0 km/h
2606 31-01-2009 17:23:20 0.2 C 2.51 g/m*3 0.2 C 0 km/h
2607 31-01-2009 17:35:21 0.1 C 2.54 g/m*3 0.1 C 0 km/h
2608 31-01-2009 17:47:20 0.1 C 2.54 g/m*3 0.1 C 0 km/h
2609 31-01-2009 17:59:20 0.1 C 2.49 g/m*3 0.1 C 0 km/h
2610 31-01-2009 18:11:20 0.2 C 2.51 g/m*3 0.2 C 0 km/h
2611 31-01-2009 18:23:20 0.2 C 2.51 g/m*3 0.2 C 0 km/h
2612 31-01-2009 18:35:20 0.4 C 2.44 g/m*3 0.4 C 0 km/h
2613 31-01-2009 18:47:19 0.6 C 2.47 g/m*3 0.6 C 0 km/h
2614 31-01-2009 18:59:19 0.8 C 2.46 g/m*3 0.8 C 0 km/h
2615 31-01-2009 19:11:20 0.8 C 2.46 g/m*3 0.8 C 0 km/h
2616 31-01-2009 19:23:20 0.8 C 2.46 g/m*3 0.8 C 0 km/h
2617 31-01-2009 19:35:19 0.7 C 2.54 g/m*3 0.7 C 0 km/h
2618 31-01-2009 19:47:20 0.7 C 2.49 g/m*3 0.7 C 0 km/h
2619 31-01-2009 19:59:20 0.7 C 2.54 g/m*3 0.7 C 0 km/h
2620 31-01-2009 20:11:19 1 C 2.44 g/m*3 1 C 0 km/h
2621 31-01-2009 20:23:19 1.1 C 2.35 g/m*3 1.1 C 0 km/h
2622 31-01-2009 20:35:18 1 C 2.39 g/m*3 1 C 0 km/h
2623 31-01-2009 20:47:19 1.1 C 2.3 g/m*3 1.1 C 0 km/h
2624 31-01-2009 20:59:19 1.2 C 2.32 g/m*3 1.2 C 0 km/h
2625 31-01-2009 21:11:18 1.2 C 2.26 g/m*3 1.2 C 0 km/h
Sensor: Nr:Datum:Temp:Abs-Feuchte:Windchill:Wind:
Aussen-T/F 2626 31-01-2009 21:23:19 1.1 C 2.3 g/m*3 1.1 C 0 km/h
2627 31-01-2009 21:35:18 1.2 C 2.21 g/m*3 1.2 C 0 km/h
2628 31-01-2009 21:47:18 1 C 2.23 g/m*3 1 C 0 km/h
2629 31-01-2009 21:59:18 1 C 2.28 g/m*3 1 C 0 km/h
2630 31-01-2009 22:11:18 0.7 C 2.39 g/m*3 0.7 C 0 km/h
2631 31-01-2009 22:24:20 0.6 C 2.42 g/m*3 0.6 C 0 km/h
2632 31-01-2009 22:36:20 0.5 C 2.46 g/m*3 0.5 C 0 km/h
2633 31-01-2009 22:48:20 0.3 C 2.52 g/m*3 0.3 C 0 km/h
2634 31-01-2009 23:00:20 0.5 C 2.61 g/m*3 0.5 C 0 km/h
2635 31-01-2009 23:12:20 0.3 C 2.62 g/m*3 0.3 C 0 km/h
2636 31-01-2009 23:24:20 0 C 2.62 g/m*3 0 C 0 km/h
2637 31-01-2009 23:36:20 -0.3 C 2.61 g/m*3 -0.3 C 0 km/h
2638 31-01-2009 23:48:20 -0.4 C 2.64 g/m*3 -0.4 C 0 km/h
2639 01-02-2009 00:00:20 -0.4 C 2.69 g/m*3 -0.4 C 0 km/h
2640 01-02-2009 00:12:20 -0.3 C 2.66 g/m*3 -0.3 C 0 km/h
2641 01-02-2009 00:24:20 -0.3 C 2.66 g/m*3 -0.3 C 0 km/h
2642 01-02-2009 00:36:20 -0.3 C 2.66 g/m*3 -0.3 C 0 km/h
2643 01-02-2009 00:48:20 -0.2 C 2.63 g/m*3 -0.2 C 0 km/h
2644 01-02-2009 01:00:20 -0.2 C 2.48 g/m*3 -0.2 C 0 km/h
2645 01-02-2009 01:12:20 -0.2 C 2.39 g/m*3 -0.2 C 0 km/h
2646 01-02-2009 01:24:20 -0.2 C 2.34 g/m*3 -0.2 C 0 km/h
2647 01-02-2009 01:36:20 -0.2 C 2.29 g/m*3 -0.2 C 0 km/h
2648 01-02-2009 01:48:21 -0.1 C 2.21 g/m*3 -0.1 C 0 km/h
2649 01-02-2009 02:00:21 -0.1 C 2.17 g/m*3 -0.1 C 0 km/h
2650 01-02-2009 02:12:21 -0.1 C 2.17 g/m*3 -0.1 C 0 km/h
Sensor: Nr:Datum:Temp:Abs-Feuchte:Windchill:Wind:
Aussen-T/F 2651 01-02-2009 02:24:21 -0.1 C 2.17 g/m*3 -0.1 C 0 km/h
2652 01-02-2009 02:36:21 -0.2 C 2.15 g/m*3 -0.2 C 0 km/h
2653 01-02-2009 02:48:21 -0.2 C 2.1 g/m*3 -0.2 C 0 km/h
2654 01-02-2009 03:00:21 -0.1 C 2.02 g/m*3 -0.1 C 0 km/h
2655 01-02-2009 03:12:21 -0.1 C 1.97 g/m*3 -0.1 C 0 km/h
2656 01-02-2009 03:24:21 -0.1 C 2.02 g/m*3 -0.1 C 0 km/h
2657 01-02-2009 03:36:21 -0.2 C 2.01 g/m*3 -0.2 C 0 km/h
2658 01-02-2009 03:48:21 -0.2 C 2.05 g/m*3 -0.2 C 0 km/h
2659 01-02-2009 04:00:21 -0.2 C 1.96 g/m*3 -0.2 C 0 km/h
2660 01-02-2009 04:12:21 -0.1 C 1.97 g/m*3 -0.1 C 0 km/h
2661 01-02-2009 04:24:21 -0.2 C 1.96 g/m*3 -0.2 C 0 km/h
2662 01-02-2009 04:36:21 -0.3 C 2.04 g/m*3 -0.3 C 0 km/h
2663 01-02-2009 04:48:21 -0.4 C 2.12 g/m*3 -0.4 C 0 km/h
2664 01-02-2009 05:00:21 -0.4 C 2.22 g/m*3 -0.4 C 0 km/h
2665 01-02-2009 05:12:21 -0.5 C 2.29 g/m*3 -0.5 C 0 km/h
2666 01-02-2009 05:24:21 -0.4 C 2.36 g/m*3 -0.4 C 0 km/h
2667 01-02-2009 05:36:21 -0.5 C 2.25 g/m*3 -0.5 C 0 km/h
2668 01-02-2009 05:48:22 -0.5 C 2.15 g/m*3 -0.5 C 0 km/h
2669 01-02-2009 06:00:22 -0.6 C 2.09 g/m*3 -0.6 C 0 km/h
2670 01-02-2009 06:12:22 -0.6 C 2.05 g/m*3 -0.6 C 0 km/h
2671 01-02-2009 06:24:22 -0.7 C 1.98 g/m*3 -0.7 C 0 km/h
2672 01-02-2009 06:36:22 -0.7 C 1.98 g/m*3 -0.7 C 0 km/h
2673 01-02-2009 06:48:22 -0.8 C 1.97 g/m*3 -0.8 C 0 km/h
2674 01-02-2009 07:00:22 -0.9 C 1.96 g/m*3 -0.9 C 0 km/h
2675 01-02-2009 07:12:22 -0.9 C 1.96 g/m*3 -0.9 C 0 km/h
Sensor: Nr:Datum:Temp:Abs-Feuchte:Windchill:Wind:
Aussen-T/F 2676 01-02-2009 07:24:22 -1 C 1.94 g/m*3 -1 C 0 km/h
2677 01-02-2009 07:36:22 -1 C 1.94 g/m*3 -1 C 0 km/h
2678 01-02-2009 07:48:22 -1 C 1.99 g/m*3 -1 C 0 km/h
2679 01-02-2009 08:00:22 -1.1 C 2.02 g/m*3 -1.1 C 0 km/h
2680 01-02-2009 08:12:22 -1.1 C 2.02 g/m*3 -1.1 C 0 km/h
2681 01-02-2009 08:24:22 -1.1 C 2.07 g/m*3 -1.1 C 0 km/h
2682 01-02-2009 08:36:19 -1.1 C 2.11 g/m*3 -1.1 C 0 km/h
2683 01-02-2009 08:48:19 -1.1 C 2.11 g/m*3 -1.1 C 0 km/h
2684 01-02-2009 09:00:19 -1 C 2.12 g/m*3 -1 C 0 km/h
2685 01-02-2009 09:12:19 -0.9 C 2.14 g/m*3 -0.9 C 0 km/h
2686 01-02-2009 09:24:18 -0.8 C 2.15 g/m*3 -0.8 C 0 km/h
2687 01-02-2009 09:36:19 -0.8 C 2.15 g/m*3 -0.8 C 0 km/h
2688 01-02-2009 09:48:18 -0.8 C 2.15 g/m*3 -0.8 C 0 km/h
2689 01-02-2009 10:00:18 -0.6 C 2.14 g/m*3 -0.6 C 0 km/h
2690 01-02-2009 10:12:18 -0.4 C 2.17 g/m*3 -0.4 C 0 km/h
2691 01-02-2009 10:24:18 -0.2 C 2.2 g/m*3 -0.2 C 0 km/h
2692 01-02-2009 10:36:18 -0.1 C 2.12 g/m*3 -0.1 C 0 km/h
2693 01-02-2009 10:48:17 0 C 2.18 g/m*3 0 C 0 km/h
2694 01-02-2009 11:00:18 0 C 2.13 g/m*3 0 C 0 km/h
2695 01-02-2009 11:12:18 0.2 C 2.16 g/m*3 0.2 C 0 km/h
2696 01-02-2009 11:24:18 0.1 C 2.15 g/m*3 0.1 C 0 km/h
2697 01-02-2009 11:36:17 0.4 C 2.24 g/m*3 0.4 C 0 km/h
2698 01-02-2009 11:48:18 0.6 C 2.12 g/m*3 0.6 C 0 km/h
2699 01-02-2009 12:00:17 0.8 C 2.15 g/m*3 0.8 C 0 km/h
2700 01-02-2009 12:12:17 1 C 2.08 g/m*3 1 C 0 km/h
Sensor: Nr:Datum:Temp:Abs-Feuchte:Windchill:Wind:
Aussen-T/F 2701 01-02-2009 12:24:17 1.1 C 2.14 g/m*3 1.1 C 0 km/h
2702 01-02-2009 12:36:17 0.5 C 2.21 g/m*3 0.5 C 0 km/h
2703 01-02-2009 12:48:17 0.5 C 2.31 g/m*3 0.5 C 0 km/h
2704 01-02-2009 13:00:16 0.8 C 2.41 g/m*3 0.8 C 0 km/h
2705 01-02-2009 13:12:16 0.9 C 2.32 g/m*3 0.9 C 0 km/h
2706 01-02-2009 13:24:17 1.2 C 2.16 g/m*3 1.2 C 0 km/h
2707 01-02-2009 13:36:17 1.3 C 2.12 g/m*3 1.3 C 0 km/h
2708 01-02-2009 13:48:16 1.5 C 2.09 g/m*3 1.5 C 0 km/h
2709 01-02-2009 14:00:16 1.8 C 2.19 g/m*3 1.8 C 0 km/h
2710 01-02-2009 14:12:16 2.1 C 2.07 g/m*3 2.1 C 0 km/h
2711 01-02-2009 14:24:16 2.5 C 2.01 g/m*3 2.5 C 0 km/h
2712 01-02-2009 14:36:15 2.1 C 1.96 g/m*3 2.1 C 0 km/h
2713 01-02-2009 14:48:16 1.8 C 1.97 g/m*3 1.8 C 0 km/h
2714 01-02-2009 15:00:15 1.9 C 2.1 g/m*3 1.9 C 0 km/h
2715 01-02-2009 15:12:15 1.7 C 2.01 g/m*3 1.7 C 0 km/h
2716 01-02-2009 15:24:15 1.6 C 2.11 g/m*3 1.6 C 0 km/h
2717 01-02-2009 15:36:16 1.4 C 2.08 g/m*3 1.4 C 0 km/h
2718 01-02-2009 15:48:15 1.3 C 2.07 g/m*3 1.3 C 0 km/h
2719 01-02-2009 16:00:15 1 C 2.08 g/m*3 1 C 0 km/h
2720 01-02-2009 16:12:15 1 C 2.13 g/m*3 1 C 0 km/h
2721 01-02-2009 16:24:14 0.9 C 2.22 g/m*3 0.9 C 0 km/h
2722 01-02-2009 16:36:15 0.8 C 2.25 g/m*3 0.8 C 0 km/h
2723 01-02-2009 16:48:14 0.7 C 2.29 g/m*3 0.7 C 0 km/h
2724 01-02-2009 17:00:14 0.6 C 2.32 g/m*3 0.6 C 0 km/h
2725 01-02-2009 17:12:14 0.6 C 2.47 g/m*3 0.6 C 0 km/h
Sensor: Nr:Datum:Temp:Abs-Feuchte:Windchill:Wind:
Aussen-T/F 2726 01-02-2009 17:24:14 0.4 C 2.49 g/m*3 0.4 C 0 km/h
2727 01-02-2009 17:36:14 0.3 C 2.52 g/m*3 0.3 C 0 km/h
2728 01-02-2009 17:48:13 0.2 C 2.51 g/m*3 0.2 C 0 km/h
2729 01-02-2009 18:00:14 0.2 C 2.51 g/m*3 0.2 C 0 km/h
2730 01-02-2009 18:12:14 0.2 C 2.46 g/m*3 0.2 C 0 km/h
2731 01-02-2009 18:24:13 0.1 C 2.44 g/m*3 0.1 C 0 km/h
2732 01-02-2009 18:36:13 0 C 2.47 g/m*3 0 C 0 km/h
2733 01-02-2009 18:48:13 -0.1 C 2.5 g/m*3 -0.1 C 0 km/h
2734 01-02-2009 19:00:13 -0.2 C 2.53 g/m*3 -0.2 C 0 km/h
2735 01-02-2009 19:12:13 -0.4 C 2.5 g/m*3 -0.4 C 0 km/h
2736 01-02-2009 19:24:13 -0.5 C 2.53 g/m*3 -0.5 C 0 km/h
2737 01-02-2009 19:36:13 -0.6 C 2.46 g/m*3 -0.6 C 0 km/h
2738 01-02-2009 19:48:13 -0.7 C 2.45 g/m*3 -0.7 C 0 km/h
2739 01-02-2009 20:00:12 -0.8 C 2.43 g/m*3 -0.8 C 0 km/h
2740 01-02-2009 20:12:12 -0.9 C 2.41 g/m*3 -0.9 C 0 km/h
2741 01-02-2009 20:24:13 -1 C 2.4 g/m*3 -1 C 0 km/h
2742 01-02-2009 20:36:12 -1 C 2.4 g/m*3 -1 C 0 km/h
2743 01-02-2009 20:48:12 -1.1 C 2.38 g/m*3 -1.1 C 0 km/h
2744 01-02-2009 21:00:12 -1.2 C 2.36 g/m*3 -1.2 C 0 km/h
2745 01-02-2009 21:12:13 -1.1 C 2.38 g/m*3 -1.1 C 0 km/h
2746 01-02-2009 21:24:11 -1 C 2.4 g/m*3 -1 C 0 km/h
2747 01-02-2009 21:36:12 -1 C 2.35 g/m*3 -1 C 0 km/h
2748 01-02-2009 21:48:11 -1 C 2.35 g/m*3 -1 C 0 km/h
2749 01-02-2009 22:00:11 -0.9 C 2.37 g/m*3 -0.9 C 0 km/h
2750 01-02-2009 22:12:11 -1 C 2.35 g/m*3 -1 C 0 km/h
Sensor: Nr:Datum:Temp:Abs-Feuchte:Windchill:Wind:
Aussen-T/F 2751 01-02-2009 22:24:12 -1 C 2.35 g/m*3 -1 C 0 km/h
2752 01-02-2009 22:36:11 -0.9 C 2.37 g/m*3 -0.9 C 0 km/h
2753 01-02-2009 22:49:13 -1 C 2.35 g/m*3 -1 C 0 km/h
2754 01-02-2009 23:01:13 -1 C 2.35 g/m*3 -1 C 0 km/h
2755 01-02-2009 23:13:13 -1.1 C 2.38 g/m*3 -1.1 C 0 km/h
2756 01-02-2009 23:25:13 -1.1 C 2.38 g/m*3 -1.1 C 0 km/h
2757 01-02-2009 23:37:13 -1.2 C 2.36 g/m*3 -1.2 C 0 km/h
2758 01-02-2009 23:49:13 -1.1 C 2.42 g/m*3 -1.1 C 0 km/h
2759 02-02-2009 00:01:13 -1 C 2.44 g/m*3 -1 C 0 km/h
2760 02-02-2009 00:13:13 -1 C 2.44 g/m*3 -1 C 0 km/h
2761 02-02-2009 00:25:13 -1.2 C 2.41 g/m*3 -1.2 C 0 km/h
2762 02-02-2009 00:37:13 -1.4 C 2.42 g/m*3 -1.4 C 0 km/h
2763 02-02-2009 00:49:13 -1.7 C 2.41 g/m*3 -1.7 C 0 km/h
2764 02-02-2009 01:01:13 -1.8 C 2.39 g/m*3 -1.8 C 0 km/h
2765 02-02-2009 01:13:13 -1.8 C 2.44 g/m*3 -1.8 C 0 km/h
2766 02-02-2009 01:25:13 -2.1 C 2.43 g/m*3 -2.1 C 0 km/h
2767 02-02-2009 01:37:13 -2.1 C 2.47 g/m*3 -2.1 C 0 km/h
2768 02-02-2009 01:49:13 -2.3 C 2.44 g/m*3 -2.3 C 0 km/h
2769 02-02-2009 02:01:14 -2.3 C 2.48 g/m*3 -2.3 C 0 km/h
2770 02-02-2009 02:13:14 -2.1 C 2.55 g/m*3 -2.1 C 0 km/h
2771 02-02-2009 02:25:14 -1.9 C 2.55 g/m*3 -1.9 C 0 km/h
2772 02-02-2009 02:37:14 -1.7 C 2.58 g/m*3 -1.7 C 0 km/h
2773 02-02-2009 02:49:14 -1.5 C 2.58 g/m*3 -1.5 C 0 km/h
2774 02-02-2009 03:01:14 -1.3 C 2.57 g/m*3 -1.3 C 0 km/h
2775 02-02-2009 03:13:14 -1.3 C 2.52 g/m*3 -1.3 C 0 km/h
Sensor: Nr:Datum:Temp:Abs-Feuchte:Windchill:Wind:
Aussen-T/F 2776 02-02-2009 03:25:14 -1.3 C 2.52 g/m*3 -1.3 C 0 km/h
2777 02-02-2009 03:37:14 -1.2 C 2.54 g/m*3 -1.2 C 0 km/h
2778 02-02-2009 03:49:14 -1.1 C 2.56 g/m*3 -1.1 C 0 km/h
2779 02-02-2009 04:01:14 -1 C 2.58 g/m*3 -1 C 0 km/h
2780 02-02-2009 04:13:14 -0.8 C 2.57 g/m*3 -0.8 C 0 km/h
2781 02-02-2009 04:25:14 -0.7 C 2.58 g/m*3 -0.7 C 0 km/h
2782 02-02-2009 04:37:14 -0.7 C 2.54 g/m*3 -0.7 C 0 km/h
2783 02-02-2009 04:49:14 -0.8 C 2.52 g/m*3 -0.8 C 0 km/h
2784 02-02-2009 05:01:14 -0.8 C 2.57 g/m*3 -0.8 C 0 km/h
2785 02-02-2009 05:13:14 -0.8 C 2.57 g/m*3 -0.8 C 0 km/h
2786 02-02-2009 05:25:14 -0.8 C 2.57 g/m*3 -0.8 C 0 km/h
2787 02-02-2009 05:37:14 -0.7 C 2.58 g/m*3 -0.7 C 0 km/h
2788 02-02-2009 05:49:15 -0.8 C 2.61 g/m*3 -0.8 C 0 km/h
2789 02-02-2009 06:01:15 -0.7 C 2.58 g/m*3 -0.7 C 0 km/h
2790 02-02-2009 06:13:15 -0.8 C 2.61 g/m*3 -0.8 C 0 km/h
2791 02-02-2009 06:25:15 -0.8 C 2.66 g/m*3 -0.8 C 0 km/h
2792 02-02-2009 06:37:15 -0.8 C 2.66 g/m*3 -0.8 C 0 km/h
2793 02-02-2009 06:49:12 -0.8 C 2.66 g/m*3 -0.8 C 0 km/h
2794 02-02-2009 07:01:12 -0.9 C 2.64 g/m*3 -0.9 C 0 km/h
2795 02-02-2009 07:13:12 -0.9 C 2.69 g/m*3 -0.9 C 0 km/h
2796 02-02-2009 07:25:12 -0.8 C 2.75 g/m*3 -0.8 C 0 km/h
2797 02-02-2009 07:37:12 -0.6 C 2.79 g/m*3 -0.6 C 0 km/h
2798 02-02-2009 07:49:11 -0.5 C 2.86 g/m*3 -0.5 C 0 km/h
2799 02-02-2009 08:01:11 -0.5 C 2.86 g/m*3 -0.5 C 0 km/h
2800 02-02-2009 08:13:12 -0.4 C 2.83 g/m*3 -0.4 C 0 km/h
Sensor: Nr:Datum:Temp:Abs-Feuchte:Windchill:Wind:
Aussen-T/F 2801 02-02-2009 08:25:11 -0.3 C 2.8 g/m*3 -0.3 C 0 km/h
2802 02-02-2009 08:37:11 -0.6 C 2.79 g/m*3 -0.6 C 0 km/h
2803 02-02-2009 08:49:10 -0.8 C 2.8 g/m*3 -0.8 C 0 km/h
2804 02-02-2009 09:01:11 -0.7 C 2.77 g/m*3 -0.7 C 0 km/h
2805 02-02-2009 09:13:11 -0.5 C 2.81 g/m*3 -0.5 C 0 km/h
2806 02-02-2009 09:25:11 -0.2 C 2.72 g/m*3 -0.2 C 0 km/h
2807 02-02-2009 09:37:10 -0.2 C 2.77 g/m*3 -0.2 C 0 km/h
2808 02-02-2009 09:49:11 -0.1 C 2.79 g/m*3 -0.1 C 0 km/h
2809 02-02-2009 10:01:10 0.1 C 2.78 g/m*3 0.1 C 0 km/h
2810 02-02-2009 10:13:10 0.3 C 2.77 g/m*3 0.3 C 0 km/h
2811 02-02-2009 10:25:10 0.4 C 2.74 g/m*3 0.4 C 0 km/h
2812 02-02-2009 10:37:09 0.9 C 2.73 g/m*3 0.9 C 0 km/h
2813 02-02-2009 10:49:10 1.2 C 2.74 g/m*3 1.2 C 0 km/h
2814 02-02-2009 11:01:10 1.5 C 2.69 g/m*3 1.5 C 0 km/h
2815 02-02-2009 11:13:10 1.8 C 2.69 g/m*3 1.8 C 0 km/h
2816 02-02-2009 11:25:09 2.1 C 2.63 g/m*3 2.1 C 0 km/h
2817 02-02-2009 11:37:10 2.5 C 2.64 g/m*3 2.5 C 0 km/h
2818 02-02-2009 11:49:09 2.8 C 2.7 g/m*3 2.8 C 0 km/h
2819 02-02-2009 12:01:09 3.3 C 2.73 g/m*3 3.3 C 0 km/h
2820 02-02-2009 12:13:09 4 C 2.67 g/m*3 4 C 0 km/h
2821 02-02-2009 12:25:09 4.2 C 2.58 g/m*3 4.2 C 0 km/h
2822 02-02-2009 12:37:09 4.4 C 2.48 g/m*3 4.4 C 0 km/h
2823 02-02-2009 12:49:08 4.6 C 2.51 g/m*3 4.6 C 0 km/h
2824 02-02-2009 13:01:09 4.6 C 2.45 g/m*3 4.6 C 0 km/h
2825 02-02-2009 13:13:09 4.7 C 2.53 g/m*3 4.7 C 0 km/h
Sensor: Nr:Datum:Temp:Abs-Feuchte:Windchill:Wind:
Aussen-T/F 2826 02-02-2009 13:25:08 4.8 C 2.55 g/m*3 4.8 C 0 km/h
2827 02-02-2009 13:37:08 4.9 C 2.5 g/m*3 4.9 C 0 km/h
2828 02-02-2009 13:49:08 5 C 2.45 g/m*3 5 C 0 km/h
2829 02-02-2009 14:01:08 5.3 C 2.5 g/m*3 5.3 C 0 km/h
2830 02-02-2009 14:13:08 5.3 C 2.5 g/m*3 5.3 C 0 km/h
2831 02-02-2009 14:25:08 5.4 C 2.51 g/m*3 5.4 C 0 km/h
2832 02-02-2009 14:37:07 5.1 C 2.53 g/m*3 5.1 C 0 km/h
2833 02-02-2009 14:49:08 5.1 C 2.67 g/m*3 5.1 C 0 km/h
2834 02-02-2009 15:01:07 5.2 C 2.62 g/m*3 5.2 C 0 km/h
2835 02-02-2009 15:13:07 5.1 C 2.67 g/m*3 5.1 C 0 km/h
2836 02-02-2009 15:25:07 5.1 C 2.67 g/m*3 5.1 C 0 km/h
2837 02-02-2009 15:37:07 5.1 C 2.67 g/m*3 5.1 C 0 km/h
2838 02-02-2009 15:49:07 5 C 2.72 g/m*3 5 C 0 km/h
2839 02-02-2009 16:01:06 4.9 C 2.7 g/m*3 4.9 C 0 km/h
2840 02-02-2009 16:13:06 4.6 C 2.78 g/m*3 4.6 C 0 km/h
2841 02-02-2009 16:25:07 4.3 C 2.79 g/m*3 4.3 C 0 km/h
2842 02-02-2009 16:37:07 3.9 C 2.91 g/m*3 3.9 C 0 km/h
2843 02-02-2009 16:49:06 3.7 C 2.93 g/m*3 3.7 C 0 km/h
2844 02-02-2009 17:01:06 3.5 C 2.95 g/m*3 3.5 C 0 km/h
2845 02-02-2009 17:13:06 3.3 C 2.97 g/m*3 3.3 C 0 km/h
2846 02-02-2009 17:25:06 3.1 C 2.99 g/m*3 3.1 C 0 km/h
2847 02-02-2009 17:37:06 3.1 C 2.99 g/m*3 3.1 C 0 km/h
2848 02-02-2009 17:49:06 3 C 3.03 g/m*3 3 C 0 km/h
2849 02-02-2009 18:01:05 2.6 C 3.07 g/m*3 2.6 C 0 km/h
2850 02-02-2009 18:13:05 2.7 C 3.09 g/m*3 2.7 C 0 km/h
Sensor: Nr:Datum:Temp:Abs-Feuchte:Windchill:Wind:
Aussen-T/F 2851 02-02-2009 18:25:06 2.6 C 3.07 g/m*3 2.6 C 0 km/h
2852 02-02-2009 18:37:06 2.2 C 3.1 g/m*3 2.2 C 0 km/h
2853 02-02-2009 18:49:06 2.1 C 3.13 g/m*3 2.1 C 0 km/h
2854 02-02-2009 19:01:06 1.8 C 3.18 g/m*3 1.8 C 0 km/h
2855 02-02-2009 19:13:06 1.5 C 3.17 g/m*3 1.5 C 0 km/h
2856 02-02-2009 19:25:05 1.3 C 3.23 g/m*3 1.3 C 0 km/h
2857 02-02-2009 19:37:05 1.1 C 3.24 g/m*3 1.1 C 0 km/h
2858 02-02-2009 19:49:04 1.3 C 3.28 g/m*3 1.3 C 0 km/h
2859 02-02-2009 20:01:05 1.2 C 3.21 g/m*3 1.2 C 0 km/h
2860 02-02-2009 20:13:05 1 C 3.27 g/m*3 1 C 0 km/h
2861 02-02-2009 20:25:04 1.3 C 3.34 g/m*3 1.3 C 0 km/h
2862 02-02-2009 20:37:04 1.2 C 3.26 g/m*3 1.2 C 0 km/h
2863 02-02-2009 20:49:05 1.4 C 3.31 g/m*3 1.4 C 0 km/h
2864 02-02-2009 21:01:03 1.6 C 3.35 g/m*3 1.6 C 0 km/h
2865 02-02-2009 21:13:03 1.3 C 3.28 g/m*3 1.3 C 0 km/h
2866 02-02-2009 21:26:05 1.5 C 3.33 g/m*3 1.5 C 0 km/h
2867 02-02-2009 21:38:05 1.4 C 3.31 g/m*3 1.4 C 0 km/h
2868 02-02-2009 21:50:06 1.2 C 3.26 g/m*3 1.2 C 0 km/h
2869 02-02-2009 22:02:06 1.1 C 3.34 g/m*3 1.1 C 0 km/h
2870 02-02-2009 22:14:06 0.8 C 3.33 g/m*3 0.8 C 0 km/h
2871 02-02-2009 22:26:06 0.6 C 3.43 g/m*3 0.6 C 0 km/h
2872 02-02-2009 22:38:06 0.4 C 3.44 g/m*3 0.4 C 0 km/h
2873 02-02-2009 22:50:06 0.3 C 3.46 g/m*3 0.3 C 0 km/h
2874 02-02-2009 23:02:06 0.1 C 3.42 g/m*3 0.1 C 0 km/h
2875 02-02-2009 23:14:06 0 C 3.44 g/m*3 0 C 0 km/h
Sensor: Nr:Datum:Temp:Abs-Feuchte:Windchill:Wind:
Aussen-T/F 2876 02-02-2009 23:26:06 -0.1 C 3.46 g/m*3 -0.1 C 0 km/h
2877 02-02-2009 23:38:06 -0.3 C 3.42 g/m*3 -0.3 C 0 km/h
2878 02-02-2009 23:50:06 -0.3 C 3.46 g/m*3 -0.3 C 0 km/h
2879 03-02-2009 00:02:06 -0.4 C 3.49 g/m*3 -0.4 C 0 km/h
2880 03-02-2009 00:14:06 -0.5 C 3.46 g/m*3 -0.5 C 0 km/h
2881 03-02-2009 00:26:06 -0.7 C 3.42 g/m*3 -0.7 C 0 km/h
2882 03-02-2009 00:38:06 -0.9 C 3.41 g/m*3 -0.9 C 0 km/h
2883 03-02-2009 00:50:06 -1.1 C 3.37 g/m*3 -1.1 C 0 km/h
2884 03-02-2009 01:02:06 -1.2 C 3.43 g/m*3 -1.2 C 0 km/h
2885 03-02-2009 01:14:06 -1.3 C 3.41 g/m*3 -1.3 C 0 km/h
2886 03-02-2009 01:26:06 -1.3 C 3.45 g/m*3 -1.3 C 0 km/h
2887 03-02-2009 01:38:06 -1.4 C 3.43 g/m*3 -1.4 C 0 km/h
2888 03-02-2009 01:50:07 -1.4 C 3.47 g/m*3 -1.4 C 0 km/h
2889 03-02-2009 02:02:07 -1.4 C 3.47 g/m*3 -1.4 C 0 km/h
2890 03-02-2009 02:14:07 -1.4 C 3.52 g/m*3 -1.4 C 0 km/h
2891 03-02-2009 02:26:07 -1.4 C 3.56 g/m*3 -1.4 C 0 km/h
2892 03-02-2009 02:38:07 -1.6 C 3.51 g/m*3 -1.6 C 0 km/h
2893 03-02-2009 02:50:07 -1.7 C 3.49 g/m*3 -1.7 C 0 km/h
2894 03-02-2009 03:02:07 -1.7 C 3.49 g/m*3 -1.7 C 0 km/h
2895 03-02-2009 03:14:07 -1.9 C 3.44 g/m*3 -1.9 C 0 km/h
2896 03-02-2009 03:26:07 -2 C 3.41 g/m*3 -2 C 0 km/h
2897 03-02-2009 03:38:07 -1.9 C 3.44 g/m*3 -1.9 C 0 km/h
2898 03-02-2009 03:50:07 -2 C 3.46 g/m*3 -2 C 0 km/h
2899 03-02-2009 04:02:07 -2.1 C 3.43 g/m*3 -2.1 C 0 km/h
2900 03-02-2009 04:14:07 -2.3 C 3.38 g/m*3 -2.3 C 0 km/h
Sensor: Nr:Datum:Temp:Abs-Feuchte:Windchill:Wind:
Aussen-T/F 2901 03-02-2009 04:26:07 -2.3 C 3.43 g/m*3 -2.3 C 0 km/h
2902 03-02-2009 04:38:07 -2.3 C 3.43 g/m*3 -2.3 C 0 km/h
2903 03-02-2009 04:50:07 -2.5 C 3.38 g/m*3 -2.5 C 0 km/h
2904 03-02-2009 05:02:07 -2.3 C 3.43 g/m*3 -2.3 C 0 km/h
2905 03-02-2009 05:14:07 -2.3 C 3.47 g/m*3 -2.3 C 0 km/h
2906 03-02-2009 05:26:07 -2.4 C 3.44 g/m*3 -2.4 C 0 km/h
2907 03-02-2009 05:38:08 -2.4 C 3.44 g/m*3 -2.4 C 0 km/h
2908 03-02-2009 05:50:08 -2.6 C 3.39 g/m*3 -2.6 C 0 km/h
2909 03-02-2009 06:02:08 -2.6 C 3.39 g/m*3 -2.6 C 0 km/h
2910 03-02-2009 06:14:08 -2.6 C 3.39 g/m*3 -2.6 C 0 km/h
2911 03-02-2009 06:26:08 -2.8 C 3.35 g/m*3 -2.8 C 0 km/h
2912 03-02-2009 06:38:08 -2.8 C 3.35 g/m*3 -2.8 C 0 km/h
2913 03-02-2009 06:50:08 -2.9 C 3.32 g/m*3 -2.9 C 0 km/h
2914 03-02-2009 07:02:04 -3 C 3.3 g/m*3 -3 C 0 km/h
2915 03-02-2009 07:14:05 -3 C 3.3 g/m*3 -3 C 0 km/h
2916 03-02-2009 07:26:05 -3 C 3.3 g/m*3 -3 C 0 km/h
2917 03-02-2009 07:38:04 -3 C 3.3 g/m*3 -3 C 0 km/h
2918 03-02-2009 07:50:04 -3.1 C 3.28 g/m*3 -3.1 C 0 km/h
2919 03-02-2009 08:02:04 -3.1 C 3.28 g/m*3 -3.1 C 0 km/h
2920 03-02-2009 08:14:04 -3.1 C 3.28 g/m*3 -3.1 C 0 km/h
2921 03-02-2009 08:26:04 -3.1 C 3.28 g/m*3 -3.1 C 0 km/h
2922 03-02-2009 08:38:03 -2.8 C 3.35 g/m*3 -2.8 C 0 km/h
2923 03-02-2009 08:50:04 -2.7 C 3.37 g/m*3 -2.7 C 0 km/h
2924 03-02-2009 09:02:04 -2.7 C 3.37 g/m*3 -2.7 C 0 km/h
2925 03-02-2009 09:14:03 -2.7 C 3.37 g/m*3 -2.7 C 0 km/h
Sensor: Nr:Datum:Temp:Abs-Feuchte:Windchill:Wind:
Aussen-T/F 2926 03-02-2009 09:26:03 -2.5 C 3.42 g/m*3 -2.5 C 0 km/h
2927 03-02-2009 09:38:03 -2.3 C 3.47 g/m*3 -2.3 C 0 km/h
2928 03-02-2009 09:50:03 -2.1 C 3.52 g/m*3 -2.1 C 0 km/h
2929 03-02-2009 10:02:03 -1.9 C 3.57 g/m*3 -1.9 C 0 km/h
2930 03-02-2009 10:14:02 -1.8 C 3.59 g/m*3 -1.8 C 0 km/h
2931 03-02-2009 10:26:02 -1.6 C 3.64 g/m*3 -1.6 C 0 km/h
2932 03-02-2009 10:38:03 -1.3 C 3.72 g/m*3 -1.3 C 0 km/h
2933 03-02-2009 10:50:02 -0.9 C 3.82 g/m*3 -0.9 C 0 km/h
2934 03-02-2009 11:02:02 -0.2 C 4.06 g/m*3 -0.2 C 0 km/h
2935 03-02-2009 11:14:03 0.3 C 4.16 g/m*3 0.3 C 0 km/h
2936 03-02-2009 11:26:03 0.6 C 4.24 g/m*3 0.6 C 0 km/h
2937 03-02-2009 11:38:02 1 C 4.2 g/m*3 1 C 0 km/h
2938 03-02-2009 11:50:02 1.2 C 4.21 g/m*3 1.2 C 0 km/h
2939 03-02-2009 12:02:01 1.4 C 4.21 g/m*3 1.4 C 0 km/h
2940 03-02-2009 12:14:02 2 C 4.28 g/m*3 2 C 0 km/h
2941 03-02-2009 12:26:02 2.5 C 4.31 g/m*3 2.5 C 0 km/h
2942 03-02-2009 12:38:01 3 C 4.22 g/m*3 3 C 0 km/h
2943 03-02-2009 12:50:01 3.2 C 4.1 g/m*3 3.2 C 0 km/h
2944 03-02-2009 13:02:01 3.7 C 4.05 g/m*3 3.7 C 0 km/h
2945 03-02-2009 13:14:01 4.2 C 3.99 g/m*3 4.2 C 0 km/h
2946 03-02-2009 13:26:01 4.7 C 4.06 g/m*3 4.7 C 0 km/h
2947 03-02-2009 13:38:01 5.5 C 3.93 g/m*3 5.5 C 0 km/h
2948 03-02-2009 13:50:01 5.9 C 3.89 g/m*3 5.9 C 0 km/h
2949 03-02-2009 14:02:01 6 C 3.77 g/m*3 6 C 0 km/h
2950 03-02-2009 14:14:00 6.5 C 3.75 g/m*3 6.5 C 0 km/h
Sensor: Nr:Datum:Temp:Abs-Feuchte:Windchill:Wind:
Aussen-T/F 2951 03-02-2009 14:26:00 6.3 C 3.63 g/m*3 6.3 C 0 km/h
2952 03-02-2009 14:38:00 6.2 C 3.68 g/m*3 6.2 C 0 km/h
2953 03-02-2009 14:50:00 6.1 C 3.65 g/m*3 6.1 C 0 km/h
2954 03-02-2009 15:02:00 6.2 C 3.75 g/m*3 6.2 C 0 km/h
2955 03-02-2009 15:14:59 5.9 C 3.75 g/m*3 5.9 C 0 km/h
2956 03-02-2009 15:25:59 5.7 C 3.77 g/m*3 5.7 C 0 km/h
2957 03-02-2009 15:38:00 5.8 C 3.8 g/m*3 5.8 C 0 km/h
2958 03-02-2009 15:50:59 5.5 C 3.72 g/m*3 5.5 C 0 km/h
2959 03-02-2009 16:02:59 5.7 C 3.84 g/m*3 5.7 C 0 km/h
2960 03-02-2009 16:14:00 5.8 C 3.8 g/m*3 5.8 C 0 km/h
2961 03-02-2009 16:26:00 5.3 C 3.74 g/m*3 5.3 C 0 km/h
2962 03-02-2009 16:38:59 4.6 C 3.77 g/m*3 4.6 C 0 km/h
2963 03-02-2009 16:50:59 4.1 C 3.78 g/m*3 4.1 C 0 km/h
2964 03-02-2009 17:02:59 3.6 C 3.84 g/m*3 3.6 C 0 km/h
2965 03-02-2009 17:14:59 3.3 C 3.82 g/m*3 3.3 C 0 km/h
2966 03-02-2009 17:26:59 3.1 C 3.89 g/m*3 3.1 C 0 km/h
2967 03-02-2009 17:38:58 2.9 C 3.9 g/m*3 2.9 C 0 km/h
2968 03-02-2009 17:50:59 2.5 C 3.85 g/m*3 2.5 C 0 km/h
2969 03-02-2009 18:02:58 2.3 C 3.91 g/m*3 2.3 C 0 km/h
2970 03-02-2009 18:14:58 2 C 3.89 g/m*3 2 C 0 km/h
2971 03-02-2009 18:26:58 2 C 3.95 g/m*3 2 C 0 km/h
2972 03-02-2009 18:38:58 1.8 C 4 g/m*3 1.8 C 0 km/h
2973 03-02-2009 18:50:58 1.7 C 4.03 g/m*3 1.7 C 0 km/h
2974 03-02-2009 19:02:58 1.7 C 4.03 g/m*3 1.7 C 0 km/h
2975 03-02-2009 19:14:57 1.7 C 4.08 g/m*3 1.7 C 0 km/h
Sensor: Nr:Datum:Temp:Abs-Feuchte:Windchill:Wind:
Aussen-T/F 2976 03-02-2009 19:26:57 1.6 C 4 g/m*3 1.6 C 0 km/h
2977 03-02-2009 19:38:58 1.7 C 4.08 g/m*3 1.7 C 0 km/h
2978 03-02-2009 19:50:57 1.5 C 4.03 g/m*3 1.5 C 0 km/h
2979 03-02-2009 20:02:57 1.3 C 3.97 g/m*3 1.3 C 0 km/h
2980 03-02-2009 20:14:57 1.2 C 4 g/m*3 1.2 C 0 km/h
2981 03-02-2009 20:26:57 1.2 C 4.05 g/m*3 1.2 C 0 km/h
2982 03-02-2009 20:38:57 1.3 C 4.13 g/m*3 1.3 C 0 km/h
2983 03-02-2009 20:50:56 1.3 C 4.19 g/m*3 1.3 C 0 km/h
2984 03-02-2009 21:02:56 1.2 C 4.1 g/m*3 1.2 C 0 km/h
2985 03-02-2009 21:14:57 1 C 4.05 g/m*3 1 C 0 km/h
2986 03-02-2009 21:26:57 1.1 C 4.13 g/m*3 1.1 C 0 km/h
2987 03-02-2009 21:38:56 1.4 C 4.32 g/m*3 1.4 C 0 km/h
2988 03-02-2009 21:50:56 1.5 C 4.35 g/m*3 1.5 C 0 km/h
2989 03-02-2009 22:03:57 1.7 C 4.52 g/m*3 1.7 C 0 km/h
2990 03-02-2009 22:15:57 1.9 C 4.58 g/m*3 1.9 C 0 km/h
2991 03-02-2009 22:27:57 2 C 4.56 g/m*3 2 C 0 km/h
2992 03-02-2009 22:39:57 2.1 C 4.59 g/m*3 2.1 C 0 km/h
2993 03-02-2009 22:51:57 2.1 C 4.53 g/m*3 2.1 C 0 km/h
2994 03-02-2009 23:03:57 2 C 4.5 g/m*3 2 C 0 km/h
2995 03-02-2009 23:15:57 2 C 4.45 g/m*3 2 C 0 km/h
2996 03-02-2009 23:27:57 2.1 C 4.48 g/m*3 2.1 C 0 km/h
2997 03-02-2009 23:39:57 2.1 C 4.48 g/m*3 2.1 C 0 km/h
2998 03-02-2009 23:51:58 2.1 C 4.42 g/m*3 2.1 C 0 km/h
2999 04-02-2009 00:03:58 2.2 C 4.51 g/m*3 2.2 C 0 km/h
3000 04-02-2009 00:15:58 2.2 C 4.45 g/m*3 2.2 C 0 km/h
Sensor: Nr:Datum:Temp:Abs-Feuchte:Windchill:Wind:
Aussen-T/F 3001 04-02-2009 00:27:58 2.2 C 4.45 g/m*3 2.2 C 0 km/h
3002 04-02-2009 00:39:58 2.2 C 4.51 g/m*3 2.2 C 0 km/h
3003 04-02-2009 00:51:58 2.2 C 4.51 g/m*3 2.2 C 0 km/h
3004 04-02-2009 01:03:58 2.3 C 4.54 g/m*3 2.3 C 0 km/h
3005 04-02-2009 01:15:58 2.2 C 4.51 g/m*3 2.2 C 0 km/h
3006 04-02-2009 01:27:58 2.2 C 4.51 g/m*3 2.2 C 0 km/h
3007 04-02-2009 01:39:58 2.2 C 4.51 g/m*3 2.2 C 0 km/h
3008 04-02-2009 01:51:58 2.2 C 4.51 g/m*3 2.2 C 0 km/h
3009 04-02-2009 02:03:58 2.2 C 4.51 g/m*3 2.2 C 0 km/h
3010 04-02-2009 02:15:58 2.2 C 4.45 g/m*3 2.2 C 0 km/h
3011 04-02-2009 02:27:58 2.1 C 4.42 g/m*3 2.1 C 0 km/h
3012 04-02-2009 02:39:58 2.1 C 4.42 g/m*3 2.1 C 0 km/h
3013 04-02-2009 02:51:58 2.1 C 4.42 g/m*3 2.1 C 0 km/h
3014 04-02-2009 03:03:58 2 C 4.45 g/m*3 2 C 0 km/h
3015 04-02-2009 03:15:58 2 C 4.45 g/m*3 2 C 0 km/h
3016 04-02-2009 03:27:58 2 C 4.45 g/m*3 2 C 0 km/h
3017 04-02-2009 03:39:59 2 C 4.45 g/m*3 2 C 0 km/h
3018 04-02-2009 03:51:59 2 C 4.45 g/m*3 2 C 0 km/h
3019 04-02-2009 04:03:59 2 C 4.45 g/m*3 2 C 0 km/h
3020 04-02-2009 04:15:59 1.9 C 4.42 g/m*3 1.9 C 0 km/h
3021 04-02-2009 04:27:59 1.8 C 4.39 g/m*3 1.8 C 0 km/h
3022 04-02-2009 04:39:59 1.8 C 4.39 g/m*3 1.8 C 0 km/h
3023 04-02-2009 04:51:59 1.8 C 4.39 g/m*3 1.8 C 0 km/h
3024 04-02-2009 05:03:59 1.8 C 4.39 g/m*3 1.8 C 0 km/h
3025 04-02-2009 05:15:59 1.8 C 4.39 g/m*3 1.8 C 0 km/h
Sensor: Nr:Datum:Temp:Abs-Feuchte:Windchill:Wind:
Aussen-T/F 3026 04-02-2009 05:27:59 1.8 C 4.39 g/m*3 1.8 C 0 km/h
3027 04-02-2009 05:39:59 1.8 C 4.39 g/m*3 1.8 C 0 km/h
3028 04-02-2009 05:51:59 1.6 C 4.33 g/m*3 1.6 C 0 km/h
3029 04-02-2009 06:03:59 1.5 C 4.3 g/m*3 1.5 C 0 km/h
3030 04-02-2009 06:15:59 1.5 C 4.35 g/m*3 1.5 C 0 km/h
3031 04-02-2009 06:27:59 1.6 C 4.38 g/m*3 1.6 C 0 km/h
3032 04-02-2009 06:39:58 1.6 C 4.43 g/m*3 1.6 C 0 km/h
3033 04-02-2009 06:51:57 1.6 C 4.43 g/m*3 1.6 C 0 km/h
3034 04-02-2009 07:03:57 1.6 C 4.43 g/m*3 1.6 C 0 km/h
3035 04-02-2009 07:15:57 1.6 C 4.43 g/m*3 1.6 C 0 km/h
3036 04-02-2009 07:27:57 1.7 C 4.46 g/m*3 1.7 C 0 km/h
3037 04-02-2009 07:39:57 1.7 C 4.46 g/m*3 1.7 C 0 km/h
3038 04-02-2009 07:51:57 1.7 C 4.46 g/m*3 1.7 C 0 km/h
3039 04-02-2009 08:03:57 1.7 C 4.46 g/m*3 1.7 C 0 km/h
3040 04-02-2009 08:15:56 1.6 C 4.43 g/m*3 1.6 C 0 km/h
3041 04-02-2009 08:27:56 1.7 C 4.46 g/m*3 1.7 C 0 km/h
3042 04-02-2009 08:39:56 1.7 C 4.52 g/m*3 1.7 C 0 km/h
3043 04-02-2009 08:51:56 1.7 C 4.46 g/m*3 1.7 C 0 km/h
3044 04-02-2009 09:03:56 1.7 C 4.46 g/m*3 1.7 C 0 km/h
3045 04-02-2009 09:15:55 1.7 C 4.46 g/m*3 1.7 C 0 km/h
3046 04-02-2009 09:27:55 1.7 C 4.52 g/m*3 1.7 C 0 km/h
3047 04-02-2009 09:39:56 1.8 C 4.55 g/m*3 1.8 C 0 km/h
3048 04-02-2009 09:51:55 1.9 C 4.58 g/m*3 1.9 C 0 km/h
3049 04-02-2009 10:03:55 2.1 C 4.64 g/m*3 2.1 C 0 km/h
3050 04-02-2009 10:15:56 2.2 C 4.62 g/m*3 2.2 C 0 km/h
Sensor: Nr:Datum:Temp:Abs-Feuchte:Windchill:Wind:
Aussen-T/F 3051 04-02-2009 10:27:56 2.3 C 4.65 g/m*3 2.3 C 0 km/h
3052 04-02-2009 10:39:55 2.4 C 4.68 g/m*3 2.4 C 0 km/h
3053 04-02-2009 10:51:55 2.8 C 4.81 g/m*3 2.8 C 0 km/h
3054 04-02-2009 11:03:55 3 C 4.76 g/m*3 3 C 0 km/h
3055 04-02-2009 11:15:55 3.1 C 4.73 g/m*3 3.1 C 0 km/h
3056 04-02-2009 11:27:55 3.1 C 4.67 g/m*3 3.1 C 0 km/h
3057 04-02-2009 11:39:54 3.3 C 4.67 g/m*3 3.3 C 0 km/h
3058 04-02-2009 11:51:54 3.2 C 4.58 g/m*3 3.2 C 0 km/h
3059 04-02-2009 12:03:54 3.1 C 4.55 g/m*3 3.1 C 0 km/h
3060 04-02-2009 12:15:54 3.4 C 4.7 g/m*3 3.4 C 0 km/h
3061 04-02-2009 12:27:54 3.9 C 4.86 g/m*3 3.9 C 0 km/h
3062 04-02-2009 12:39:54 4.1 C 4.93 g/m*3 4.1 C 0 km/h
3063 04-02-2009 12:51:54 4.4 C 5.03 g/m*3 4.4 C 0 km/h
3064 04-02-2009 13:03:54 4.6 C 5.1 g/m*3 4.6 C 0 km/h
3065 04-02-2009 13:15:53 4.8 C 5.1 g/m*3 4.8 C 0 km/h
3066 04-02-2009 13:27:53 5 C 5.03 g/m*3 5 C 0 km/h
3067 04-02-2009 13:39:53 5.3 C 5.06 g/m*3 5.3 C 0 km/h
3068 04-02-2009 13:51:53 5.7 C 5.05 g/m*3 5.7 C 0 km/h
3069 04-02-2009 14:03:53 6 C 4.94 g/m*3 6 C 0 km/h
3070 04-02-2009 14:15:52 6.1 C 4.82 g/m*3 6.1 C 0 km/h
3071 04-02-2009 14:27:52 6.2 C 4.85 g/m*3 6.2 C 0 km/h
3072 04-02-2009 14:39:53 6.2 C 4.85 g/m*3 6.2 C 0 km/h
3073 04-02-2009 14:51:52 5.9 C 4.76 g/m*3 5.9 C 0 km/h
3074 04-02-2009 15:03:52 6 C 4.79 g/m*3 6 C 0 km/h
3075 04-02-2009 15:15:53 6.7 C 4.94 g/m*3 6.7 C 0 km/h
Sensor: Nr:Datum:Temp:Abs-Feuchte:Windchill:Wind:
Aussen-T/F 3076 04-02-2009 15:27:53 6.3 C 4.74 g/m*3 6.3 C 0 km/h
3077 04-02-2009 15:39:52 6.1 C 4.75 g/m*3 6.1 C 0 km/h
3078 04-02-2009 15:51:52 6 C 4.79 g/m*3 6 C 0 km/h
3079 04-02-2009 16:03:52 6.1 C 4.89 g/m*3 6.1 C 0 km/h
3080 04-02-2009 16:15:52 6.1 C 4.89 g/m*3 6.1 C 0 km/h
3081 04-02-2009 16:27:53 5.9 C 4.83 g/m*3 5.9 C 0 km/h
3082 04-02-2009 16:39:51 5.7 C 4.84 g/m*3 5.7 C 0 km/h
3083 04-02-2009 16:51:51 4.7 C 4.73 g/m*3 4.7 C 0 km/h
3084 04-02-2009 17:03:52 4.6 C 4.83 g/m*3 4.6 C 0 km/h
3085 04-02-2009 17:15:51 4.5 C 4.86 g/m*3 4.5 C 0 km/h
3086 04-02-2009 17:27:51 4.5 C 4.86 g/m*3 4.5 C 0 km/h
3087 04-02-2009 17:39:51 4.5 C 4.86 g/m*3 4.5 C 0 km/h
3088 04-02-2009 17:51:51 4.6 C 4.9 g/m*3 4.6 C 0 km/h
3089 04-02-2009 18:03:51 4.4 C 4.83 g/m*3 4.4 C 0 km/h
3090 04-02-2009 18:15:50 4.2 C 4.77 g/m*3 4.2 C 0 km/h
3091 04-02-2009 18:27:50 4 C 4.77 g/m*3 4 C 0 km/h
3092 04-02-2009 18:39:51 3.7 C 4.74 g/m*3 3.7 C 0 km/h
3093 04-02-2009 18:51:50 3.4 C 4.7 g/m*3 3.4 C 0 km/h
3094 04-02-2009 19:03:50 3.3 C 4.67 g/m*3 3.3 C 0 km/h
3095 04-02-2009 19:15:49 3.3 C 4.73 g/m*3 3.3 C 0 km/h
3096 04-02-2009 19:27:49 3.2 C 4.7 g/m*3 3.2 C 0 km/h
3097 04-02-2009 19:39:50 3.3 C 4.73 g/m*3 3.3 C 0 km/h
3098 04-02-2009 19:51:49 3.2 C 4.7 g/m*3 3.2 C 0 km/h
3099 04-02-2009 20:03:49 3.1 C 4.61 g/m*3 3.1 C 0 km/h
3100 04-02-2009 20:15:50 3.1 C 4.67 g/m*3 3.1 C 0 km/h
Sensor: Nr:Datum:Temp:Abs-Feuchte:Windchill:Wind:
Aussen-T/F 3101 04-02-2009 20:27:50 3 C 4.64 g/m*3 3 C 0 km/h
3102 04-02-2009 20:39:49 3.2 C 4.7 g/m*3 3.2 C 0 km/h
3103 04-02-2009 20:51:49 2.9 C 4.67 g/m*3 2.9 C 0 km/h
3104 04-02-2009 21:03:49 2.9 C 4.61 g/m*3 2.9 C 0 km/h
3105 04-02-2009 21:15:48 2.9 C 4.67 g/m*3 2.9 C 0 km/h
3106 04-02-2009 21:27:48 2.8 C 4.58 g/m*3 2.8 C 0 km/h
3107 04-02-2009 21:39:49 2.7 C 4.54 g/m*3 2.7 C 0 km/h
3108 04-02-2009 21:51:48 2.4 C 4.45 g/m*3 2.4 C 0 km/h
3109 04-02-2009 22:04:49 2 C 4.33 g/m*3 2 C 0 km/h
3110 04-02-2009 22:16:50 1.9 C 4.42 g/m*3 1.9 C 0 km/h
3111 04-02-2009 22:28:50 2.1 C 4.48 g/m*3 2.1 C 0 km/h
3112 04-02-2009 22:40:50 2 C 4.39 g/m*3 2 C 0 km/h
3113 04-02-2009 22:52:50 1.6 C 4.33 g/m*3 1.6 C 0 km/h
3114 04-02-2009 23:04:50 1.6 C 4.38 g/m*3 1.6 C 0 km/h
3115 04-02-2009 23:16:50 1.4 C 4.32 g/m*3 1.4 C 0 km/h
3116 04-02-2009 23:28:50 1.5 C 4.4 g/m*3 1.5 C 0 km/h
3117 04-02-2009 23:40:50 1.3 C 4.34 g/m*3 1.3 C 0 km/h
3118 04-02-2009 23:52:50 1.2 C 4.31 g/m*3 1.2 C 0 km/h
3119 05-02-2009 00:04:50 1 C 4.26 g/m*3 1 C 0 km/h
3120 05-02-2009 00:16:50 0.9 C 4.28 g/m*3 0.9 C 0 km/h
3121 05-02-2009 00:28:50 0.6 C 4.19 g/m*3 0.6 C 0 km/h
3122 05-02-2009 00:40:50 0.4 C 4.13 g/m*3 0.4 C 0 km/h
3123 05-02-2009 00:52:50 0.3 C 4.16 g/m*3 0.3 C 0 km/h
3124 05-02-2009 01:04:50 0.1 C 4.1 g/m*3 0.1 C 0 km/h
3125 05-02-2009 01:16:50 -0.1 C 4.04 g/m*3 -0.1 C 0 km/h
Sensor: Nr:Datum:Temp:Abs-Feuchte:Windchill:Wind:
Aussen-T/F 3126 05-02-2009 01:28:50 -0.2 C 4.01 g/m*3 -0.2 C 0 km/h
3127 05-02-2009 01:40:50 -0.5 C 3.93 g/m*3 -0.5 C 0 km/h
3128 05-02-2009 01:52:50 -0.6 C 3.9 g/m*3 -0.6 C 0 km/h
3129 05-02-2009 02:04:51 -0.6 C 3.95 g/m*3 -0.6 C 0 km/h
3130 05-02-2009 02:16:51 -0.8 C 3.94 g/m*3 -0.8 C 0 km/h
3131 05-02-2009 02:28:51 -1 C 3.89 g/m*3 -1 C 0 km/h
3132 05-02-2009 02:40:51 -1 C 3.89 g/m*3 -1 C 0 km/h
3133 05-02-2009 02:52:51 -1.1 C 3.91 g/m*3 -1.1 C 0 km/h
3134 05-02-2009 03:04:51 -1.1 C 3.91 g/m*3 -1.1 C 0 km/h
3135 05-02-2009 03:16:51 -1.2 C 3.92 g/m*3 -1.2 C 0 km/h
3136 05-02-2009 03:28:51 -1.2 C 3.92 g/m*3 -1.2 C 0 km/h
3137 05-02-2009 03:40:51 -1.1 C 4 g/m*3 -1.1 C 0 km/h
3138 05-02-2009 03:52:51 -0.9 C 4.05 g/m*3 -0.9 C 0 km/h
3139 05-02-2009 04:04:51 -0.9 C 4.05 g/m*3 -0.9 C 0 km/h
3140 05-02-2009 04:16:51 -0.9 C 4.05 g/m*3 -0.9 C 0 km/h
3141 05-02-2009 04:28:51 -0.6 C 4.18 g/m*3 -0.6 C 0 km/h
3142 05-02-2009 04:40:51 -0.9 C 4.05 g/m*3 -0.9 C 0 km/h
3143 05-02-2009 04:52:51 -0.7 C 4.15 g/m*3 -0.7 C 0 km/h
3144 05-02-2009 05:04:51 -0.8 C 4.13 g/m*3 -0.8 C 0 km/h
3145 05-02-2009 05:16:51 -0.7 C 4.15 g/m*3 -0.7 C 0 km/h
3146 05-02-2009 05:28:51 -0.7 C 4.15 g/m*3 -0.7 C 0 km/h
3147 05-02-2009 05:40:51 -0.6 C 4.18 g/m*3 -0.6 C 0 km/h
3148 05-02-2009 05:52:52 -0.8 C 4.13 g/m*3 -0.8 C 0 km/h
3149 05-02-2009 06:04:52 -0.9 C 4.1 g/m*3 -0.9 C 0 km/h
3150 05-02-2009 06:16:52 -1 C 4.07 g/m*3 -1 C 0 km/h
Sensor: Nr:Datum:Temp:Abs-Feuchte:Windchill:Wind:
Aussen-T/F 3151 05-02-2009 06:28:52 -1.1 C 4.04 g/m*3 -1.1 C 0 km/h
3152 05-02-2009 06:40:52 -1.2 C 4.01 g/m*3 -1.2 C 0 km/h
3153 05-02-2009 06:52:52 -1.3 C 3.98 g/m*3 -1.3 C 0 km/h
3154 05-02-2009 07:04:49 -1.4 C 3.96 g/m*3 -1.4 C 0 km/h
3155 05-02-2009 07:16:49 -1.2 C 4.01 g/m*3 -1.2 C 0 km/h
3156 05-02-2009 07:28:49 -1.1 C 4.09 g/m*3 -1.1 C 0 km/h
3157 05-02-2009 07:40:49 -1.1 C 4.09 g/m*3 -1.1 C 0 km/h
3158 05-02-2009 07:52:49 -1 C 4.11 g/m*3 -1 C 0 km/h
3159 05-02-2009 08:04:48 -0.9 C 4.14 g/m*3 -0.9 C 0 km/h
3160 05-02-2009 08:16:48 -0.6 C 4.28 g/m*3 -0.6 C 0 km/h
3161 05-02-2009 08:28:49 -0.3 C 4.37 g/m*3 -0.3 C 0 km/h
3162 05-02-2009 08:40:48 0 C 4.46 g/m*3 0 C 0 km/h
3163 05-02-2009 08:52:48 0.2 C 4.57 g/m*3 0.2 C 0 km/h
3164 05-02-2009 09:04:47 0.6 C 4.7 g/m*3 0.6 C 0 km/h
3165 05-02-2009 09:16:48 0.9 C 4.79 g/m*3 0.9 C 0 km/h
3166 05-02-2009 09:28:48 0.7 C 4.68 g/m*3 0.7 C 0 km/h
3167 05-02-2009 09:40:48 1 C 4.72 g/m*3 1 C 0 km/h
3168 05-02-2009 09:52:47 1 C 4.72 g/m*3 1 C 0 km/h
3169 05-02-2009 10:04:48 1.2 C 4.79 g/m*3 1.2 C 0 km/h
3170 05-02-2009 10:16:47 1.5 C 4.83 g/m*3 1.5 C 0 km/h
3171 05-02-2009 10:28:47 1.7 C 4.85 g/m*3 1.7 C 0 km/h
3172 05-02-2009 10:40:47 1.9 C 4.91 g/m*3 1.9 C 0 km/h
3173 05-02-2009 10:52:47 2.4 C 5.08 g/m*3 2.4 C 0 km/h
3174 05-02-2009 11:04:47 3.1 C 5.21 g/m*3 3.1 C 0 km/h
3175 05-02-2009 11:16:46 3.6 C 5.39 g/m*3 3.6 C 0 km/h
Sensor: Nr:Datum:Temp:Abs-Feuchte:Windchill:Wind:
Aussen-T/F 3176 05-02-2009 11:28:46 3.8 C 5.4 g/m*3 3.8 C 0 km/h
3177 05-02-2009 11:40:46 4.3 C 5.25 g/m*3 4.3 C 0 km/h
3178 05-02-2009 11:52:46 4.7 C 5.2 g/m*3 4.7 C 0 km/h
3179 05-02-2009 12:04:46 5.1 C 4.99 g/m*3 5.1 C 0 km/h
3180 05-02-2009 12:16:46 5.7 C 5.05 g/m*3 5.7 C 0 km/h
3181 05-02-2009 12:28:46 6.2 C 4.93 g/m*3 6.2 C 0 km/h
3182 05-02-2009 12:40:46 7 C 4.88 g/m*3 7 C 0 km/h
3183 05-02-2009 12:52:46 8.1 C 4.74 g/m*3 8.1 C 0 km/h
3184 05-02-2009 13:04:45 8.8 C 4.79 g/m*3 8.8 C 0 km/h
3185 05-02-2009 13:16:46 8.8 C 4.7 g/m*3 8.8 C 0 km/h
3186 05-02-2009 13:28:46 8.7 C 4.76 g/m*3 8.7 C 0 km/h
3187 05-02-2009 13:40:45 9.3 C 4.76 g/m*3 9.3 C 0 km/h
3188 05-02-2009 13:52:45 9.5 C 4.73 g/m*3 9.5 C 0 km/h
3189 05-02-2009 14:04:45 9.8 C 4.73 g/m*3 9.8 C 0 km/h
3190 05-02-2009 14:16:45 10.2 C 4.66 g/m*3 10.2 C 0 km/h
3191 05-02-2009 14:28:45 10.6 C 4.59 g/m*3 10.6 C 0 km/h
3192 05-02-2009 14:40:45 10.3 C 4.6 g/m*3 10.3 C 0 km/h
3193 05-02-2009 14:52:44 10.1 C 4.54 g/m*3 10.1 C 0 km/h
3194 05-02-2009 15:04:45 10.2 C 4.66 g/m*3 10.2 C 0 km/h
3195 05-02-2009 15:16:44 10 C 4.7 g/m*3 10 C 0 km/h
3196 05-02-2009 15:28:44 9.8 C 4.73 g/m*3 9.8 C 0 km/h
3197 05-02-2009 15:40:44 9.8 C 4.73 g/m*3 9.8 C 0 km/h
3198 05-02-2009 15:52:44 10 C 4.79 g/m*3 10 C 0 km/h
3199 05-02-2009 16:04:44 9.9 C 4.86 g/m*3 9.9 C 0 km/h
3200 05-02-2009 16:16:44 9.7 C 4.79 g/m*3 9.7 C 0 km/h
Sensor: Nr:Datum:Temp:Abs-Feuchte:Windchill:Wind:
Aussen-T/F 3201 05-02-2009 16:28:44 9.5 C 4.82 g/m*3 9.5 C 0 km/h
3202 05-02-2009 16:40:43 9.6 C 4.76 g/m*3 9.6 C 0 km/h
3203 05-02-2009 16:52:44 9.2 C 4.73 g/m*3 9.2 C 0 km/h
3204 05-02-2009 17:04:43 8.6 C 4.81 g/m*3 8.6 C 0 km/h
3205 05-02-2009 17:16:43 7.8 C 4.73 g/m*3 7.8 C 0 km/h
3206 05-02-2009 17:28:43 7.2 C 4.79 g/m*3 7.2 C 0 km/h
3207 05-02-2009 17:40:43 6.9 C 4.85 g/m*3 6.9 C 0 km/h
3208 05-02-2009 17:52:43 6.5 C 4.8 g/m*3 6.5 C 0 km/h
3209 05-02-2009 18:04:43 6.1 C 4.82 g/m*3 6.1 C 0 km/h
3210 05-02-2009 18:16:42 5.8 C 4.87 g/m*3 5.8 C 0 km/h
3211 05-02-2009 18:28:42 5.5 C 4.85 g/m*3 5.5 C 0 km/h
3212 05-02-2009 18:40:43 5 C 4.76 g/m*3 5 C 0 km/h
3213 05-02-2009 18:52:42 4.8 C 4.9 g/m*3 4.8 C 0 km/h
3214 05-02-2009 19:04:42 4.6 C 4.83 g/m*3 4.6 C 0 km/h
3215 05-02-2009 19:16:42 4.4 C 4.9 g/m*3 4.4 C 0 km/h
3216 05-02-2009 19:28:42 4.1 C 4.8 g/m*3 4.1 C 0 km/h
3217 05-02-2009 19:40:42 4 C 4.83 g/m*3 4 C 0 km/h
3218 05-02-2009 19:52:41 3.8 C 4.89 g/m*3 3.8 C 0 km/h
3219 05-02-2009 20:04:42 3.7 C 4.92 g/m*3 3.7 C 0 km/h
3220 05-02-2009 20:16:42 3.7 C 4.99 g/m*3 3.7 C 0 km/h
3221 05-02-2009 20:28:42 3.8 C 5.08 g/m*3 3.8 C 0 km/h
3222 05-02-2009 20:40:41 4.1 C 5.18 g/m*3 4.1 C 0 km/h
3223 05-02-2009 20:52:42 3.9 C 5.05 g/m*3 3.9 C 0 km/h
3224 05-02-2009 21:04:41 3.7 C 4.99 g/m*3 3.7 C 0 km/h
3225 05-02-2009 21:16:41 3.7 C 5.11 g/m*3 3.7 C 0 km/h
Sensor: Nr:Datum:Temp:Abs-Feuchte:Windchill:Wind:
Aussen-T/F 3226 05-02-2009 21:28:41 3.5 C 5.04 g/m*3 3.5 C 0 km/h
3227 05-02-2009 21:40:41 3.4 C 5.07 g/m*3 3.4 C 0 km/h
3228 05-02-2009 21:52:41 3.4 C 5.07 g/m*3 3.4 C 0 km/h
3229 05-02-2009 22:04:40 3.4 C 5.13 g/m*3 3.4 C 0 km/h
3230 05-02-2009 22:16:41 3.4 C 5.13 g/m*3 3.4 C 0 km/h
3231 05-02-2009 22:28:41 3.4 C 5.13 g/m*3 3.4 C 0 km/h
3232 05-02-2009 22:40:40 3.5 C 5.23 g/m*3 3.5 C 0 km/h
3233 05-02-2009 22:52:40 3.6 C 5.26 g/m*3 3.6 C 0 km/h
3234 05-02-2009 23:04:40 3.9 C 5.37 g/m*3 3.9 C 0 km/h
3235 05-02-2009 23:16:40 3.8 C 5.21 g/m*3 3.8 C 0 km/h
3236 05-02-2009 23:28:40 3.7 C 5.17 g/m*3 3.7 C 0 km/h
3237 05-02-2009 23:40:40 3.8 C 5.14 g/m*3 3.8 C 0 km/h
3238 05-02-2009 23:52:39 3.7 C 5.11 g/m*3 3.7 C 0 km/h
3239 06-02-2009 00:04:40 3.3 C 4.91 g/m*3 3.3 C 0 km/h
3240 06-02-2009 00:16:39 3 C 4.82 g/m*3 3 C 0 km/h
3241 06-02-2009 00:28:39 2.4 C 4.68 g/m*3 2.4 C 0 km/h
3242 06-02-2009 00:40:39 2.3 C 4.65 g/m*3 2.3 C 0 km/h
3243